<?xml version="1.0" encoding="UTF-8" standalone="no" ?>
<gpx xmlns="http://www.topografix.com/GPX/1/1" xmlns:xsi="http://www.w3.org/2001/XMLSchema-instance" xsi:schemaLocation="http://www.topografix.com/GPX/1/1 http://www.topografix.com/GPX/1/1/gpx.xsd" version="1.1" creator="VisuGPX - https://www.visugpx.com">
  <metadata>
    <name>Randonnée Le Pout (Gironde)</name>
    <desc><![CDATA[11 km dépaysants]]></desc>
  </metadata>
  <trk>
    <name><![CDATA[Track 009]]></name>
    <desc><![CDATA[20 avr. 2016  1:58 pm]]></desc>
    <trkseg>
      <trkpt lat="44.80241" lon="-0.35975">
        <ele>87.588</ele>
        <time>2016-04-20T11:58:57.299Z</time>
      </trkpt>
      <trkpt lat="44.80241" lon="-0.35975">
        <ele>87.588</ele>
        <time>2016-04-20T11:58:57.299Z</time>
      </trkpt>
      <trkpt lat="44.80246" lon="-0.35988">
        <ele>87.828</ele>
        <time>2016-04-20T11:59:23.684Z</time>
      </trkpt>
      <trkpt lat="44.80246" lon="-0.35989">
        <ele>89.263</ele>
        <time>2016-04-20T11:59:24.419Z</time>
      </trkpt>
      <trkpt lat="44.80241" lon="-0.36">
        <ele>91.957</ele>
        <time>2016-04-20T11:59:35.818Z</time>
      </trkpt>
      <trkpt lat="44.80239" lon="-0.36013">
        <ele>94.343</ele>
        <time>2016-04-20T11:59:47.000Z</time>
      </trkpt>
      <trkpt lat="44.80239" lon="-0.36013">
        <ele>95.334</ele>
        <time>2016-04-20T11:59:58.000Z</time>
      </trkpt>
      <trkpt lat="44.80239" lon="-0.36013">
        <ele>95.334</ele>
        <time>2016-04-20T11:59:58.000Z</time>
      </trkpt>
      <trkpt lat="44.80235" lon="-0.36028">
        <ele>95.257</ele>
        <time>2016-04-20T12:00:08.591Z</time>
      </trkpt>
      <trkpt lat="44.80233" lon="-0.36041">
        <ele>95.199</ele>
        <time>2016-04-20T12:00:14.962Z</time>
      </trkpt>
      <trkpt lat="44.80229" lon="-0.36055">
        <ele>95.484</ele>
        <time>2016-04-20T12:00:21.722Z</time>
      </trkpt>
      <trkpt lat="44.80229" lon="-0.36068">
        <ele>96.202</ele>
        <time>2016-04-20T12:00:28.182Z</time>
      </trkpt>
      <trkpt lat="44.80231" lon="-0.36081">
        <ele>96.863</ele>
        <time>2016-04-20T12:00:34.863Z</time>
      </trkpt>
      <trkpt lat="44.80239" lon="-0.36089">
        <ele>96.617</ele>
        <time>2016-04-20T12:00:41.946Z</time>
      </trkpt>
      <trkpt lat="44.80248" lon="-0.36092">
        <ele>95.336</ele>
        <time>2016-04-20T12:00:49.294Z</time>
      </trkpt>
      <trkpt lat="44.80258" lon="-0.36096">
        <ele>93.688</ele>
        <time>2016-04-20T12:00:56.693Z</time>
      </trkpt>
      <trkpt lat="44.80267" lon="-0.36103">
        <ele>92.355</ele>
        <time>2016-04-20T12:01:04.779Z</time>
      </trkpt>
      <trkpt lat="44.80276" lon="-0.36106">
        <ele>91.62</ele>
        <time>2016-04-20T12:01:12.091Z</time>
      </trkpt>
      <trkpt lat="44.80286" lon="-0.36107">
        <ele>92.185</ele>
        <time>2016-04-20T12:01:20.235Z</time>
      </trkpt>
      <trkpt lat="44.80296" lon="-0.36113">
        <ele>94.127</ele>
        <time>2016-04-20T12:01:28.307Z</time>
      </trkpt>
      <trkpt lat="44.80306" lon="-0.36114">
        <ele>96.133</ele>
        <time>2016-04-20T12:01:36.251Z</time>
      </trkpt>
      <trkpt lat="44.80316" lon="-0.36114">
        <ele>97.319</ele>
        <time>2016-04-20T12:01:44.064Z</time>
      </trkpt>
      <trkpt lat="44.80326" lon="-0.36115">
        <ele>98.524</ele>
        <time>2016-04-20T12:01:51.139Z</time>
      </trkpt>
      <trkpt lat="44.80336" lon="-0.36117">
        <ele>100.171</ele>
        <time>2016-04-20T12:01:58.063Z</time>
      </trkpt>
      <trkpt lat="44.80345" lon="-0.36122">
        <ele>101.074</ele>
        <time>2016-04-20T12:02:04.829Z</time>
      </trkpt>
      <trkpt lat="44.80354" lon="-0.36122">
        <ele>100.112</ele>
        <time>2016-04-20T12:02:11.518Z</time>
      </trkpt>
      <trkpt lat="44.80364" lon="-0.36122">
        <ele>97.738</ele>
        <time>2016-04-20T12:02:18.766Z</time>
      </trkpt>
      <trkpt lat="44.80375" lon="-0.36123">
        <ele>95.291</ele>
        <time>2016-04-20T12:02:26.697Z</time>
      </trkpt>
      <trkpt lat="44.80385" lon="-0.36121">
        <ele>93.463</ele>
        <time>2016-04-20T12:02:34.560Z</time>
      </trkpt>
      <trkpt lat="44.80394" lon="-0.36122">
        <ele>91.423</ele>
        <time>2016-04-20T12:02:41.429Z</time>
      </trkpt>
      <trkpt lat="44.80404" lon="-0.36121">
        <ele>88.633</ele>
        <time>2016-04-20T12:02:49.111Z</time>
      </trkpt>
      <trkpt lat="44.80413" lon="-0.36118">
        <ele>85.786</ele>
        <time>2016-04-20T12:02:57.000Z</time>
      </trkpt>
      <trkpt lat="44.80413" lon="-0.36118">
        <ele>83.526</ele>
        <time>2016-04-20T12:02:59.000Z</time>
      </trkpt>
      <trkpt lat="44.80413" lon="-0.36118">
        <ele>83.526</ele>
        <time>2016-04-20T12:02:59.000Z</time>
      </trkpt>
      <trkpt lat="44.80423" lon="-0.36116">
        <ele>82.981</ele>
        <time>2016-04-20T12:03:10.846Z</time>
      </trkpt>
      <trkpt lat="44.80433" lon="-0.36113">
        <ele>83.379</ele>
        <time>2016-04-20T12:03:17.781Z</time>
      </trkpt>
      <trkpt lat="44.80444" lon="-0.3611">
        <ele>83.906</ele>
        <time>2016-04-20T12:03:25.275Z</time>
      </trkpt>
      <trkpt lat="44.80453" lon="-0.3611">
        <ele>84.904</ele>
        <time>2016-04-20T12:03:31.769Z</time>
      </trkpt>
      <trkpt lat="44.80462" lon="-0.36107">
        <ele>85.804</ele>
        <time>2016-04-20T12:03:38.883Z</time>
      </trkpt>
      <trkpt lat="44.80471" lon="-0.36103">
        <ele>86.036</ele>
        <time>2016-04-20T12:03:46.000Z</time>
      </trkpt>
      <trkpt lat="44.80471" lon="-0.36103">
        <ele>85.915</ele>
        <time>2016-04-20T12:03:53.000Z</time>
      </trkpt>
      <trkpt lat="44.80471" lon="-0.36103">
        <ele>85.915</ele>
        <time>2016-04-20T12:03:53.000Z</time>
      </trkpt>
      <trkpt lat="44.8048" lon="-0.36113">
        <ele>85.857</ele>
        <time>2016-04-20T12:04:04.024Z</time>
      </trkpt>
      <trkpt lat="44.80484" lon="-0.36124">
        <ele>85.095</ele>
        <time>2016-04-20T12:04:11.595Z</time>
      </trkpt>
      <trkpt lat="44.80491" lon="-0.36134">
        <ele>83</ele>
        <time>2016-04-20T12:04:20.112Z</time>
      </trkpt>
      <trkpt lat="44.80496" lon="-0.36146">
        <ele>80.71</ele>
        <time>2016-04-20T12:04:28.833Z</time>
      </trkpt>
      <trkpt lat="44.80505" lon="-0.36153">
        <ele>79.546</ele>
        <time>2016-04-20T12:04:37.590Z</time>
      </trkpt>
      <trkpt lat="44.80513" lon="-0.36158">
        <ele>79.577</ele>
        <time>2016-04-20T12:04:45.578Z</time>
      </trkpt>
      <trkpt lat="44.80519" lon="-0.36168">
        <ele>80.366</ele>
        <time>2016-04-20T12:04:53.890Z</time>
      </trkpt>
      <trkpt lat="44.80526" lon="-0.36177">
        <ele>81.295</ele>
        <time>2016-04-20T12:05:02.790Z</time>
      </trkpt>
      <trkpt lat="44.80533" lon="-0.36186">
        <ele>81.879</ele>
        <time>2016-04-20T12:05:11.319Z</time>
      </trkpt>
      <trkpt lat="44.8054" lon="-0.36195">
        <ele>81.962</ele>
        <time>2016-04-20T12:05:21.164Z</time>
      </trkpt>
      <trkpt lat="44.80547" lon="-0.36204">
        <ele>81.698</ele>
        <time>2016-04-20T12:05:30.509Z</time>
      </trkpt>
      <trkpt lat="44.80554" lon="-0.36213">
        <ele>81.239</ele>
        <time>2016-04-20T12:05:39.845Z</time>
      </trkpt>
      <trkpt lat="44.80563" lon="-0.36219">
        <ele>80.668</ele>
        <time>2016-04-20T12:05:50.029Z</time>
      </trkpt>
      <trkpt lat="44.80571" lon="-0.36227">
        <ele>79.893</ele>
        <time>2016-04-20T12:05:59.372Z</time>
      </trkpt>
      <trkpt lat="44.80578" lon="-0.36234">
        <ele>78.27</ele>
        <time>2016-04-20T12:06:08.405Z</time>
      </trkpt>
      <trkpt lat="44.80586" lon="-0.36242">
        <ele>75.707</ele>
        <time>2016-04-20T12:06:18.053Z</time>
      </trkpt>
      <trkpt lat="44.80591" lon="-0.36254">
        <ele>73.436</ele>
        <time>2016-04-20T12:06:27.886Z</time>
      </trkpt>
      <trkpt lat="44.80598" lon="-0.36264">
        <ele>72.385</ele>
        <time>2016-04-20T12:06:37.397Z</time>
      </trkpt>
      <trkpt lat="44.80605" lon="-0.36272">
        <ele>72.631</ele>
        <time>2016-04-20T12:06:46.694Z</time>
      </trkpt>
      <trkpt lat="44.80614" lon="-0.3628">
        <ele>73.773</ele>
        <time>2016-04-20T12:06:56.448Z</time>
      </trkpt>
      <trkpt lat="44.80623" lon="-0.36287">
        <ele>74.488</ele>
        <time>2016-04-20T12:07:06.810Z</time>
      </trkpt>
      <trkpt lat="44.80631" lon="-0.36295">
        <ele>73.601</ele>
        <time>2016-04-20T12:07:16.652Z</time>
      </trkpt>
      <trkpt lat="44.80641" lon="-0.36297">
        <ele>71.448</ele>
        <time>2016-04-20T12:07:27.376Z</time>
      </trkpt>
      <trkpt lat="44.80645" lon="-0.36283">
        <ele>69.283</ele>
        <time>2016-04-20T12:07:38.456Z</time>
      </trkpt>
      <trkpt lat="44.80648" lon="-0.36271">
        <ele>68.016</ele>
        <time>2016-04-20T12:07:48.282Z</time>
      </trkpt>
      <trkpt lat="44.80654" lon="-0.3626">
        <ele>67.796</ele>
        <time>2016-04-20T12:07:57.356Z</time>
      </trkpt>
      <trkpt lat="44.80659" lon="-0.36249">
        <ele>68.208</ele>
        <time>2016-04-20T12:08:06.437Z</time>
      </trkpt>
      <trkpt lat="44.80665" lon="-0.36239">
        <ele>69.029</ele>
        <time>2016-04-20T12:08:15.800Z</time>
      </trkpt>
      <trkpt lat="44.80671" lon="-0.3623">
        <ele>70.332</ele>
        <time>2016-04-20T12:08:26.144Z</time>
      </trkpt>
      <trkpt lat="44.80677" lon="-0.36219">
        <ele>71.754</ele>
        <time>2016-04-20T12:08:36.692Z</time>
      </trkpt>
      <trkpt lat="44.80684" lon="-0.3621">
        <ele>72.517</ele>
        <time>2016-04-20T12:08:47.139Z</time>
      </trkpt>
      <trkpt lat="44.80691" lon="-0.36201">
        <ele>72.465</ele>
        <time>2016-04-20T12:08:57.431Z</time>
      </trkpt>
      <trkpt lat="44.80696" lon="-0.3619">
        <ele>72.058</ele>
        <time>2016-04-20T12:09:07.144Z</time>
      </trkpt>
      <trkpt lat="44.80701" lon="-0.36178">
        <ele>71.758</ele>
        <time>2016-04-20T12:09:17.349Z</time>
      </trkpt>
      <trkpt lat="44.80705" lon="-0.36167">
        <ele>71.557</ele>
        <time>2016-04-20T12:09:27.710Z</time>
      </trkpt>
      <trkpt lat="44.80709" lon="-0.36153">
        <ele>71.395</ele>
        <time>2016-04-20T12:09:39.490Z</time>
      </trkpt>
      <trkpt lat="44.8071" lon="-0.3614">
        <ele>71.403</ele>
        <time>2016-04-20T12:09:51.182Z</time>
      </trkpt>
      <trkpt lat="44.80715" lon="-0.36129">
        <ele>71.565</ele>
        <time>2016-04-20T12:10:03.039Z</time>
      </trkpt>
      <trkpt lat="44.8072" lon="-0.36117">
        <ele>71.698</ele>
        <time>2016-04-20T12:10:15.113Z</time>
      </trkpt>
      <trkpt lat="44.80724" lon="-0.36106">
        <ele>72.065</ele>
        <time>2016-04-20T12:10:26.020Z</time>
      </trkpt>
      <trkpt lat="44.8073" lon="-0.36095">
        <ele>73.248</ele>
        <time>2016-04-20T12:10:35.496Z</time>
      </trkpt>
      <trkpt lat="44.80732" lon="-0.36082">
        <ele>75.101</ele>
        <time>2016-04-20T12:10:44.000Z</time>
      </trkpt>
      <trkpt lat="44.80732" lon="-0.36082">
        <ele>76.586</ele>
        <time>2016-04-20T12:10:47.000Z</time>
      </trkpt>
      <trkpt lat="44.80732" lon="-0.36082">
        <ele>76.586</ele>
        <time>2016-04-20T12:10:47.000Z</time>
      </trkpt>
      <trkpt lat="44.8074" lon="-0.36091">
        <ele>76.675</ele>
        <time>2016-04-20T12:11:05.602Z</time>
      </trkpt>
      <trkpt lat="44.80746" lon="-0.36102">
        <ele>77.434</ele>
        <time>2016-04-20T12:11:14.880Z</time>
      </trkpt>
      <trkpt lat="44.80751" lon="-0.36112">
        <ele>79.925</ele>
        <time>2016-04-20T12:11:23.695Z</time>
      </trkpt>
      <trkpt lat="44.80758" lon="-0.36122">
        <ele>82.87</ele>
        <time>2016-04-20T12:11:33.032Z</time>
      </trkpt>
      <trkpt lat="44.80766" lon="-0.36129">
        <ele>85.096</ele>
        <time>2016-04-20T12:11:42.320Z</time>
      </trkpt>
      <trkpt lat="44.80772" lon="-0.36139">
        <ele>86.912</ele>
        <time>2016-04-20T12:11:51.160Z</time>
      </trkpt>
      <trkpt lat="44.80778" lon="-0.36149">
        <ele>88.443</ele>
        <time>2016-04-20T12:12:00.313Z</time>
      </trkpt>
      <trkpt lat="44.80787" lon="-0.36157">
        <ele>89.527</ele>
        <time>2016-04-20T12:12:10.350Z</time>
      </trkpt>
      <trkpt lat="44.80796" lon="-0.36163">
        <ele>90.164</ele>
        <time>2016-04-20T12:12:20.121Z</time>
      </trkpt>
      <trkpt lat="44.80804" lon="-0.36171">
        <ele>90.541</ele>
        <time>2016-04-20T12:12:29.112Z</time>
      </trkpt>
      <trkpt lat="44.80812" lon="-0.36178">
        <ele>91.177</ele>
        <time>2016-04-20T12:12:38.023Z</time>
      </trkpt>
      <trkpt lat="44.80821" lon="-0.36182">
        <ele>92.277</ele>
        <time>2016-04-20T12:12:46.699Z</time>
      </trkpt>
      <trkpt lat="44.80829" lon="-0.36189">
        <ele>93.182</ele>
        <time>2016-04-20T12:12:55.117Z</time>
      </trkpt>
      <trkpt lat="44.80829" lon="-0.36202">
        <ele>93.078</ele>
        <time>2016-04-20T12:13:03.618Z</time>
      </trkpt>
      <trkpt lat="44.80837" lon="-0.36209">
        <ele>91.314</ele>
        <time>2016-04-20T12:13:12.289Z</time>
      </trkpt>
      <trkpt lat="44.80844" lon="-0.3622">
        <ele>88.327</ele>
        <time>2016-04-20T12:13:21.159Z</time>
      </trkpt>
      <trkpt lat="44.80852" lon="-0.36224">
        <ele>86.154</ele>
        <time>2016-04-20T12:13:29.749Z</time>
      </trkpt>
      <trkpt lat="44.80863" lon="-0.36235">
        <ele>85.92</ele>
        <time>2016-04-20T12:13:42.452Z</time>
      </trkpt>
      <trkpt lat="44.80864" lon="-0.36247">
        <ele>86.924</ele>
        <time>2016-04-20T12:13:51.026Z</time>
      </trkpt>
      <trkpt lat="44.80866" lon="-0.3626">
        <ele>88.245</ele>
        <time>2016-04-20T12:13:59.313Z</time>
      </trkpt>
      <trkpt lat="44.80875" lon="-0.36263">
        <ele>89.411</ele>
        <time>2016-04-20T12:14:07.274Z</time>
      </trkpt>
      <trkpt lat="44.80883" lon="-0.36269">
        <ele>90.61</ele>
        <time>2016-04-20T12:14:15.127Z</time>
      </trkpt>
      <trkpt lat="44.80894" lon="-0.36271">
        <ele>92.032</ele>
        <time>2016-04-20T12:14:23.793Z</time>
      </trkpt>
      <trkpt lat="44.80903" lon="-0.36276">
        <ele>92.569</ele>
        <time>2016-04-20T12:14:32.003Z</time>
      </trkpt>
      <trkpt lat="44.80905" lon="-0.36289">
        <ele>91.293</ele>
        <time>2016-04-20T12:14:39.940Z</time>
      </trkpt>
      <trkpt lat="44.80912" lon="-0.363">
        <ele>88.733</ele>
        <time>2016-04-20T12:14:48.405Z</time>
      </trkpt>
      <trkpt lat="44.8092" lon="-0.36307">
        <ele>86.06</ele>
        <time>2016-04-20T12:14:56.046Z</time>
      </trkpt>
      <trkpt lat="44.80923" lon="-0.36319">
        <ele>84.051</ele>
        <time>2016-04-20T12:15:04.197Z</time>
      </trkpt>
      <trkpt lat="44.80928" lon="-0.36331">
        <ele>82.872</ele>
        <time>2016-04-20T12:15:13.303Z</time>
      </trkpt>
      <trkpt lat="44.80931" lon="-0.36345">
        <ele>82.285</ele>
        <time>2016-04-20T12:15:22.678Z</time>
      </trkpt>
      <trkpt lat="44.80935" lon="-0.36358">
        <ele>82.088</ele>
        <time>2016-04-20T12:15:32.902Z</time>
      </trkpt>
      <trkpt lat="44.80942" lon="-0.36366">
        <ele>81.828</ele>
        <time>2016-04-20T12:15:42.324Z</time>
      </trkpt>
      <trkpt lat="44.80945" lon="-0.3638">
        <ele>80.604</ele>
        <time>2016-04-20T12:15:52.139Z</time>
      </trkpt>
      <trkpt lat="44.80951" lon="-0.36392">
        <ele>78.333</ele>
        <time>2016-04-20T12:16:01.955Z</time>
      </trkpt>
      <trkpt lat="44.80954" lon="-0.36405">
        <ele>76.573</ele>
        <time>2016-04-20T12:16:11.219Z</time>
      </trkpt>
      <trkpt lat="44.80958" lon="-0.36416">
        <ele>76.336</ele>
        <time>2016-04-20T12:16:20.159Z</time>
      </trkpt>
      <trkpt lat="44.80961" lon="-0.36429">
        <ele>76.582</ele>
        <time>2016-04-20T12:16:29.783Z</time>
      </trkpt>
      <trkpt lat="44.80961" lon="-0.36443">
        <ele>75.741</ele>
        <time>2016-04-20T12:16:39.955Z</time>
      </trkpt>
      <trkpt lat="44.80962" lon="-0.36457">
        <ele>73.499</ele>
        <time>2016-04-20T12:16:49.339Z</time>
      </trkpt>
      <trkpt lat="44.80967" lon="-0.36467">
        <ele>70.818</ele>
        <time>2016-04-20T12:16:58.565Z</time>
      </trkpt>
      <trkpt lat="44.80971" lon="-0.3648">
        <ele>68.575</ele>
        <time>2016-04-20T12:17:08.482Z</time>
      </trkpt>
      <trkpt lat="44.80975" lon="-0.36492">
        <ele>66.798</ele>
        <time>2016-04-20T12:17:18.793Z</time>
      </trkpt>
      <trkpt lat="44.80981" lon="-0.36504">
        <ele>65.38</ele>
        <time>2016-04-20T12:17:29.404Z</time>
      </trkpt>
      <trkpt lat="44.80989" lon="-0.36512">
        <ele>64.267</ele>
        <time>2016-04-20T12:17:38.585Z</time>
      </trkpt>
      <trkpt lat="44.80998" lon="-0.36517">
        <ele>63.243</ele>
        <time>2016-04-20T12:17:47.958Z</time>
      </trkpt>
      <trkpt lat="44.81003" lon="-0.36528">
        <ele>62.211</ele>
        <time>2016-04-20T12:17:56.561Z</time>
      </trkpt>
      <trkpt lat="44.80999" lon="-0.3654">
        <ele>60.69</ele>
        <time>2016-04-20T12:18:05.359Z</time>
      </trkpt>
      <trkpt lat="44.81005" lon="-0.36551">
        <ele>58.25</ele>
        <time>2016-04-20T12:18:13.573Z</time>
      </trkpt>
      <trkpt lat="44.81011" lon="-0.36561">
        <ele>55.831</ele>
        <time>2016-04-20T12:18:22.082Z</time>
      </trkpt>
      <trkpt lat="44.81018" lon="-0.3657">
        <ele>54.529</ele>
        <time>2016-04-20T12:18:30.183Z</time>
      </trkpt>
      <trkpt lat="44.81023" lon="-0.36581">
        <ele>54.224</ele>
        <time>2016-04-20T12:18:38.561Z</time>
      </trkpt>
      <trkpt lat="44.81032" lon="-0.36587">
        <ele>54.246</ele>
        <time>2016-04-20T12:18:46.812Z</time>
      </trkpt>
      <trkpt lat="44.8104" lon="-0.36594">
        <ele>54.11</ele>
        <time>2016-04-20T12:18:55.569Z</time>
      </trkpt>
      <trkpt lat="44.81047" lon="-0.36602">
        <ele>53.643</ele>
        <time>2016-04-20T12:19:03.801Z</time>
      </trkpt>
      <trkpt lat="44.81055" lon="-0.36612">
        <ele>52.597</ele>
        <time>2016-04-20T12:19:13.133Z</time>
      </trkpt>
      <trkpt lat="44.81062" lon="-0.36621">
        <ele>51.027</ele>
        <time>2016-04-20T12:19:22.671Z</time>
      </trkpt>
      <trkpt lat="44.81072" lon="-0.36623">
        <ele>49.57</ele>
        <time>2016-04-20T12:19:32.029Z</time>
      </trkpt>
      <trkpt lat="44.81078" lon="-0.36634">
        <ele>48.496</ele>
        <time>2016-04-20T12:19:41.086Z</time>
      </trkpt>
      <trkpt lat="44.81084" lon="-0.36643">
        <ele>47.664</ele>
        <time>2016-04-20T12:19:50.001Z</time>
      </trkpt>
      <trkpt lat="44.81084" lon="-0.36643">
        <ele>47.217</ele>
        <time>2016-04-20T12:19:50.999Z</time>
      </trkpt>
      <trkpt lat="44.81084" lon="-0.36643">
        <ele>47.217</ele>
        <time>2016-04-20T12:19:50.999Z</time>
      </trkpt>
      <trkpt lat="44.81087" lon="-0.36656">
        <ele>47.365</ele>
        <time>2016-04-20T12:20:05.980Z</time>
      </trkpt>
      <trkpt lat="44.81086" lon="-0.3667">
        <ele>47.123</ele>
        <time>2016-04-20T12:20:15.402Z</time>
      </trkpt>
      <trkpt lat="44.81082" lon="-0.36681">
        <ele>46.651</ele>
        <time>2016-04-20T12:20:22.603Z</time>
      </trkpt>
      <trkpt lat="44.81078" lon="-0.36694">
        <ele>46.141</ele>
        <time>2016-04-20T12:20:30.618Z</time>
      </trkpt>
      <trkpt lat="44.81075" lon="-0.36707">
        <ele>45.685</ele>
        <time>2016-04-20T12:20:38.794Z</time>
      </trkpt>
      <trkpt lat="44.81071" lon="-0.3672">
        <ele>45.198</ele>
        <time>2016-04-20T12:20:46.920Z</time>
      </trkpt>
      <trkpt lat="44.81067" lon="-0.36733">
        <ele>44.806</ele>
        <time>2016-04-20T12:20:55.053Z</time>
      </trkpt>
      <trkpt lat="44.81062" lon="-0.36744">
        <ele>44.609</ele>
        <time>2016-04-20T12:21:03.038Z</time>
      </trkpt>
      <trkpt lat="44.81057" lon="-0.36757">
        <ele>44.092</ele>
        <time>2016-04-20T12:21:11.615Z</time>
      </trkpt>
      <trkpt lat="44.81054" lon="-0.3677">
        <ele>42.965</ele>
        <time>2016-04-20T12:21:20.469Z</time>
      </trkpt>
      <trkpt lat="44.81049" lon="-0.36783">
        <ele>41.912</ele>
        <time>2016-04-20T12:21:29.700Z</time>
      </trkpt>
      <trkpt lat="44.81047" lon="-0.36796">
        <ele>41.61</ele>
        <time>2016-04-20T12:21:38.008Z</time>
      </trkpt>
      <trkpt lat="44.81046" lon="-0.3681">
        <ele>41.794</ele>
        <time>2016-04-20T12:21:46.416Z</time>
      </trkpt>
      <trkpt lat="44.81043" lon="-0.36822">
        <ele>41.675</ele>
        <time>2016-04-20T12:21:54.369Z</time>
      </trkpt>
      <trkpt lat="44.81044" lon="-0.36835">
        <ele>40.363</ele>
        <time>2016-04-20T12:22:02.749Z</time>
      </trkpt>
      <trkpt lat="44.81048" lon="-0.36848">
        <ele>38.063</ele>
        <time>2016-04-20T12:22:11.043Z</time>
      </trkpt>
      <trkpt lat="44.81055" lon="-0.36859">
        <ele>36.291</ele>
        <time>2016-04-20T12:22:19.242Z</time>
      </trkpt>
      <trkpt lat="44.81058" lon="-0.36871">
        <ele>36.202</ele>
        <time>2016-04-20T12:22:26.657Z</time>
      </trkpt>
      <trkpt lat="44.81057" lon="-0.36885">
        <ele>37.353</ele>
        <time>2016-04-20T12:22:34.910Z</time>
      </trkpt>
      <trkpt lat="44.81057" lon="-0.369">
        <ele>38.485</ele>
        <time>2016-04-20T12:22:43.138Z</time>
      </trkpt>
      <trkpt lat="44.8106" lon="-0.36912">
        <ele>38.897</ele>
        <time>2016-04-20T12:22:50.851Z</time>
      </trkpt>
      <trkpt lat="44.81066" lon="-0.36922">
        <ele>38.979</ele>
        <time>2016-04-20T12:22:58.224Z</time>
      </trkpt>
      <trkpt lat="44.81075" lon="-0.3692">
        <ele>39.21</ele>
        <time>2016-04-20T12:23:05.554Z</time>
      </trkpt>
      <trkpt lat="44.81084" lon="-0.36914">
        <ele>39.528</ele>
        <time>2016-04-20T12:23:13.528Z</time>
      </trkpt>
      <trkpt lat="44.81093" lon="-0.36909">
        <ele>39.724</ele>
        <time>2016-04-20T12:23:22.044Z</time>
      </trkpt>
      <trkpt lat="44.81102" lon="-0.36903">
        <ele>39.794</ele>
        <time>2016-04-20T12:23:29.829Z</time>
      </trkpt>
      <trkpt lat="44.81111" lon="-0.369">
        <ele>39.654</ele>
        <time>2016-04-20T12:23:38.000Z</time>
      </trkpt>
      <trkpt lat="44.81111" lon="-0.369">
        <ele>39.277</ele>
        <time>2016-04-20T12:23:43.000Z</time>
      </trkpt>
      <trkpt lat="44.81111" lon="-0.369">
        <ele>39.277</ele>
        <time>2016-04-20T12:23:43.000Z</time>
      </trkpt>
      <trkpt lat="44.81124" lon="-0.36898">
        <ele>38.951</ele>
        <time>2016-04-20T12:23:54.000Z</time>
      </trkpt>
      <trkpt lat="44.81124" lon="-0.36898">
        <ele>39.053</ele>
        <time>2016-04-20T12:23:59.000Z</time>
      </trkpt>
      <trkpt lat="44.81124" lon="-0.36898">
        <ele>39.053</ele>
        <time>2016-04-20T12:23:59.000Z</time>
      </trkpt>
      <trkpt lat="44.81131" lon="-0.36907">
        <ele>38.965</ele>
        <time>2016-04-20T12:24:24.141Z</time>
      </trkpt>
      <trkpt lat="44.81139" lon="-0.36912">
        <ele>38.971</ele>
        <time>2016-04-20T12:24:37.000Z</time>
      </trkpt>
      <trkpt lat="44.81139" lon="-0.36912">
        <ele>38.959</ele>
        <time>2016-04-20T12:24:37.000Z</time>
      </trkpt>
      <trkpt lat="44.81139" lon="-0.36912">
        <ele>38.959</ele>
        <time>2016-04-20T12:24:37.000Z</time>
      </trkpt>
      <trkpt lat="44.81144" lon="-0.36924">
        <ele>38.916</ele>
        <time>2016-04-20T12:24:54.008Z</time>
      </trkpt>
      <trkpt lat="44.81152" lon="-0.36929">
        <ele>38.855</ele>
        <time>2016-04-20T12:25:02.909Z</time>
      </trkpt>
      <trkpt lat="44.81159" lon="-0.36938">
        <ele>38.702</ele>
        <time>2016-04-20T12:25:13.364Z</time>
      </trkpt>
      <trkpt lat="44.81165" lon="-0.36949">
        <ele>38.939</ele>
        <time>2016-04-20T12:25:25.592Z</time>
      </trkpt>
      <trkpt lat="44.81168" lon="-0.36961">
        <ele>40.441</ele>
        <time>2016-04-20T12:25:38.854Z</time>
      </trkpt>
      <trkpt lat="44.81172" lon="-0.36972">
        <ele>43.273</ele>
        <time>2016-04-20T12:25:52.000Z</time>
      </trkpt>
      <trkpt lat="44.81172" lon="-0.36972">
        <ele>46.177</ele>
        <time>2016-04-20T12:26:06.000Z</time>
      </trkpt>
      <trkpt lat="44.81172" lon="-0.36972">
        <ele>46.177</ele>
        <time>2016-04-20T12:26:06.000Z</time>
      </trkpt>
      <trkpt lat="44.81185" lon="-0.36983">
        <ele>47.507</ele>
        <time>2016-04-20T12:26:37.507Z</time>
      </trkpt>
      <trkpt lat="44.81191" lon="-0.36995">
        <ele>47.882</ele>
        <time>2016-04-20T12:26:49.360Z</time>
      </trkpt>
      <trkpt lat="44.81198" lon="-0.37004">
        <ele>50.622</ele>
        <time>2016-04-20T12:27:00.080Z</time>
      </trkpt>
      <trkpt lat="44.81205" lon="-0.37013">
        <ele>54.272</ele>
        <time>2016-04-20T12:27:11.508Z</time>
      </trkpt>
      <trkpt lat="44.81211" lon="-0.37023">
        <ele>56.892</ele>
        <time>2016-04-20T12:27:22.187Z</time>
      </trkpt>
      <trkpt lat="44.81218" lon="-0.37031">
        <ele>58.499</ele>
        <time>2016-04-20T12:27:33.000Z</time>
      </trkpt>
      <trkpt lat="44.81218" lon="-0.37031">
        <ele>59.324</ele>
        <time>2016-04-20T12:27:37.000Z</time>
      </trkpt>
      <trkpt lat="44.81218" lon="-0.37031">
        <ele>59.324</ele>
        <time>2016-04-20T12:27:37.000Z</time>
      </trkpt>
      <trkpt lat="44.81225" lon="-0.37039">
        <ele>59.274</ele>
        <time>2016-04-20T12:27:56.975Z</time>
      </trkpt>
      <trkpt lat="44.81233" lon="-0.37045">
        <ele>59.304</ele>
        <time>2016-04-20T12:28:07.700Z</time>
      </trkpt>
      <trkpt lat="44.8124" lon="-0.37055">
        <ele>59.606</ele>
        <time>2016-04-20T12:28:18.149Z</time>
      </trkpt>
      <trkpt lat="44.81247" lon="-0.37063">
        <ele>60.194</ele>
        <time>2016-04-20T12:28:27.987Z</time>
      </trkpt>
      <trkpt lat="44.81254" lon="-0.37072">
        <ele>61.01</ele>
        <time>2016-04-20T12:28:36.774Z</time>
      </trkpt>
      <trkpt lat="44.81258" lon="-0.37086">
        <ele>62.013</ele>
        <time>2016-04-20T12:28:46.036Z</time>
      </trkpt>
      <trkpt lat="44.81259" lon="-0.371">
        <ele>63.032</ele>
        <time>2016-04-20T12:28:54.508Z</time>
      </trkpt>
      <trkpt lat="44.81266" lon="-0.3711">
        <ele>64.012</ele>
        <time>2016-04-20T12:29:02.669Z</time>
      </trkpt>
      <trkpt lat="44.8127" lon="-0.37123">
        <ele>64.953</ele>
        <time>2016-04-20T12:29:10.978Z</time>
      </trkpt>
      <trkpt lat="44.81273" lon="-0.37135">
        <ele>65.301</ele>
        <time>2016-04-20T12:29:18.981Z</time>
      </trkpt>
      <trkpt lat="44.81276" lon="-0.37148">
        <ele>64.757</ele>
        <time>2016-04-20T12:29:27.317Z</time>
      </trkpt>
      <trkpt lat="44.81282" lon="-0.37158">
        <ele>64.382</ele>
        <time>2016-04-20T12:29:36.577Z</time>
      </trkpt>
      <trkpt lat="44.81288" lon="-0.37169">
        <ele>65.364</ele>
        <time>2016-04-20T12:29:45.600Z</time>
      </trkpt>
      <trkpt lat="44.81293" lon="-0.3718">
        <ele>67.569</ele>
        <time>2016-04-20T12:29:54.504Z</time>
      </trkpt>
      <trkpt lat="44.81297" lon="-0.37192">
        <ele>70.033</ele>
        <time>2016-04-20T12:30:03.967Z</time>
      </trkpt>
      <trkpt lat="44.81303" lon="-0.37204">
        <ele>71.934</ele>
        <time>2016-04-20T12:30:14.000Z</time>
      </trkpt>
      <trkpt lat="44.81303" lon="-0.37204">
        <ele>72.96</ele>
        <time>2016-04-20T12:30:27.000Z</time>
      </trkpt>
      <trkpt lat="44.81303" lon="-0.37204">
        <ele>72.96</ele>
        <time>2016-04-20T12:30:27.000Z</time>
      </trkpt>
      <trkpt lat="44.81306" lon="-0.37218">
        <ele>73.018</ele>
        <time>2016-04-20T12:30:44.443Z</time>
      </trkpt>
      <trkpt lat="44.81315" lon="-0.37223">
        <ele>72.61</ele>
        <time>2016-04-20T12:30:54.000Z</time>
      </trkpt>
      <trkpt lat="44.81315" lon="-0.37223">
        <ele>72.446</ele>
        <time>2016-04-20T12:31:09.000Z</time>
      </trkpt>
      <trkpt lat="44.81315" lon="-0.37223">
        <ele>72.446</ele>
        <time>2016-04-20T12:31:09.000Z</time>
      </trkpt>
      <trkpt lat="44.81325" lon="-0.37239">
        <ele>72.5</ele>
        <time>2016-04-20T12:31:28.000Z</time>
      </trkpt>
      <trkpt lat="44.81325" lon="-0.37239">
        <ele>72.452</ele>
        <time>2016-04-20T12:31:35.000Z</time>
      </trkpt>
      <trkpt lat="44.81325" lon="-0.37239">
        <ele>72.452</ele>
        <time>2016-04-20T12:31:35.000Z</time>
      </trkpt>
      <trkpt lat="44.81328" lon="-0.37254">
        <ele>72.357</ele>
        <time>2016-04-20T12:31:45.000Z</time>
      </trkpt>
      <trkpt lat="44.81328" lon="-0.37254">
        <ele>72.349</ele>
        <time>2016-04-20T12:31:48.000Z</time>
      </trkpt>
      <trkpt lat="44.81328" lon="-0.37254">
        <ele>72.349</ele>
        <time>2016-04-20T12:31:48.000Z</time>
      </trkpt>
      <trkpt lat="44.81331" lon="-0.3727">
        <ele>72.283</ele>
        <time>2016-04-20T12:32:07.677Z</time>
      </trkpt>
      <trkpt lat="44.81336" lon="-0.37281">
        <ele>72.263</ele>
        <time>2016-04-20T12:32:17.355Z</time>
      </trkpt>
      <trkpt lat="44.81343" lon="-0.3729">
        <ele>72.346</ele>
        <time>2016-04-20T12:32:27.719Z</time>
      </trkpt>
      <trkpt lat="44.8135" lon="-0.373">
        <ele>72.673</ele>
        <time>2016-04-20T12:32:38.922Z</time>
      </trkpt>
      <trkpt lat="44.81353" lon="-0.37312">
        <ele>73.097</ele>
        <time>2016-04-20T12:32:48.648Z</time>
      </trkpt>
      <trkpt lat="44.81354" lon="-0.37325">
        <ele>73.297</ele>
        <time>2016-04-20T12:32:57.545Z</time>
      </trkpt>
      <trkpt lat="44.81358" lon="-0.37337">
        <ele>73.259</ele>
        <time>2016-04-20T12:33:06.329Z</time>
      </trkpt>
      <trkpt lat="44.8136" lon="-0.37349">
        <ele>73.524</ele>
        <time>2016-04-20T12:33:15.042Z</time>
      </trkpt>
      <trkpt lat="44.81363" lon="-0.37362">
        <ele>74.506</ele>
        <time>2016-04-20T12:33:24.252Z</time>
      </trkpt>
      <trkpt lat="44.81366" lon="-0.37375">
        <ele>75.862</ele>
        <time>2016-04-20T12:33:32.217Z</time>
      </trkpt>
      <trkpt lat="44.81371" lon="-0.37385">
        <ele>77.017</ele>
        <time>2016-04-20T12:33:40.000Z</time>
      </trkpt>
      <trkpt lat="44.81371" lon="-0.37385">
        <ele>77.683</ele>
        <time>2016-04-20T12:33:49.000Z</time>
      </trkpt>
      <trkpt lat="44.81371" lon="-0.37385">
        <ele>77.683</ele>
        <time>2016-04-20T12:33:49.000Z</time>
      </trkpt>
      <trkpt lat="44.8138" lon="-0.37397">
        <ele>77.704</ele>
        <time>2016-04-20T12:34:22.588Z</time>
      </trkpt>
      <trkpt lat="44.81382" lon="-0.3741">
        <ele>77.687</ele>
        <time>2016-04-20T12:34:48.867Z</time>
      </trkpt>
      <trkpt lat="44.81388" lon="-0.3742">
        <ele>78.647</ele>
        <time>2016-04-20T12:35:04.166Z</time>
      </trkpt>
      <trkpt lat="44.81395" lon="-0.37429">
        <ele>81.433</ele>
        <time>2016-04-20T12:35:20.000Z</time>
      </trkpt>
      <trkpt lat="44.81395" lon="-0.37429">
        <ele>84.973</ele>
        <time>2016-04-20T12:35:24.000Z</time>
      </trkpt>
      <trkpt lat="44.81395" lon="-0.37429">
        <ele>86.97</ele>
        <time>2016-04-20T12:35:33.282Z</time>
      </trkpt>
      <trkpt lat="44.81395" lon="-0.37429">
        <ele>85.716</ele>
        <time>2016-04-20T12:35:42.000Z</time>
      </trkpt>
      <trkpt lat="44.81395" lon="-0.37429">
        <ele>85.716</ele>
        <time>2016-04-20T12:35:42.000Z</time>
      </trkpt>
      <trkpt lat="44.81404" lon="-0.37426">
        <ele>85.219</ele>
        <time>2016-04-20T12:37:56.000Z</time>
      </trkpt>
      <trkpt lat="44.81404" lon="-0.37426">
        <ele>85.75</ele>
        <time>2016-04-20T12:37:57.000Z</time>
      </trkpt>
      <trkpt lat="44.81404" lon="-0.37426">
        <ele>85.75</ele>
        <time>2016-04-20T12:37:57.000Z</time>
      </trkpt>
      <trkpt lat="44.81411" lon="-0.37447">
        <ele>85.868</ele>
        <time>2016-04-20T12:39:10.992Z</time>
      </trkpt>
      <trkpt lat="44.81419" lon="-0.37457">
        <ele>86.15</ele>
        <time>2016-04-20T12:39:54.385Z</time>
      </trkpt>
      <trkpt lat="44.81424" lon="-0.37467">
        <ele>87.219</ele>
        <time>2016-04-20T12:40:16.000Z</time>
      </trkpt>
      <trkpt lat="44.81424" lon="-0.37467">
        <ele>88.396</ele>
        <time>2016-04-20T12:40:23.000Z</time>
      </trkpt>
      <trkpt lat="44.81424" lon="-0.37467">
        <ele>88.396</ele>
        <time>2016-04-20T12:40:23.000Z</time>
      </trkpt>
      <trkpt lat="44.81431" lon="-0.37475">
        <ele>88.488</ele>
        <time>2016-04-20T12:40:34.678Z</time>
      </trkpt>
      <trkpt lat="44.81438" lon="-0.37485">
        <ele>87.988</ele>
        <time>2016-04-20T12:40:41.432Z</time>
      </trkpt>
      <trkpt lat="44.81446" lon="-0.37493">
        <ele>87.253</ele>
        <time>2016-04-20T12:40:47.873Z</time>
      </trkpt>
      <trkpt lat="44.81454" lon="-0.375">
        <ele>86.391</ele>
        <time>2016-04-20T12:40:54.776Z</time>
      </trkpt>
      <trkpt lat="44.81459" lon="-0.37511">
        <ele>85.953</ele>
        <time>2016-04-20T12:41:01.420Z</time>
      </trkpt>
      <trkpt lat="44.81467" lon="-0.37517">
        <ele>86.253</ele>
        <time>2016-04-20T12:41:08.262Z</time>
      </trkpt>
      <trkpt lat="44.81474" lon="-0.37525">
        <ele>86.117</ele>
        <time>2016-04-20T12:41:15.503Z</time>
      </trkpt>
      <trkpt lat="44.81482" lon="-0.37533">
        <ele>85.799</ele>
        <time>2016-04-20T12:41:23.141Z</time>
      </trkpt>
      <trkpt lat="44.81488" lon="-0.37544">
        <ele>85.566</ele>
        <time>2016-04-20T12:41:30.715Z</time>
      </trkpt>
      <trkpt lat="44.81495" lon="-0.37552">
        <ele>85.155</ele>
        <time>2016-04-20T12:41:39.191Z</time>
      </trkpt>
      <trkpt lat="44.81503" lon="-0.3756">
        <ele>84.783</ele>
        <time>2016-04-20T12:41:48.149Z</time>
      </trkpt>
      <trkpt lat="44.8151" lon="-0.37569">
        <ele>84.641</ele>
        <time>2016-04-20T12:41:57.270Z</time>
      </trkpt>
      <trkpt lat="44.81517" lon="-0.37578">
        <ele>84.867</ele>
        <time>2016-04-20T12:42:06.146Z</time>
      </trkpt>
      <trkpt lat="44.81524" lon="-0.37587">
        <ele>85.541</ele>
        <time>2016-04-20T12:42:14.713Z</time>
      </trkpt>
      <trkpt lat="44.81531" lon="-0.37594">
        <ele>86.736</ele>
        <time>2016-04-20T12:42:23.178Z</time>
      </trkpt>
      <trkpt lat="44.81539" lon="-0.376">
        <ele>87.169</ele>
        <time>2016-04-20T12:42:31.689Z</time>
      </trkpt>
      <trkpt lat="44.81546" lon="-0.37609">
        <ele>88.901</ele>
        <time>2016-04-20T12:42:40.275Z</time>
      </trkpt>
      <trkpt lat="44.81553" lon="-0.37618">
        <ele>89.493</ele>
        <time>2016-04-20T12:42:48.677Z</time>
      </trkpt>
      <trkpt lat="44.8156" lon="-0.37626">
        <ele>89.341</ele>
        <time>2016-04-20T12:42:57.062Z</time>
      </trkpt>
      <trkpt lat="44.81567" lon="-0.37635">
        <ele>88.775</ele>
        <time>2016-04-20T12:43:05.659Z</time>
      </trkpt>
      <trkpt lat="44.81575" lon="-0.37644">
        <ele>88.719</ele>
        <time>2016-04-20T12:43:14.736Z</time>
      </trkpt>
      <trkpt lat="44.81583" lon="-0.3765">
        <ele>89.441</ele>
        <time>2016-04-20T12:43:23.583Z</time>
      </trkpt>
      <trkpt lat="44.81591" lon="-0.37656">
        <ele>89.962</ele>
        <time>2016-04-20T12:43:32.368Z</time>
      </trkpt>
      <trkpt lat="44.81598" lon="-0.37648">
        <ele>89.473</ele>
        <time>2016-04-20T12:43:41.276Z</time>
      </trkpt>
      <trkpt lat="44.81605" lon="-0.37638">
        <ele>88.925</ele>
        <time>2016-04-20T12:43:51.403Z</time>
      </trkpt>
      <trkpt lat="44.8161" lon="-0.37626">
        <ele>89.268</ele>
        <time>2016-04-20T12:44:01.099Z</time>
      </trkpt>
      <trkpt lat="44.81615" lon="-0.37616">
        <ele>89.996</ele>
        <time>2016-04-20T12:44:10.284Z</time>
      </trkpt>
      <trkpt lat="44.81619" lon="-0.37603">
        <ele>90.4</ele>
        <time>2016-04-20T12:44:19.960Z</time>
      </trkpt>
      <trkpt lat="44.81623" lon="-0.37592">
        <ele>90.454</ele>
        <time>2016-04-20T12:44:29.061Z</time>
      </trkpt>
      <trkpt lat="44.81628" lon="-0.37581">
        <ele>90.368</ele>
        <time>2016-04-20T12:44:38.443Z</time>
      </trkpt>
      <trkpt lat="44.81636" lon="-0.37573">
        <ele>90.229</ele>
        <time>2016-04-20T12:44:48.022Z</time>
      </trkpt>
      <trkpt lat="44.81641" lon="-0.37562">
        <ele>90.039</ele>
        <time>2016-04-20T12:44:57.444Z</time>
      </trkpt>
      <trkpt lat="44.81646" lon="-0.37551">
        <ele>90.022</ele>
        <time>2016-04-20T12:45:06.695Z</time>
      </trkpt>
      <trkpt lat="44.8165" lon="-0.37539">
        <ele>90.471</ele>
        <time>2016-04-20T12:45:16.361Z</time>
      </trkpt>
      <trkpt lat="44.81655" lon="-0.37528">
        <ele>91.259</ele>
        <time>2016-04-20T12:45:25.596Z</time>
      </trkpt>
      <trkpt lat="44.81657" lon="-0.37516">
        <ele>91.948</ele>
        <time>2016-04-20T12:45:34.550Z</time>
      </trkpt>
      <trkpt lat="44.81662" lon="-0.37503">
        <ele>92.145</ele>
        <time>2016-04-20T12:45:43.894Z</time>
      </trkpt>
      <trkpt lat="44.81668" lon="-0.37492">
        <ele>91.699</ele>
        <time>2016-04-20T12:45:54.000Z</time>
      </trkpt>
      <trkpt lat="44.81668" lon="-0.37492">
        <ele>90.917</ele>
        <time>2016-04-20T12:46:03.000Z</time>
      </trkpt>
      <trkpt lat="44.81668" lon="-0.37492">
        <ele>90.917</ele>
        <time>2016-04-20T12:46:03.000Z</time>
      </trkpt>
      <trkpt lat="44.81673" lon="-0.37477">
        <ele>90.393</ele>
        <time>2016-04-20T12:46:18.000Z</time>
      </trkpt>
      <trkpt lat="44.81673" lon="-0.37477">
        <ele>90.541</ele>
        <time>2016-04-20T12:46:24.000Z</time>
      </trkpt>
      <trkpt lat="44.81673" lon="-0.37477">
        <ele>90.521</ele>
        <time>2016-04-20T12:47:04.000Z</time>
      </trkpt>
      <trkpt lat="44.81673" lon="-0.37477">
        <ele>90.409</ele>
        <time>2016-04-20T12:47:24.621Z</time>
      </trkpt>
      <trkpt lat="44.81673" lon="-0.37477">
        <ele>90.379</ele>
        <time>2016-04-20T12:47:32.000Z</time>
      </trkpt>
      <trkpt lat="44.81673" lon="-0.37477">
        <ele>90.384</ele>
        <time>2016-04-20T12:47:47.000Z</time>
      </trkpt>
      <trkpt lat="44.81673" lon="-0.37477">
        <ele>90.384</ele>
        <time>2016-04-20T12:47:47.000Z</time>
      </trkpt>
      <trkpt lat="44.81681" lon="-0.37455">
        <ele>90.298</ele>
        <time>2016-04-20T12:48:14.368Z</time>
      </trkpt>
      <trkpt lat="44.81686" lon="-0.37444">
        <ele>89.585</ele>
        <time>2016-04-20T12:48:22.170Z</time>
      </trkpt>
      <trkpt lat="44.8169" lon="-0.37431">
        <ele>87.767</ele>
        <time>2016-04-20T12:48:30.881Z</time>
      </trkpt>
      <trkpt lat="44.81693" lon="-0.37418">
        <ele>85.869</ele>
        <time>2016-04-20T12:48:40.094Z</time>
      </trkpt>
      <trkpt lat="44.81698" lon="-0.37405">
        <ele>84.878</ele>
        <time>2016-04-20T12:48:50.137Z</time>
      </trkpt>
      <trkpt lat="44.81701" lon="-0.37393">
        <ele>84.034</ele>
        <time>2016-04-20T12:48:58.627Z</time>
      </trkpt>
      <trkpt lat="44.8171" lon="-0.37388">
        <ele>82.314</ele>
        <time>2016-04-20T12:49:07.000Z</time>
      </trkpt>
      <trkpt lat="44.8171" lon="-0.37388">
        <ele>80.125</ele>
        <time>2016-04-20T12:49:16.000Z</time>
      </trkpt>
      <trkpt lat="44.8171" lon="-0.37388">
        <ele>80.125</ele>
        <time>2016-04-20T12:49:16.000Z</time>
      </trkpt>
      <trkpt lat="44.81726" lon="-0.3738">
        <ele>78.984</ele>
        <time>2016-04-20T12:49:44.332Z</time>
      </trkpt>
      <trkpt lat="44.8173" lon="-0.37367">
        <ele>79.792</ele>
        <time>2016-04-20T12:49:53.052Z</time>
      </trkpt>
      <trkpt lat="44.81733" lon="-0.37354">
        <ele>80.876</ele>
        <time>2016-04-20T12:49:59.835Z</time>
      </trkpt>
      <trkpt lat="44.81737" lon="-0.37342">
        <ele>82.35</ele>
        <time>2016-04-20T12:50:07.000Z</time>
      </trkpt>
      <trkpt lat="44.81737" lon="-0.37342">
        <ele>83.727</ele>
        <time>2016-04-20T12:50:16.000Z</time>
      </trkpt>
      <trkpt lat="44.81737" lon="-0.37342">
        <ele>83.727</ele>
        <time>2016-04-20T12:50:16.000Z</time>
      </trkpt>
      <trkpt lat="44.81739" lon="-0.37329">
        <ele>84.027</ele>
        <time>2016-04-20T12:50:34.000Z</time>
      </trkpt>
      <trkpt lat="44.81739" lon="-0.37329">
        <ele>83.378</ele>
        <time>2016-04-20T12:50:40.000Z</time>
      </trkpt>
      <trkpt lat="44.81739" lon="-0.37329">
        <ele>83.378</ele>
        <time>2016-04-20T12:50:40.000Z</time>
      </trkpt>
      <trkpt lat="44.81747" lon="-0.3732">
        <ele>83.244</ele>
        <time>2016-04-20T12:50:54.477Z</time>
      </trkpt>
      <trkpt lat="44.81753" lon="-0.37308">
        <ele>82.877</ele>
        <time>2016-04-20T12:51:02.087Z</time>
      </trkpt>
      <trkpt lat="44.81758" lon="-0.37297">
        <ele>81.731</ele>
        <time>2016-04-20T12:51:08.711Z</time>
      </trkpt>
      <trkpt lat="44.81764" lon="-0.37287">
        <ele>80.327</ele>
        <time>2016-04-20T12:51:15.572Z</time>
      </trkpt>
      <trkpt lat="44.81773" lon="-0.37279">
        <ele>78.55</ele>
        <time>2016-04-20T12:51:23.207Z</time>
      </trkpt>
      <trkpt lat="44.81781" lon="-0.3727">
        <ele>75.84</ele>
        <time>2016-04-20T12:51:30.771Z</time>
      </trkpt>
      <trkpt lat="44.81785" lon="-0.37258">
        <ele>73.15</ele>
        <time>2016-04-20T12:51:38.538Z</time>
      </trkpt>
      <trkpt lat="44.81789" lon="-0.37245">
        <ele>72.037</ele>
        <time>2016-04-20T12:51:45.916Z</time>
      </trkpt>
      <trkpt lat="44.81793" lon="-0.37232">
        <ele>72.686</ele>
        <time>2016-04-20T12:51:53.325Z</time>
      </trkpt>
      <trkpt lat="44.81797" lon="-0.37221">
        <ele>73.915</ele>
        <time>2016-04-20T12:52:00.409Z</time>
      </trkpt>
      <trkpt lat="44.81803" lon="-0.37211">
        <ele>73.9</ele>
        <time>2016-04-20T12:52:07.552Z</time>
      </trkpt>
      <trkpt lat="44.81808" lon="-0.37199">
        <ele>72.21</ele>
        <time>2016-04-20T12:52:14.977Z</time>
      </trkpt>
      <trkpt lat="44.81815" lon="-0.3719">
        <ele>70.579</ele>
        <time>2016-04-20T12:52:22.097Z</time>
      </trkpt>
      <trkpt lat="44.81821" lon="-0.37179">
        <ele>70.407</ele>
        <time>2016-04-20T12:52:29.519Z</time>
      </trkpt>
      <trkpt lat="44.81825" lon="-0.37166">
        <ele>71.424</ele>
        <time>2016-04-20T12:52:36.505Z</time>
      </trkpt>
      <trkpt lat="44.81827" lon="-0.37153">
        <ele>73.508</ele>
        <time>2016-04-20T12:52:43.457Z</time>
      </trkpt>
      <trkpt lat="44.81835" lon="-0.37145">
        <ele>76.278</ele>
        <time>2016-04-20T12:52:50.808Z</time>
      </trkpt>
      <trkpt lat="44.81843" lon="-0.37139">
        <ele>78.198</ele>
        <time>2016-04-20T12:52:57.998Z</time>
      </trkpt>
      <trkpt lat="44.81843" lon="-0.37139">
        <ele>78.484</ele>
        <time>2016-04-20T12:53:01.998Z</time>
      </trkpt>
      <trkpt lat="44.81843" lon="-0.37139">
        <ele>78.484</ele>
        <time>2016-04-20T12:53:01.998Z</time>
      </trkpt>
      <trkpt lat="44.81852" lon="-0.37131">
        <ele>78.076</ele>
        <time>2016-04-20T12:53:14.473Z</time>
      </trkpt>
      <trkpt lat="44.81861" lon="-0.37131">
        <ele>77.751</ele>
        <time>2016-04-20T12:53:21.320Z</time>
      </trkpt>
      <trkpt lat="44.8187" lon="-0.37124">
        <ele>76.447</ele>
        <time>2016-04-20T12:53:28.841Z</time>
      </trkpt>
      <trkpt lat="44.81878" lon="-0.37118">
        <ele>75.764</ele>
        <time>2016-04-20T12:53:35.601Z</time>
      </trkpt>
      <trkpt lat="44.81888" lon="-0.37114">
        <ele>77.01</ele>
        <time>2016-04-20T12:53:42.574Z</time>
      </trkpt>
      <trkpt lat="44.81898" lon="-0.37112">
        <ele>78.846</ele>
        <time>2016-04-20T12:53:50.287Z</time>
      </trkpt>
      <trkpt lat="44.81907" lon="-0.37113">
        <ele>79.604</ele>
        <time>2016-04-20T12:53:57.062Z</time>
      </trkpt>
      <trkpt lat="44.81916" lon="-0.37111">
        <ele>78.814</ele>
        <time>2016-04-20T12:54:04.156Z</time>
      </trkpt>
      <trkpt lat="44.81925" lon="-0.37111">
        <ele>76.979</ele>
        <time>2016-04-20T12:54:11.138Z</time>
      </trkpt>
      <trkpt lat="44.81936" lon="-0.3711">
        <ele>75.37</ele>
        <time>2016-04-20T12:54:20.142Z</time>
      </trkpt>
      <trkpt lat="44.81945" lon="-0.37113">
        <ele>74.376</ele>
        <time>2016-04-20T12:54:27.345Z</time>
      </trkpt>
      <trkpt lat="44.81955" lon="-0.37114">
        <ele>73.291</ele>
        <time>2016-04-20T12:54:34.411Z</time>
      </trkpt>
      <trkpt lat="44.81966" lon="-0.37117">
        <ele>71.873</ele>
        <time>2016-04-20T12:54:42.310Z</time>
      </trkpt>
      <trkpt lat="44.81975" lon="-0.37113">
        <ele>70.371</ele>
        <time>2016-04-20T12:54:49.324Z</time>
      </trkpt>
      <trkpt lat="44.81983" lon="-0.37108">
        <ele>69.033</ele>
        <time>2016-04-20T12:54:56.268Z</time>
      </trkpt>
      <trkpt lat="44.81991" lon="-0.37099">
        <ele>68.172</ele>
        <time>2016-04-20T12:55:03.468Z</time>
      </trkpt>
      <trkpt lat="44.81998" lon="-0.37089">
        <ele>68.121</ele>
        <time>2016-04-20T12:55:10.709Z</time>
      </trkpt>
      <trkpt lat="44.82005" lon="-0.3708">
        <ele>68.976</ele>
        <time>2016-04-20T12:55:17.701Z</time>
      </trkpt>
      <trkpt lat="44.82012" lon="-0.37072">
        <ele>70.409</ele>
        <time>2016-04-20T12:55:24.666Z</time>
      </trkpt>
      <trkpt lat="44.82022" lon="-0.3707">
        <ele>72.115</ele>
        <time>2016-04-20T12:55:32.431Z</time>
      </trkpt>
      <trkpt lat="44.82031" lon="-0.37068">
        <ele>73.865</ele>
        <time>2016-04-20T12:55:39.998Z</time>
      </trkpt>
      <trkpt lat="44.82031" lon="-0.37068">
        <ele>75.086</ele>
        <time>2016-04-20T12:55:43.998Z</time>
      </trkpt>
      <trkpt lat="44.82031" lon="-0.37068">
        <ele>75.086</ele>
        <time>2016-04-20T12:55:43.998Z</time>
      </trkpt>
      <trkpt lat="44.8204" lon="-0.37063">
        <ele>75.124</ele>
        <time>2016-04-20T12:55:58.998Z</time>
      </trkpt>
      <trkpt lat="44.8204" lon="-0.37063">
        <ele>75.001</ele>
        <time>2016-04-20T12:55:58.998Z</time>
      </trkpt>
      <trkpt lat="44.8204" lon="-0.37063">
        <ele>75.001</ele>
        <time>2016-04-20T12:55:58.998Z</time>
      </trkpt>
      <trkpt lat="44.8205" lon="-0.37067">
        <ele>75.005</ele>
        <time>2016-04-20T12:56:20.836Z</time>
      </trkpt>
      <trkpt lat="44.82059" lon="-0.37069">
        <ele>76.235</ele>
        <time>2016-04-20T12:56:32.339Z</time>
      </trkpt>
      <trkpt lat="44.82068" lon="-0.37072">
        <ele>79.405</ele>
        <time>2016-04-20T12:56:43.062Z</time>
      </trkpt>
      <trkpt lat="44.82074" lon="-0.37082">
        <ele>82.692</ele>
        <time>2016-04-20T12:56:53.999Z</time>
      </trkpt>
      <trkpt lat="44.82074" lon="-0.37082">
        <ele>84.303</ele>
        <time>2016-04-20T12:56:56.999Z</time>
      </trkpt>
      <trkpt lat="44.82074" lon="-0.37082">
        <ele>84.303</ele>
        <time>2016-04-20T12:56:56.999Z</time>
      </trkpt>
      <trkpt lat="44.82079" lon="-0.37099">
        <ele>84.278</ele>
        <time>2016-04-20T12:57:22.719Z</time>
      </trkpt>
      <trkpt lat="44.82083" lon="-0.37111">
        <ele>84.796</ele>
        <time>2016-04-20T12:57:34.382Z</time>
      </trkpt>
      <trkpt lat="44.82093" lon="-0.37112">
        <ele>86.363</ele>
        <time>2016-04-20T12:57:46.214Z</time>
      </trkpt>
      <trkpt lat="44.82102" lon="-0.37116">
        <ele>88.002</ele>
        <time>2016-04-20T12:57:59.297Z</time>
      </trkpt>
      <trkpt lat="44.82112" lon="-0.37114">
        <ele>88.505</ele>
        <time>2016-04-20T12:58:11.999Z</time>
      </trkpt>
      <trkpt lat="44.82112" lon="-0.37114">
        <ele>88.146</ele>
        <time>2016-04-20T12:58:14.999Z</time>
      </trkpt>
      <trkpt lat="44.82112" lon="-0.37114">
        <ele>88.146</ele>
        <time>2016-04-20T12:58:14.999Z</time>
      </trkpt>
      <trkpt lat="44.82121" lon="-0.37116">
        <ele>88.013</ele>
        <time>2016-04-20T12:58:30.033Z</time>
      </trkpt>
      <trkpt lat="44.8213" lon="-0.37118">
        <ele>87.4</ele>
        <time>2016-04-20T12:58:41.255Z</time>
      </trkpt>
      <trkpt lat="44.82139" lon="-0.37121">
        <ele>85.519</ele>
        <time>2016-04-20T12:58:50.099Z</time>
      </trkpt>
      <trkpt lat="44.82149" lon="-0.3712">
        <ele>82.997</ele>
        <time>2016-04-20T12:58:59.654Z</time>
      </trkpt>
      <trkpt lat="44.82158" lon="-0.3712">
        <ele>80.673</ele>
        <time>2016-04-20T12:59:09.078Z</time>
      </trkpt>
      <trkpt lat="44.82167" lon="-0.37122">
        <ele>78.6</ele>
        <time>2016-04-20T12:59:19.426Z</time>
      </trkpt>
      <trkpt lat="44.82176" lon="-0.37127">
        <ele>76.906</ele>
        <time>2016-04-20T12:59:29.203Z</time>
      </trkpt>
      <trkpt lat="44.82186" lon="-0.37129">
        <ele>75.924</ele>
        <time>2016-04-20T12:59:40.120Z</time>
      </trkpt>
      <trkpt lat="44.82195" lon="-0.3713">
        <ele>75.694</ele>
        <time>2016-04-20T12:59:50.755Z</time>
      </trkpt>
      <trkpt lat="44.82204" lon="-0.37134">
        <ele>75.865</ele>
        <time>2016-04-20T13:00:03.331Z</time>
      </trkpt>
      <trkpt lat="44.82213" lon="-0.37133">
        <ele>75.974</ele>
        <time>2016-04-20T13:00:15.778Z</time>
      </trkpt>
      <trkpt lat="44.82223" lon="-0.3713">
        <ele>75.021</ele>
        <time>2016-04-20T13:00:29.747Z</time>
      </trkpt>
      <trkpt lat="44.82232" lon="-0.37127">
        <ele>71.956</ele>
        <time>2016-04-20T13:00:43.425Z</time>
      </trkpt>
      <trkpt lat="44.82242" lon="-0.37127">
        <ele>67.658</ele>
        <time>2016-04-20T13:00:58.219Z</time>
      </trkpt>
      <trkpt lat="44.82251" lon="-0.37125">
        <ele>64.129</ele>
        <time>2016-04-20T13:01:12.607Z</time>
      </trkpt>
      <trkpt lat="44.8226" lon="-0.37127">
        <ele>61.85</ele>
        <time>2016-04-20T13:01:24.409Z</time>
      </trkpt>
      <trkpt lat="44.82269" lon="-0.37127">
        <ele>60.371</ele>
        <time>2016-04-20T13:01:34.639Z</time>
      </trkpt>
      <trkpt lat="44.82279" lon="-0.37127">
        <ele>60.032</ele>
        <time>2016-04-20T13:01:45.027Z</time>
      </trkpt>
      <trkpt lat="44.82289" lon="-0.37126">
        <ele>61.075</ele>
        <time>2016-04-20T13:01:55.354Z</time>
      </trkpt>
      <trkpt lat="44.82299" lon="-0.37126">
        <ele>62.646</ele>
        <time>2016-04-20T13:02:05.139Z</time>
      </trkpt>
      <trkpt lat="44.82309" lon="-0.37126">
        <ele>63.696</ele>
        <time>2016-04-20T13:02:15.088Z</time>
      </trkpt>
      <trkpt lat="44.82318" lon="-0.37124">
        <ele>63.882</ele>
        <time>2016-04-20T13:02:24.684Z</time>
      </trkpt>
      <trkpt lat="44.82327" lon="-0.37122">
        <ele>62.989</ele>
        <time>2016-04-20T13:02:34.377Z</time>
      </trkpt>
      <trkpt lat="44.82336" lon="-0.37123">
        <ele>61.039</ele>
        <time>2016-04-20T13:02:44.591Z</time>
      </trkpt>
      <trkpt lat="44.82346" lon="-0.37124">
        <ele>58.69</ele>
        <time>2016-04-20T13:02:55.649Z</time>
      </trkpt>
      <trkpt lat="44.82356" lon="-0.37124">
        <ele>56.508</ele>
        <time>2016-04-20T13:03:07.047Z</time>
      </trkpt>
      <trkpt lat="44.82365" lon="-0.37125">
        <ele>54.611</ele>
        <time>2016-04-20T13:03:17.051Z</time>
      </trkpt>
      <trkpt lat="44.82374" lon="-0.37132">
        <ele>53.048</ele>
        <time>2016-04-20T13:03:27.086Z</time>
      </trkpt>
      <trkpt lat="44.82383" lon="-0.37131">
        <ele>51.799</ele>
        <time>2016-04-20T13:03:35.812Z</time>
      </trkpt>
      <trkpt lat="44.82392" lon="-0.3713">
        <ele>50.639</ele>
        <time>2016-04-20T13:03:44.479Z</time>
      </trkpt>
      <trkpt lat="44.82401" lon="-0.37134">
        <ele>49.452</ele>
        <time>2016-04-20T13:03:53.248Z</time>
      </trkpt>
      <trkpt lat="44.8241" lon="-0.3713">
        <ele>48.403</ele>
        <time>2016-04-20T13:04:02.928Z</time>
      </trkpt>
      <trkpt lat="44.82419" lon="-0.3713">
        <ele>47.691</ele>
        <time>2016-04-20T13:04:11.767Z</time>
      </trkpt>
      <trkpt lat="44.82429" lon="-0.37129">
        <ele>47.349</ele>
        <time>2016-04-20T13:04:20.815Z</time>
      </trkpt>
      <trkpt lat="44.82438" lon="-0.37126">
        <ele>47.292</ele>
        <time>2016-04-20T13:04:30.049Z</time>
      </trkpt>
      <trkpt lat="44.82448" lon="-0.37122">
        <ele>47.295</ele>
        <time>2016-04-20T13:04:40.449Z</time>
      </trkpt>
      <trkpt lat="44.82458" lon="-0.37121">
        <ele>47.076</ele>
        <time>2016-04-20T13:04:50.158Z</time>
      </trkpt>
      <trkpt lat="44.82467" lon="-0.37117">
        <ele>46.377</ele>
        <time>2016-04-20T13:05:00.000Z</time>
      </trkpt>
      <trkpt lat="44.82467" lon="-0.37117">
        <ele>45.377</ele>
        <time>2016-04-20T13:05:07.000Z</time>
      </trkpt>
      <trkpt lat="44.82467" lon="-0.37117">
        <ele>45.377</ele>
        <time>2016-04-20T13:05:07.000Z</time>
      </trkpt>
      <trkpt lat="44.8248" lon="-0.37108">
        <ele>44.746</ele>
        <time>2016-04-20T13:05:28.945Z</time>
      </trkpt>
      <trkpt lat="44.82489" lon="-0.37105">
        <ele>45.043</ele>
        <time>2016-04-20T13:05:37.057Z</time>
      </trkpt>
      <trkpt lat="44.82497" lon="-0.371">
        <ele>45.234</ele>
        <time>2016-04-20T13:05:45.257Z</time>
      </trkpt>
      <trkpt lat="44.82507" lon="-0.37096">
        <ele>45.55</ele>
        <time>2016-04-20T13:05:54.145Z</time>
      </trkpt>
      <trkpt lat="44.82514" lon="-0.37088">
        <ele>46.238</ele>
        <time>2016-04-20T13:06:02.129Z</time>
      </trkpt>
      <trkpt lat="44.82522" lon="-0.3708">
        <ele>46.525</ele>
        <time>2016-04-20T13:06:10.014Z</time>
      </trkpt>
      <trkpt lat="44.8253" lon="-0.37075">
        <ele>45.612</ele>
        <time>2016-04-20T13:06:18.000Z</time>
      </trkpt>
      <trkpt lat="44.8253" lon="-0.37075">
        <ele>44.118</ele>
        <time>2016-04-20T13:06:22.000Z</time>
      </trkpt>
      <trkpt lat="44.8253" lon="-0.37075">
        <ele>44.118</ele>
        <time>2016-04-20T13:06:22.000Z</time>
      </trkpt>
      <trkpt lat="44.82545" lon="-0.37072">
        <ele>43.278</ele>
        <time>2016-04-20T13:06:45.531Z</time>
      </trkpt>
      <trkpt lat="44.82554" lon="-0.37068">
        <ele>43.189</ele>
        <time>2016-04-20T13:06:52.807Z</time>
      </trkpt>
      <trkpt lat="44.82563" lon="-0.37066">
        <ele>42.146</ele>
        <time>2016-04-20T13:07:00.545Z</time>
      </trkpt>
      <trkpt lat="44.82571" lon="-0.37072">
        <ele>40.972</ele>
        <time>2016-04-20T13:07:08.621Z</time>
      </trkpt>
      <trkpt lat="44.82579" lon="-0.37064">
        <ele>40.585</ele>
        <time>2016-04-20T13:07:16.822Z</time>
      </trkpt>
      <trkpt lat="44.82589" lon="-0.37059">
        <ele>40.285</ele>
        <time>2016-04-20T13:07:26.000Z</time>
      </trkpt>
      <trkpt lat="44.82589" lon="-0.37059">
        <ele>39.335</ele>
        <time>2016-04-20T13:07:34.000Z</time>
      </trkpt>
      <trkpt lat="44.82589" lon="-0.37059">
        <ele>39.335</ele>
        <time>2016-04-20T13:07:34.000Z</time>
      </trkpt>
      <trkpt lat="44.82599" lon="-0.37058">
        <ele>38.449</ele>
        <time>2016-04-20T13:07:49.993Z</time>
      </trkpt>
      <trkpt lat="44.82608" lon="-0.37054">
        <ele>38.894</ele>
        <time>2016-04-20T13:07:58.912Z</time>
      </trkpt>
      <trkpt lat="44.82618" lon="-0.37051">
        <ele>39.547</ele>
        <time>2016-04-20T13:08:07.792Z</time>
      </trkpt>
      <trkpt lat="44.82627" lon="-0.37053">
        <ele>40.606</ele>
        <time>2016-04-20T13:08:16.644Z</time>
      </trkpt>
      <trkpt lat="44.82636" lon="-0.37047">
        <ele>41.989</ele>
        <time>2016-04-20T13:08:25.850Z</time>
      </trkpt>
      <trkpt lat="44.82645" lon="-0.37044">
        <ele>43.865</ele>
        <time>2016-04-20T13:08:34.000Z</time>
      </trkpt>
      <trkpt lat="44.82645" lon="-0.37044">
        <ele>46.18</ele>
        <time>2016-04-20T13:08:42.000Z</time>
      </trkpt>
      <trkpt lat="44.82645" lon="-0.37044">
        <ele>46.18</ele>
        <time>2016-04-20T13:08:42.000Z</time>
      </trkpt>
      <trkpt lat="44.82661" lon="-0.37041">
        <ele>47.558</ele>
        <time>2016-04-20T13:09:08.786Z</time>
      </trkpt>
      <trkpt lat="44.82669" lon="-0.37034">
        <ele>48.022</ele>
        <time>2016-04-20T13:09:18.771Z</time>
      </trkpt>
      <trkpt lat="44.82679" lon="-0.37031">
        <ele>50.724</ele>
        <time>2016-04-20T13:09:28.880Z</time>
      </trkpt>
      <trkpt lat="44.82688" lon="-0.37029">
        <ele>53.863</ele>
        <time>2016-04-20T13:09:38.000Z</time>
      </trkpt>
      <trkpt lat="44.82688" lon="-0.37029">
        <ele>55.247</ele>
        <time>2016-04-20T13:09:44.000Z</time>
      </trkpt>
      <trkpt lat="44.82688" lon="-0.37029">
        <ele>55.049</ele>
        <time>2016-04-20T13:09:44.033Z</time>
      </trkpt>
      <trkpt lat="44.82699" lon="-0.37028">
        <ele>54.531</ele>
        <time>2016-04-20T13:09:55.000Z</time>
      </trkpt>
      <trkpt lat="44.82699" lon="-0.37028">
        <ele>54.783</ele>
        <time>2016-04-20T13:09:55.000Z</time>
      </trkpt>
      <trkpt lat="44.82699" lon="-0.37028">
        <ele>54.786</ele>
        <time>2016-04-20T13:10:32.900Z</time>
      </trkpt>
      <trkpt lat="44.82709" lon="-0.37027">
        <ele>54.616</ele>
        <time>2016-04-20T13:10:42.000Z</time>
      </trkpt>
      <trkpt lat="44.82718" lon="-0.37022">
        <ele>54.477</ele>
        <time>2016-04-20T13:10:53.000Z</time>
      </trkpt>
      <trkpt lat="44.82726" lon="-0.37018">
        <ele>54.044</ele>
        <time>2016-04-20T13:11:04.000Z</time>
      </trkpt>
      <trkpt lat="44.82726" lon="-0.37018">
        <ele>53.593</ele>
        <time>2016-04-20T13:11:13.000Z</time>
      </trkpt>
      <trkpt lat="44.82726" lon="-0.37018">
        <ele>53.412</ele>
        <time>2016-04-20T13:11:15.385Z</time>
      </trkpt>
      <trkpt lat="44.82738" lon="-0.37018">
        <ele>53.423</ele>
        <time>2016-04-20T13:11:29.000Z</time>
      </trkpt>
      <trkpt lat="44.82738" lon="-0.37018">
        <ele>53.461</ele>
        <time>2016-04-20T13:11:32.000Z</time>
      </trkpt>
      <trkpt lat="44.82738" lon="-0.37018">
        <ele>53.442</ele>
        <time>2016-04-20T13:11:39.060Z</time>
      </trkpt>
      <trkpt lat="44.82748" lon="-0.37016">
        <ele>53.382</ele>
        <time>2016-04-20T13:11:50.000Z</time>
      </trkpt>
      <trkpt lat="44.82748" lon="-0.37016">
        <ele>53.386</ele>
        <time>2016-04-20T13:11:54.000Z</time>
      </trkpt>
      <trkpt lat="44.82748" lon="-0.37016">
        <ele>53.384</ele>
        <time>2016-04-20T13:12:10.076Z</time>
      </trkpt>
      <trkpt lat="44.82756" lon="-0.3701">
        <ele>53.362</ele>
        <time>2016-04-20T13:12:13.000Z</time>
      </trkpt>
      <trkpt lat="44.82757" lon="-0.36997">
        <ele>54.856</ele>
        <time>2016-04-20T13:12:35.000Z</time>
      </trkpt>
      <trkpt lat="44.82761" lon="-0.36985">
        <ele>59</ele>
        <time>2016-04-20T13:12:43.000Z</time>
      </trkpt>
      <trkpt lat="44.82759" lon="-0.36971">
        <ele>63.498</ele>
        <time>2016-04-20T13:12:52.000Z</time>
      </trkpt>
      <trkpt lat="44.82762" lon="-0.36959">
        <ele>65.85</ele>
        <time>2016-04-20T13:13:05.000Z</time>
      </trkpt>
      <trkpt lat="44.82771" lon="-0.3696">
        <ele>66.723</ele>
        <time>2016-04-20T13:13:17.000Z</time>
      </trkpt>
      <trkpt lat="44.82776" lon="-0.36949">
        <ele>67.608</ele>
        <time>2016-04-20T13:13:27.000Z</time>
      </trkpt>
      <trkpt lat="44.82776" lon="-0.36949">
        <ele>68.569</ele>
        <time>2016-04-20T13:13:38.000Z</time>
      </trkpt>
      <trkpt lat="44.82776" lon="-0.36949">
        <ele>68.908</ele>
        <time>2016-04-20T13:14:04.595Z</time>
      </trkpt>
      <trkpt lat="44.82773" lon="-0.3693">
        <ele>68.754</ele>
        <time>2016-04-20T13:14:16.000Z</time>
      </trkpt>
      <trkpt lat="44.82773" lon="-0.3693">
        <ele>68.595</ele>
        <time>2016-04-20T13:14:34.000Z</time>
      </trkpt>
      <trkpt lat="44.82773" lon="-0.3693">
        <ele>68.567</ele>
        <time>2016-04-20T13:17:57.961Z</time>
      </trkpt>
      <trkpt lat="44.82768" lon="-0.36905">
        <ele>68.616</ele>
        <time>2016-04-20T13:18:22.000Z</time>
      </trkpt>
      <trkpt lat="44.82768" lon="-0.36905">
        <ele>68.643</ele>
        <time>2016-04-20T13:18:30.000Z</time>
      </trkpt>
      <trkpt lat="44.82768" lon="-0.36905">
        <ele>68.617</ele>
        <time>2016-04-20T13:19:08.284Z</time>
      </trkpt>
      <trkpt lat="44.82772" lon="-0.36918">
        <ele>68.559</ele>
        <time>2016-04-20T13:19:18.000Z</time>
      </trkpt>
      <trkpt lat="44.82771" lon="-0.36931">
        <ele>69.242</ele>
        <time>2016-04-20T13:19:29.000Z</time>
      </trkpt>
      <trkpt lat="44.82776" lon="-0.36943">
        <ele>71.309</ele>
        <time>2016-04-20T13:19:39.000Z</time>
      </trkpt>
      <trkpt lat="44.82776" lon="-0.36943">
        <ele>73.869</ele>
        <time>2016-04-20T13:19:45.000Z</time>
      </trkpt>
      <trkpt lat="44.82776" lon="-0.36943">
        <ele>75.241</ele>
        <time>2016-04-20T13:19:56.118Z</time>
      </trkpt>
      <trkpt lat="44.82786" lon="-0.36947">
        <ele>74.356</ele>
        <time>2016-04-20T13:20:07.000Z</time>
      </trkpt>
      <trkpt lat="44.82796" lon="-0.36949">
        <ele>73.172</ele>
        <time>2016-04-20T13:20:22.000Z</time>
      </trkpt>
      <trkpt lat="44.82806" lon="-0.36945">
        <ele>71.196</ele>
        <time>2016-04-20T13:20:31.000Z</time>
      </trkpt>
      <trkpt lat="44.8281" lon="-0.36934">
        <ele>69.268</ele>
        <time>2016-04-20T13:20:41.000Z</time>
      </trkpt>
      <trkpt lat="44.8281" lon="-0.36934">
        <ele>68.412</ele>
        <time>2016-04-20T13:20:43.000Z</time>
      </trkpt>
      <trkpt lat="44.8281" lon="-0.36934">
        <ele>68.49</ele>
        <time>2016-04-20T13:20:52.000Z</time>
      </trkpt>
      <trkpt lat="44.8281" lon="-0.36934">
        <ele>68.776</ele>
        <time>2016-04-20T13:21:10.558Z</time>
      </trkpt>
      <trkpt lat="44.8281" lon="-0.36921">
        <ele>68.577</ele>
        <time>2016-04-20T13:21:18.001Z</time>
      </trkpt>
      <trkpt lat="44.82811" lon="-0.36908">
        <ele>68.518</ele>
        <time>2016-04-20T13:21:27.000Z</time>
      </trkpt>
      <trkpt lat="44.8281" lon="-0.36895">
        <ele>68.69</ele>
        <time>2016-04-20T13:21:35.000Z</time>
      </trkpt>
      <trkpt lat="44.82813" lon="-0.36882">
        <ele>68.93</ele>
        <time>2016-04-20T13:21:44.000Z</time>
      </trkpt>
      <trkpt lat="44.82819" lon="-0.36873">
        <ele>69.117</ele>
        <time>2016-04-20T13:21:55.000Z</time>
      </trkpt>
      <trkpt lat="44.82819" lon="-0.36873">
        <ele>69.228</ele>
        <time>2016-04-20T13:21:59.000Z</time>
      </trkpt>
      <trkpt lat="44.82819" lon="-0.36873">
        <ele>69.226</ele>
        <time>2016-04-20T13:23:55.310Z</time>
      </trkpt>
      <trkpt lat="44.82812" lon="-0.36865">
        <ele>69.142</ele>
        <time>2016-04-20T13:24:05.000Z</time>
      </trkpt>
      <trkpt lat="44.8281" lon="-0.36852">
        <ele>69.138</ele>
        <time>2016-04-20T13:24:15.000Z</time>
      </trkpt>
      <trkpt lat="44.8281" lon="-0.36852">
        <ele>69.13</ele>
        <time>2016-04-20T13:24:19.000Z</time>
      </trkpt>
      <trkpt lat="44.8281" lon="-0.36852">
        <ele>69.101</ele>
        <time>2016-04-20T13:24:34.190Z</time>
      </trkpt>
      <trkpt lat="44.8281" lon="-0.36838">
        <ele>69.048</ele>
        <time>2016-04-20T13:24:43.000Z</time>
      </trkpt>
      <trkpt lat="44.8281" lon="-0.36825">
        <ele>69.007</ele>
        <time>2016-04-20T13:25:06.000Z</time>
      </trkpt>
      <trkpt lat="44.82812" lon="-0.36812">
        <ele>68.912</ele>
        <time>2016-04-20T13:25:16.000Z</time>
      </trkpt>
      <trkpt lat="44.82822" lon="-0.36809">
        <ele>68.775</ele>
        <time>2016-04-20T13:25:26.000Z</time>
      </trkpt>
      <trkpt lat="44.82831" lon="-0.36808">
        <ele>68.441</ele>
        <time>2016-04-20T13:25:37.000Z</time>
      </trkpt>
      <trkpt lat="44.8284" lon="-0.36804">
        <ele>67.515</ele>
        <time>2016-04-20T13:25:48.000Z</time>
      </trkpt>
      <trkpt lat="44.8284" lon="-0.36804">
        <ele>66.108</ele>
        <time>2016-04-20T13:25:53.000Z</time>
      </trkpt>
      <trkpt lat="44.8284" lon="-0.36804">
        <ele>65.156</ele>
        <time>2016-04-20T13:26:18.000Z</time>
      </trkpt>
      <trkpt lat="44.8284" lon="-0.36804">
        <ele>65.173</ele>
        <time>2016-04-20T13:26:18.100Z</time>
      </trkpt>
      <trkpt lat="44.82846" lon="-0.36787">
        <ele>65.504</ele>
        <time>2016-04-20T13:26:27.000Z</time>
      </trkpt>
      <trkpt lat="44.82846" lon="-0.36787">
        <ele>65.505</ele>
        <time>2016-04-20T13:26:29.000Z</time>
      </trkpt>
      <trkpt lat="44.82846" lon="-0.36787">
        <ele>65.327</ele>
        <time>2016-04-20T13:26:36.998Z</time>
      </trkpt>
      <trkpt lat="44.82847" lon="-0.36774">
        <ele>65.348</ele>
        <time>2016-04-20T13:26:44.000Z</time>
      </trkpt>
      <trkpt lat="44.82847" lon="-0.36758">
        <ele>64.982</ele>
        <time>2016-04-20T13:26:54.000Z</time>
      </trkpt>
      <trkpt lat="44.82847" lon="-0.36743">
        <ele>63.897</ele>
        <time>2016-04-20T13:26:59.000Z</time>
      </trkpt>
      <trkpt lat="44.82847" lon="-0.36729">
        <ele>63.073</ele>
        <time>2016-04-20T13:27:06.000Z</time>
      </trkpt>
      <trkpt lat="44.82849" lon="-0.36717">
        <ele>63.434</ele>
        <time>2016-04-20T13:27:18.000Z</time>
      </trkpt>
      <trkpt lat="44.8285" lon="-0.36704">
        <ele>64.664</ele>
        <time>2016-04-20T13:27:27.000Z</time>
      </trkpt>
      <trkpt lat="44.8285" lon="-0.36704">
        <ele>66.028</ele>
        <time>2016-04-20T13:27:32.000Z</time>
      </trkpt>
      <trkpt lat="44.8285" lon="-0.36704">
        <ele>66.8</ele>
        <time>2016-04-20T13:27:41.569Z</time>
      </trkpt>
      <trkpt lat="44.82847" lon="-0.3669">
        <ele>66.285</ele>
        <time>2016-04-20T13:27:50.000Z</time>
      </trkpt>
      <trkpt lat="44.82847" lon="-0.3669">
        <ele>65.985</ele>
        <time>2016-04-20T13:27:55.000Z</time>
      </trkpt>
      <trkpt lat="44.82847" lon="-0.3669">
        <ele>65.875</ele>
        <time>2016-04-20T13:27:59.986Z</time>
      </trkpt>
      <trkpt lat="44.82853" lon="-0.36679">
        <ele>65.868</ele>
        <time>2016-04-20T13:28:08.000Z</time>
      </trkpt>
      <trkpt lat="44.82853" lon="-0.36665">
        <ele>65.328</ele>
        <time>2016-04-20T13:28:19.000Z</time>
      </trkpt>
      <trkpt lat="44.82851" lon="-0.36652">
        <ele>63.888</ele>
        <time>2016-04-20T13:28:30.999Z</time>
      </trkpt>
      <trkpt lat="44.82851" lon="-0.36652">
        <ele>62.484</ele>
        <time>2016-04-20T13:28:31.999Z</time>
      </trkpt>
      <trkpt lat="44.82851" lon="-0.36652">
        <ele>61.996</ele>
        <time>2016-04-20T13:29:06.384Z</time>
      </trkpt>
      <trkpt lat="44.82852" lon="-0.36639">
        <ele>62.309</ele>
        <time>2016-04-20T13:29:13.999Z</time>
      </trkpt>
      <trkpt lat="44.82853" lon="-0.36626">
        <ele>62.018</ele>
        <time>2016-04-20T13:29:26.999Z</time>
      </trkpt>
      <trkpt lat="44.8285" lon="-0.36611">
        <ele>60.945</ele>
        <time>2016-04-20T13:29:37.999Z</time>
      </trkpt>
      <trkpt lat="44.82843" lon="-0.36604">
        <ele>59.324</ele>
        <time>2016-04-20T13:29:41.999Z</time>
      </trkpt>
      <trkpt lat="44.82837" lon="-0.36593">
        <ele>57.547</ele>
        <time>2016-04-20T13:29:47.999Z</time>
      </trkpt>
      <trkpt lat="44.8283" lon="-0.36583">
        <ele>55.931</ele>
        <time>2016-04-20T13:29:55.999Z</time>
      </trkpt>
      <trkpt lat="44.82827" lon="-0.36571">
        <ele>54.66</ele>
        <time>2016-04-20T13:30:02.999Z</time>
      </trkpt>
      <trkpt lat="44.82824" lon="-0.36559">
        <ele>53.83</ele>
        <time>2016-04-20T13:30:09.999Z</time>
      </trkpt>
      <trkpt lat="44.82821" lon="-0.36547">
        <ele>53.46</ele>
        <time>2016-04-20T13:30:16.999Z</time>
      </trkpt>
      <trkpt lat="44.82818" lon="-0.36534">
        <ele>53.332</ele>
        <time>2016-04-20T13:30:24.999Z</time>
      </trkpt>
      <trkpt lat="44.82817" lon="-0.36521">
        <ele>53.319</ele>
        <time>2016-04-20T13:30:35.999Z</time>
      </trkpt>
      <trkpt lat="44.82817" lon="-0.36521">
        <ele>53.329</ele>
        <time>2016-04-20T13:30:38.999Z</time>
      </trkpt>
      <trkpt lat="44.82817" lon="-0.36521">
        <ele>53.311</ele>
        <time>2016-04-20T13:30:51.272Z</time>
      </trkpt>
      <trkpt lat="44.82815" lon="-0.36508">
        <ele>53.262</ele>
        <time>2016-04-20T13:31:00.999Z</time>
      </trkpt>
      <trkpt lat="44.82813" lon="-0.36495">
        <ele>53.261</ele>
        <time>2016-04-20T13:31:10.999Z</time>
      </trkpt>
      <trkpt lat="44.82808" lon="-0.36484">
        <ele>53.037</ele>
        <time>2016-04-20T13:31:20.999Z</time>
      </trkpt>
      <trkpt lat="44.82804" lon="-0.36471">
        <ele>52.312</ele>
        <time>2016-04-20T13:31:30.999Z</time>
      </trkpt>
      <trkpt lat="44.828" lon="-0.3646">
        <ele>51.035</ele>
        <time>2016-04-20T13:31:40.999Z</time>
      </trkpt>
      <trkpt lat="44.82796" lon="-0.36447">
        <ele>49.487</ele>
        <time>2016-04-20T13:31:47.999Z</time>
      </trkpt>
      <trkpt lat="44.82795" lon="-0.36433">
        <ele>48.234</ele>
        <time>2016-04-20T13:31:59.999Z</time>
      </trkpt>
      <trkpt lat="44.82795" lon="-0.3642">
        <ele>47.715</ele>
        <time>2016-04-20T13:32:07.999Z</time>
      </trkpt>
      <trkpt lat="44.82793" lon="-0.36406">
        <ele>48.094</ele>
        <time>2016-04-20T13:32:16.999Z</time>
      </trkpt>
      <trkpt lat="44.82791" lon="-0.36392">
        <ele>49.164</ele>
        <time>2016-04-20T13:32:25.999Z</time>
      </trkpt>
      <trkpt lat="44.82788" lon="-0.36379">
        <ele>50.063</ele>
        <time>2016-04-20T13:32:34.999Z</time>
      </trkpt>
      <trkpt lat="44.82786" lon="-0.36366">
        <ele>50.231</ele>
        <time>2016-04-20T13:32:41.999Z</time>
      </trkpt>
      <trkpt lat="44.82786" lon="-0.36366">
        <ele>50.057</ele>
        <time>2016-04-20T13:32:43.999Z</time>
      </trkpt>
      <trkpt lat="44.82786" lon="-0.36366">
        <ele>50.002</ele>
        <time>2016-04-20T13:32:55.217Z</time>
      </trkpt>
      <trkpt lat="44.82786" lon="-0.36366">
        <ele>50.063</ele>
        <time>2016-04-20T13:33:00.999Z</time>
      </trkpt>
      <trkpt lat="44.82786" lon="-0.36366">
        <ele>50.032</ele>
        <time>2016-04-20T13:33:17.986Z</time>
      </trkpt>
      <trkpt lat="44.8279" lon="-0.36352">
        <ele>50.006</ele>
        <time>2016-04-20T13:33:26.999Z</time>
      </trkpt>
      <trkpt lat="44.8279" lon="-0.36352">
        <ele>49.998</ele>
        <time>2016-04-20T13:33:33.999Z</time>
      </trkpt>
      <trkpt lat="44.8279" lon="-0.36352">
        <ele>49.992</ele>
        <time>2016-04-20T13:33:54.690Z</time>
      </trkpt>
      <trkpt lat="44.82795" lon="-0.3634">
        <ele>49.952</ele>
        <time>2016-04-20T13:34:02.999Z</time>
      </trkpt>
      <trkpt lat="44.82804" lon="-0.36336">
        <ele>49.868</ele>
        <time>2016-04-20T13:34:11.999Z</time>
      </trkpt>
      <trkpt lat="44.82811" lon="-0.36345">
        <ele>49.406</ele>
        <time>2016-04-20T13:34:19.999Z</time>
      </trkpt>
      <trkpt lat="44.82818" lon="-0.36355">
        <ele>48.387</ele>
        <time>2016-04-20T13:34:27.999Z</time>
      </trkpt>
      <trkpt lat="44.82825" lon="-0.36363">
        <ele>47.266</ele>
        <time>2016-04-20T13:34:36.999Z</time>
      </trkpt>
      <trkpt lat="44.82833" lon="-0.36371">
        <ele>46.93</ele>
        <time>2016-04-20T13:34:44.999Z</time>
      </trkpt>
      <trkpt lat="44.82841" lon="-0.3638">
        <ele>47.787</ele>
        <time>2016-04-20T13:34:53.999Z</time>
      </trkpt>
      <trkpt lat="44.82848" lon="-0.36387">
        <ele>49.181</ele>
        <time>2016-04-20T13:35:02.999Z</time>
      </trkpt>
      <trkpt lat="44.82858" lon="-0.3639">
        <ele>50.173</ele>
        <time>2016-04-20T13:35:10.999Z</time>
      </trkpt>
      <trkpt lat="44.82868" lon="-0.3639">
        <ele>50.549</ele>
        <time>2016-04-20T13:35:17.999Z</time>
      </trkpt>
      <trkpt lat="44.82878" lon="-0.36387">
        <ele>50.563</ele>
        <time>2016-04-20T13:35:25.999Z</time>
      </trkpt>
      <trkpt lat="44.82887" lon="-0.36385">
        <ele>50.211</ele>
        <time>2016-04-20T13:35:33.999Z</time>
      </trkpt>
      <trkpt lat="44.82896" lon="-0.36381">
        <ele>48.753</ele>
        <time>2016-04-20T13:35:38.999Z</time>
      </trkpt>
      <trkpt lat="44.82906" lon="-0.36375">
        <ele>48.413</ele>
        <time>2016-04-20T13:35:45.999Z</time>
      </trkpt>
      <trkpt lat="44.82915" lon="-0.36371">
        <ele>48.326</ele>
        <time>2016-04-20T13:35:51.999Z</time>
      </trkpt>
      <trkpt lat="44.82923" lon="-0.36366">
        <ele>48.214</ele>
        <time>2016-04-20T13:36:09.999Z</time>
      </trkpt>
      <trkpt lat="44.8293" lon="-0.36357">
        <ele>47.361</ele>
        <time>2016-04-20T13:36:18.999Z</time>
      </trkpt>
      <trkpt lat="44.82939" lon="-0.36352">
        <ele>45.405</ele>
        <time>2016-04-20T13:36:27.999Z</time>
      </trkpt>
      <trkpt lat="44.82946" lon="-0.36345">
        <ele>43.019</ele>
        <time>2016-04-20T13:36:33.999Z</time>
      </trkpt>
      <trkpt lat="44.82955" lon="-0.36338">
        <ele>41.193</ele>
        <time>2016-04-20T13:36:41.999Z</time>
      </trkpt>
      <trkpt lat="44.82963" lon="-0.3633">
        <ele>40.615</ele>
        <time>2016-04-20T13:36:50.000Z</time>
      </trkpt>
      <trkpt lat="44.82972" lon="-0.36325">
        <ele>41.265</ele>
        <time>2016-04-20T13:36:58.000Z</time>
      </trkpt>
      <trkpt lat="44.8298" lon="-0.36318">
        <ele>41.862</ele>
        <time>2016-04-20T13:37:06.000Z</time>
      </trkpt>
      <trkpt lat="44.82988" lon="-0.3631">
        <ele>41.26</ele>
        <time>2016-04-20T13:37:13.000Z</time>
      </trkpt>
      <trkpt lat="44.82994" lon="-0.363">
        <ele>39.909</ele>
        <time>2016-04-20T13:37:19.000Z</time>
      </trkpt>
      <trkpt lat="44.83001" lon="-0.36292">
        <ele>38.889</ele>
        <time>2016-04-20T13:37:27.000Z</time>
      </trkpt>
      <trkpt lat="44.83005" lon="-0.36279">
        <ele>38.619</ele>
        <time>2016-04-20T13:37:43.000Z</time>
      </trkpt>
      <trkpt lat="44.83008" lon="-0.36265">
        <ele>38.993</ele>
        <time>2016-04-20T13:37:58.000Z</time>
      </trkpt>
      <trkpt lat="44.8301" lon="-0.36253">
        <ele>39.667</ele>
        <time>2016-04-20T13:38:07.000Z</time>
      </trkpt>
      <trkpt lat="44.8301" lon="-0.3624">
        <ele>39.908</ele>
        <time>2016-04-20T13:38:14.000Z</time>
      </trkpt>
      <trkpt lat="44.8301" lon="-0.36225">
        <ele>38.983</ele>
        <time>2016-04-20T13:38:21.000Z</time>
      </trkpt>
      <trkpt lat="44.83014" lon="-0.36239">
        <ele>36.917</ele>
        <time>2016-04-20T13:38:27.000Z</time>
      </trkpt>
      <trkpt lat="44.83014" lon="-0.36239">
        <ele>33.438</ele>
        <time>2016-04-20T13:38:36.000Z</time>
      </trkpt>
      <trkpt lat="44.83014" lon="-0.36239">
        <ele>33.523</ele>
        <time>2016-04-20T13:38:36.100Z</time>
      </trkpt>
      <trkpt lat="44.83009" lon="-0.36218">
        <ele>34.134</ele>
        <time>2016-04-20T13:38:44.000Z</time>
      </trkpt>
      <trkpt lat="44.83003" lon="-0.36207">
        <ele>34.623</ele>
        <time>2016-04-20T13:38:53.000Z</time>
      </trkpt>
      <trkpt lat="44.82996" lon="-0.362">
        <ele>34.916</ele>
        <time>2016-04-20T13:39:01.000Z</time>
      </trkpt>
      <trkpt lat="44.82988" lon="-0.36191">
        <ele>34.749</ele>
        <time>2016-04-20T13:39:11.000Z</time>
      </trkpt>
      <trkpt lat="44.82981" lon="-0.36182">
        <ele>33.746</ele>
        <time>2016-04-20T13:39:19.000Z</time>
      </trkpt>
      <trkpt lat="44.82974" lon="-0.36174">
        <ele>32.284</ele>
        <time>2016-04-20T13:39:27.000Z</time>
      </trkpt>
      <trkpt lat="44.82965" lon="-0.36166">
        <ele>30.991</ele>
        <time>2016-04-20T13:39:35.000Z</time>
      </trkpt>
      <trkpt lat="44.82956" lon="-0.3616">
        <ele>29.844</ele>
        <time>2016-04-20T13:39:41.000Z</time>
      </trkpt>
      <trkpt lat="44.8295" lon="-0.36149">
        <ele>28.527</ele>
        <time>2016-04-20T13:39:48.000Z</time>
      </trkpt>
      <trkpt lat="44.82943" lon="-0.36139">
        <ele>27.14</ele>
        <time>2016-04-20T13:39:59.000Z</time>
      </trkpt>
      <trkpt lat="44.82936" lon="-0.36129">
        <ele>26.131</ele>
        <time>2016-04-20T13:40:06.000Z</time>
      </trkpt>
      <trkpt lat="44.82933" lon="-0.36116">
        <ele>25.631</ele>
        <time>2016-04-20T13:40:11.000Z</time>
      </trkpt>
      <trkpt lat="44.82928" lon="-0.36104">
        <ele>25.346</ele>
        <time>2016-04-20T13:40:19.000Z</time>
      </trkpt>
      <trkpt lat="44.82924" lon="-0.36092">
        <ele>25.154</ele>
        <time>2016-04-20T13:40:29.000Z</time>
      </trkpt>
      <trkpt lat="44.8292" lon="-0.3608">
        <ele>25.369</ele>
        <time>2016-04-20T13:40:36.000Z</time>
      </trkpt>
      <trkpt lat="44.82916" lon="-0.36066">
        <ele>26.301</ele>
        <time>2016-04-20T13:40:42.000Z</time>
      </trkpt>
      <trkpt lat="44.82913" lon="-0.36054">
        <ele>27.826</ele>
        <time>2016-04-20T13:40:46.000Z</time>
      </trkpt>
      <trkpt lat="44.82911" lon="-0.36042">
        <ele>29.448</ele>
        <time>2016-04-20T13:40:53.000Z</time>
      </trkpt>
      <trkpt lat="44.82905" lon="-0.3603">
        <ele>30.639</ele>
        <time>2016-04-20T13:40:59.000Z</time>
      </trkpt>
      <trkpt lat="44.82905" lon="-0.3603">
        <ele>31.103</ele>
        <time>2016-04-20T13:41:10.000Z</time>
      </trkpt>
      <trkpt lat="44.82905" lon="-0.3603">
        <ele>31.019</ele>
        <time>2016-04-20T13:41:21.608Z</time>
      </trkpt>
      <trkpt lat="44.82895" lon="-0.36021">
        <ele>30.774</ele>
        <time>2016-04-20T13:41:30.000Z</time>
      </trkpt>
      <trkpt lat="44.82889" lon="-0.36009">
        <ele>29.842</ele>
        <time>2016-04-20T13:41:41.000Z</time>
      </trkpt>
      <trkpt lat="44.82884" lon="-0.35998">
        <ele>27.78</ele>
        <time>2016-04-20T13:41:48.000Z</time>
      </trkpt>
      <trkpt lat="44.82879" lon="-0.35986">
        <ele>25.723</ele>
        <time>2016-04-20T13:41:55.000Z</time>
      </trkpt>
      <trkpt lat="44.82873" lon="-0.35975">
        <ele>24.707</ele>
        <time>2016-04-20T13:42:03.000Z</time>
      </trkpt>
      <trkpt lat="44.82867" lon="-0.35965">
        <ele>24.198</ele>
        <time>2016-04-20T13:42:08.000Z</time>
      </trkpt>
      <trkpt lat="44.8286" lon="-0.35954">
        <ele>23.632</ele>
        <time>2016-04-20T13:42:14.000Z</time>
      </trkpt>
      <trkpt lat="44.82855" lon="-0.35944">
        <ele>22.959</ele>
        <time>2016-04-20T13:42:21.000Z</time>
      </trkpt>
      <trkpt lat="44.82849" lon="-0.35934">
        <ele>22.277</ele>
        <time>2016-04-20T13:42:30.000Z</time>
      </trkpt>
      <trkpt lat="44.82841" lon="-0.35927">
        <ele>21.742</ele>
        <time>2016-04-20T13:42:40.000Z</time>
      </trkpt>
      <trkpt lat="44.82833" lon="-0.35919">
        <ele>21.739</ele>
        <time>2016-04-20T13:42:49.000Z</time>
      </trkpt>
      <trkpt lat="44.82827" lon="-0.35908">
        <ele>22.433</ele>
        <time>2016-04-20T13:43:02.000Z</time>
      </trkpt>
      <trkpt lat="44.82824" lon="-0.35896">
        <ele>23.584</ele>
        <time>2016-04-20T13:43:11.000Z</time>
      </trkpt>
      <trkpt lat="44.82822" lon="-0.35882">
        <ele>25.434</ele>
        <time>2016-04-20T13:43:17.000Z</time>
      </trkpt>
      <trkpt lat="44.82817" lon="-0.35871">
        <ele>28.085</ele>
        <time>2016-04-20T13:43:22.000Z</time>
      </trkpt>
      <trkpt lat="44.82812" lon="-0.35858">
        <ele>30.444</ele>
        <time>2016-04-20T13:43:28.000Z</time>
      </trkpt>
      <trkpt lat="44.82807" lon="-0.35845">
        <ele>31.677</ele>
        <time>2016-04-20T13:43:34.000Z</time>
      </trkpt>
      <trkpt lat="44.82803" lon="-0.35833">
        <ele>32.114</ele>
        <time>2016-04-20T13:43:40.000Z</time>
      </trkpt>
      <trkpt lat="44.82799" lon="-0.35821">
        <ele>32.167</ele>
        <time>2016-04-20T13:43:47.000Z</time>
      </trkpt>
      <trkpt lat="44.82793" lon="-0.3581">
        <ele>32.096</ele>
        <time>2016-04-20T13:43:56.000Z</time>
      </trkpt>
      <trkpt lat="44.82793" lon="-0.3581">
        <ele>32.054</ele>
        <time>2016-04-20T13:44:07.000Z</time>
      </trkpt>
      <trkpt lat="44.82793" lon="-0.3581">
        <ele>32.057</ele>
        <time>2016-04-20T13:44:14.188Z</time>
      </trkpt>
      <trkpt lat="44.82787" lon="-0.3579">
        <ele>32.039</ele>
        <time>2016-04-20T13:44:23.000Z</time>
      </trkpt>
      <trkpt lat="44.82785" lon="-0.35777">
        <ele>31.934</ele>
        <time>2016-04-20T13:44:30.000Z</time>
      </trkpt>
      <trkpt lat="44.82781" lon="-0.35766">
        <ele>31.677</ele>
        <time>2016-04-20T13:44:40.000Z</time>
      </trkpt>
      <trkpt lat="44.82775" lon="-0.35755">
        <ele>31.392</ele>
        <time>2016-04-20T13:44:50.000Z</time>
      </trkpt>
      <trkpt lat="44.82769" lon="-0.35744">
        <ele>31.233</ele>
        <time>2016-04-20T13:44:55.000Z</time>
      </trkpt>
      <trkpt lat="44.82761" lon="-0.35734">
        <ele>30.688</ele>
        <time>2016-04-20T13:45:02.000Z</time>
      </trkpt>
      <trkpt lat="44.82755" lon="-0.35722">
        <ele>29.222</ele>
        <time>2016-04-20T13:45:08.000Z</time>
      </trkpt>
      <trkpt lat="44.82751" lon="-0.35711">
        <ele>27.47</ele>
        <time>2016-04-20T13:45:15.000Z</time>
      </trkpt>
      <trkpt lat="44.82749" lon="-0.35697">
        <ele>26.612</ele>
        <time>2016-04-20T13:45:21.000Z</time>
      </trkpt>
      <trkpt lat="44.8275" lon="-0.35685">
        <ele>27.124</ele>
        <time>2016-04-20T13:45:30.000Z</time>
      </trkpt>
      <trkpt lat="44.82744" lon="-0.35673">
        <ele>28.474</ele>
        <time>2016-04-20T13:45:42.000Z</time>
      </trkpt>
      <trkpt lat="44.82739" lon="-0.35661">
        <ele>29.623</ele>
        <time>2016-04-20T13:45:49.000Z</time>
      </trkpt>
      <trkpt lat="44.82739" lon="-0.35648">
        <ele>29.995</ele>
        <time>2016-04-20T13:45:57.999Z</time>
      </trkpt>
      <trkpt lat="44.82732" lon="-0.35637">
        <ele>29.642</ele>
        <time>2016-04-20T13:46:05.000Z</time>
      </trkpt>
      <trkpt lat="44.82723" lon="-0.35628">
        <ele>28.622</ele>
        <time>2016-04-20T13:46:13.000Z</time>
      </trkpt>
      <trkpt lat="44.82716" lon="-0.35619">
        <ele>29.172</ele>
        <time>2016-04-20T13:46:19.000Z</time>
      </trkpt>
      <trkpt lat="44.82709" lon="-0.35609">
        <ele>31.763</ele>
        <time>2016-04-20T13:46:29.000Z</time>
      </trkpt>
      <trkpt lat="44.82709" lon="-0.35609">
        <ele>32.688</ele>
        <time>2016-04-20T13:46:30.000Z</time>
      </trkpt>
      <trkpt lat="44.82709" lon="-0.35609">
        <ele>32.866</ele>
        <time>2016-04-20T13:46:36.119Z</time>
      </trkpt>
      <trkpt lat="44.82702" lon="-0.35598">
        <ele>32.607</ele>
        <time>2016-04-20T13:46:42.000Z</time>
      </trkpt>
      <trkpt lat="44.82702" lon="-0.35598">
        <ele>32.591</ele>
        <time>2016-04-20T13:46:51.000Z</time>
      </trkpt>
      <trkpt lat="44.82702" lon="-0.35598">
        <ele>32.574</ele>
        <time>2016-04-20T13:47:10.783Z</time>
      </trkpt>
      <trkpt lat="44.827" lon="-0.35581">
        <ele>32.562</ele>
        <time>2016-04-20T13:47:15.000Z</time>
      </trkpt>
      <trkpt lat="44.82695" lon="-0.3557">
        <ele>32.02</ele>
        <time>2016-04-20T13:47:24.000Z</time>
      </trkpt>
      <trkpt lat="44.82694" lon="-0.35557">
        <ele>30.95</ele>
        <time>2016-04-20T13:47:34.000Z</time>
      </trkpt>
      <trkpt lat="44.82691" lon="-0.35543">
        <ele>30.215</ele>
        <time>2016-04-20T13:47:44.000Z</time>
      </trkpt>
      <trkpt lat="44.82687" lon="-0.35528">
        <ele>30.072</ele>
        <time>2016-04-20T13:47:49.000Z</time>
      </trkpt>
      <trkpt lat="44.82684" lon="-0.35515">
        <ele>30.072</ele>
        <time>2016-04-20T13:47:54.000Z</time>
      </trkpt>
      <trkpt lat="44.82681" lon="-0.35503">
        <ele>30.103</ele>
        <time>2016-04-20T13:48:01.000Z</time>
      </trkpt>
      <trkpt lat="44.82676" lon="-0.3549">
        <ele>30.106</ele>
        <time>2016-04-20T13:48:11.000Z</time>
      </trkpt>
      <trkpt lat="44.82673" lon="-0.35478">
        <ele>29.8</ele>
        <time>2016-04-20T13:48:22.000Z</time>
      </trkpt>
      <trkpt lat="44.82669" lon="-0.35466">
        <ele>29.035</ele>
        <time>2016-04-20T13:48:27.000Z</time>
      </trkpt>
      <trkpt lat="44.82664" lon="-0.35453">
        <ele>28.233</ele>
        <time>2016-04-20T13:48:34.000Z</time>
      </trkpt>
      <trkpt lat="44.82659" lon="-0.35441">
        <ele>27.801</ele>
        <time>2016-04-20T13:48:40.000Z</time>
      </trkpt>
      <trkpt lat="44.82653" lon="-0.3543">
        <ele>27.48</ele>
        <time>2016-04-20T13:48:45.000Z</time>
      </trkpt>
      <trkpt lat="44.82644" lon="-0.35423">
        <ele>26.991</ele>
        <time>2016-04-20T13:48:53.000Z</time>
      </trkpt>
      <trkpt lat="44.82638" lon="-0.35414">
        <ele>26.515</ele>
        <time>2016-04-20T13:49:02.000Z</time>
      </trkpt>
      <trkpt lat="44.82629" lon="-0.35408">
        <ele>26.045</ele>
        <time>2016-04-20T13:49:11.000Z</time>
      </trkpt>
      <trkpt lat="44.82621" lon="-0.35403">
        <ele>25.291</ele>
        <time>2016-04-20T13:49:19.000Z</time>
      </trkpt>
      <trkpt lat="44.82612" lon="-0.35398">
        <ele>24.1</ele>
        <time>2016-04-20T13:49:27.000Z</time>
      </trkpt>
      <trkpt lat="44.8261" lon="-0.35385">
        <ele>22.649</ele>
        <time>2016-04-20T13:49:43.000Z</time>
      </trkpt>
      <trkpt lat="44.82601" lon="-0.35381">
        <ele>22.6</ele>
        <time>2016-04-20T13:49:53.000Z</time>
      </trkpt>
      <trkpt lat="44.82592" lon="-0.35379">
        <ele>24.982</ele>
        <time>2016-04-20T13:50:01.000Z</time>
      </trkpt>
      <trkpt lat="44.82584" lon="-0.35374">
        <ele>27.379</ele>
        <time>2016-04-20T13:50:07.000Z</time>
      </trkpt>
      <trkpt lat="44.82575" lon="-0.35369">
        <ele>27.598</ele>
        <time>2016-04-20T13:50:13.000Z</time>
      </trkpt>
      <trkpt lat="44.82565" lon="-0.35366">
        <ele>26.739</ele>
        <time>2016-04-20T13:50:19.000Z</time>
      </trkpt>
      <trkpt lat="44.82557" lon="-0.35363">
        <ele>26.803</ele>
        <time>2016-04-20T13:50:30.000Z</time>
      </trkpt>
      <trkpt lat="44.82547" lon="-0.3536">
        <ele>28.252</ele>
        <time>2016-04-20T13:50:41.000Z</time>
      </trkpt>
      <trkpt lat="44.82539" lon="-0.35355">
        <ele>29.895</ele>
        <time>2016-04-20T13:50:50.000Z</time>
      </trkpt>
      <trkpt lat="44.8253" lon="-0.35347">
        <ele>30.422</ele>
        <time>2016-04-20T13:50:59.000Z</time>
      </trkpt>
      <trkpt lat="44.82521" lon="-0.35341">
        <ele>29.804</ele>
        <time>2016-04-20T13:51:06.000Z</time>
      </trkpt>
      <trkpt lat="44.82512" lon="-0.35336">
        <ele>28.876</ele>
        <time>2016-04-20T13:51:13.000Z</time>
      </trkpt>
      <trkpt lat="44.82505" lon="-0.35345">
        <ele>28.585</ele>
        <time>2016-04-20T13:51:23.000Z</time>
      </trkpt>
      <trkpt lat="44.82499" lon="-0.35355">
        <ele>29.432</ele>
        <time>2016-04-20T13:51:33.000Z</time>
      </trkpt>
      <trkpt lat="44.8249" lon="-0.35361">
        <ele>31.033</ele>
        <time>2016-04-20T13:51:43.996Z</time>
      </trkpt>
      <trkpt lat="44.82485" lon="-0.35371">
        <ele>32.984</ele>
        <time>2016-04-20T13:51:52.996Z</time>
      </trkpt>
      <trkpt lat="44.8248" lon="-0.35383">
        <ele>35.312</ele>
        <time>2016-04-20T13:51:59.996Z</time>
      </trkpt>
      <trkpt lat="44.82473" lon="-0.35391">
        <ele>37.598</ele>
        <time>2016-04-20T13:52:07.996Z</time>
      </trkpt>
      <trkpt lat="44.82467" lon="-0.35401">
        <ele>39.173</ele>
        <time>2016-04-20T13:52:16.996Z</time>
      </trkpt>
      <trkpt lat="44.82461" lon="-0.35412">
        <ele>40.124</ele>
        <time>2016-04-20T13:52:27.996Z</time>
      </trkpt>
      <trkpt lat="44.82461" lon="-0.35412">
        <ele>40.816</ele>
        <time>2016-04-20T13:52:31.996Z</time>
      </trkpt>
      <trkpt lat="44.82461" lon="-0.35412">
        <ele>41.208</ele>
        <time>2016-04-20T13:52:44.244Z</time>
      </trkpt>
      <trkpt lat="44.82455" lon="-0.35424">
        <ele>40.94</ele>
        <time>2016-04-20T13:52:55.996Z</time>
      </trkpt>
      <trkpt lat="44.8245" lon="-0.35434">
        <ele>41.351</ele>
        <time>2016-04-20T13:53:06.996Z</time>
      </trkpt>
      <trkpt lat="44.82443" lon="-0.35443">
        <ele>42.845</ele>
        <time>2016-04-20T13:53:19.000Z</time>
      </trkpt>
      <trkpt lat="44.82437" lon="-0.35453">
        <ele>44.762</ele>
        <time>2016-04-20T13:53:29.000Z</time>
      </trkpt>
      <trkpt lat="44.82437" lon="-0.35453">
        <ele>46.243</ele>
        <time>2016-04-20T13:53:38.000Z</time>
      </trkpt>
      <trkpt lat="44.82437" lon="-0.35453">
        <ele>46.921</ele>
        <time>2016-04-20T13:54:11.000Z</time>
      </trkpt>
      <trkpt lat="44.82437" lon="-0.35453">
        <ele>46.824</ele>
        <time>2016-04-20T13:54:13.525Z</time>
      </trkpt>
      <trkpt lat="44.82437" lon="-0.35453">
        <ele>46.549</ele>
        <time>2016-04-20T13:54:22.000Z</time>
      </trkpt>
      <trkpt lat="44.82437" lon="-0.35453">
        <ele>46.667</ele>
        <time>2016-04-20T13:54:22.100Z</time>
      </trkpt>
      <trkpt lat="44.82423" lon="-0.35462">
        <ele>46.661</ele>
        <time>2016-04-20T13:54:34.000Z</time>
      </trkpt>
      <trkpt lat="44.82415" lon="-0.35468">
        <ele>46.485</ele>
        <time>2016-04-20T13:54:40.000Z</time>
      </trkpt>
      <trkpt lat="44.82409" lon="-0.35479">
        <ele>46.193</ele>
        <time>2016-04-20T13:54:47.000Z</time>
      </trkpt>
      <trkpt lat="44.82402" lon="-0.35488">
        <ele>45.94</ele>
        <time>2016-04-20T13:54:53.000Z</time>
      </trkpt>
      <trkpt lat="44.82395" lon="-0.35499">
        <ele>45.841</ele>
        <time>2016-04-20T13:55:01.000Z</time>
      </trkpt>
      <trkpt lat="44.8239" lon="-0.3551">
        <ele>46.18</ele>
        <time>2016-04-20T13:55:14.000Z</time>
      </trkpt>
      <trkpt lat="44.82382" lon="-0.35518">
        <ele>47.311</ele>
        <time>2016-04-20T13:55:22.000Z</time>
      </trkpt>
      <trkpt lat="44.82375" lon="-0.35529">
        <ele>49.174</ele>
        <time>2016-04-20T13:55:33.000Z</time>
      </trkpt>
      <trkpt lat="44.82367" lon="-0.35538">
        <ele>51.178</ele>
        <time>2016-04-20T13:55:41.000Z</time>
      </trkpt>
      <trkpt lat="44.82365" lon="-0.3555">
        <ele>52.541</ele>
        <time>2016-04-20T13:55:52.000Z</time>
      </trkpt>
      <trkpt lat="44.82359" lon="-0.3556">
        <ele>53.073</ele>
        <time>2016-04-20T13:56:01.000Z</time>
      </trkpt>
      <trkpt lat="44.82352" lon="-0.35569">
        <ele>53.112</ele>
        <time>2016-04-20T13:56:10.000Z</time>
      </trkpt>
      <trkpt lat="44.82344" lon="-0.35576">
        <ele>52.787</ele>
        <time>2016-04-20T13:56:19.000Z</time>
      </trkpt>
      <trkpt lat="44.82337" lon="-0.35584">
        <ele>52.222</ele>
        <time>2016-04-20T13:56:27.000Z</time>
      </trkpt>
      <trkpt lat="44.82329" lon="-0.35592">
        <ele>51.716</ele>
        <time>2016-04-20T13:56:34.000Z</time>
      </trkpt>
      <trkpt lat="44.82322" lon="-0.356">
        <ele>51.433</ele>
        <time>2016-04-20T13:56:47.000Z</time>
      </trkpt>
      <trkpt lat="44.82315" lon="-0.35609">
        <ele>51.252</ele>
        <time>2016-04-20T13:56:58.000Z</time>
      </trkpt>
      <trkpt lat="44.82308" lon="-0.35618">
        <ele>50.806</ele>
        <time>2016-04-20T13:57:08.000Z</time>
      </trkpt>
      <trkpt lat="44.82301" lon="-0.35628">
        <ele>50.139</ele>
        <time>2016-04-20T13:57:15.000Z</time>
      </trkpt>
      <trkpt lat="44.82294" lon="-0.35638">
        <ele>50.615</ele>
        <time>2016-04-20T13:57:24.000Z</time>
      </trkpt>
      <trkpt lat="44.82289" lon="-0.35648">
        <ele>50.582</ele>
        <time>2016-04-20T13:57:34.000Z</time>
      </trkpt>
      <trkpt lat="44.82281" lon="-0.35655">
        <ele>50.684</ele>
        <time>2016-04-20T13:57:43.000Z</time>
      </trkpt>
      <trkpt lat="44.82273" lon="-0.35664">
        <ele>51.216</ele>
        <time>2016-04-20T13:57:54.000Z</time>
      </trkpt>
      <trkpt lat="44.82265" lon="-0.35673">
        <ele>51.904</ele>
        <time>2016-04-20T13:58:05.000Z</time>
      </trkpt>
      <trkpt lat="44.82257" lon="-0.35681">
        <ele>52.377</ele>
        <time>2016-04-20T13:58:16.000Z</time>
      </trkpt>
      <trkpt lat="44.8225" lon="-0.35691">
        <ele>52.549</ele>
        <time>2016-04-20T13:58:24.000Z</time>
      </trkpt>
      <trkpt lat="44.82243" lon="-0.357">
        <ele>52.42</ele>
        <time>2016-04-20T13:58:32.000Z</time>
      </trkpt>
      <trkpt lat="44.82236" lon="-0.3571">
        <ele>51.951</ele>
        <time>2016-04-20T13:58:43.000Z</time>
      </trkpt>
      <trkpt lat="44.8223" lon="-0.3572">
        <ele>51.043</ele>
        <time>2016-04-20T13:58:59.000Z</time>
      </trkpt>
      <trkpt lat="44.82222" lon="-0.35726">
        <ele>49.614</ele>
        <time>2016-04-20T13:59:11.000Z</time>
      </trkpt>
      <trkpt lat="44.82217" lon="-0.35738">
        <ele>47.982</ele>
        <time>2016-04-20T13:59:21.000Z</time>
      </trkpt>
      <trkpt lat="44.82213" lon="-0.35749">
        <ele>47.045</ele>
        <time>2016-04-20T13:59:31.000Z</time>
      </trkpt>
      <trkpt lat="44.82208" lon="-0.3576">
        <ele>47.194</ele>
        <time>2016-04-20T13:59:43.000Z</time>
      </trkpt>
      <trkpt lat="44.822" lon="-0.35769">
        <ele>47.68</ele>
        <time>2016-04-20T13:59:56.000Z</time>
      </trkpt>
      <trkpt lat="44.82191" lon="-0.35772">
        <ele>47.676</ele>
        <time>2016-04-20T14:00:04.000Z</time>
      </trkpt>
      <trkpt lat="44.82181" lon="-0.35773">
        <ele>47.098</ele>
        <time>2016-04-20T14:00:12.000Z</time>
      </trkpt>
      <trkpt lat="44.82172" lon="-0.35776">
        <ele>46.456</ele>
        <time>2016-04-20T14:00:20.000Z</time>
      </trkpt>
      <trkpt lat="44.82162" lon="-0.35776">
        <ele>46.268</ele>
        <time>2016-04-20T14:00:29.000Z</time>
      </trkpt>
      <trkpt lat="44.82153" lon="-0.35779">
        <ele>46.924</ele>
        <time>2016-04-20T14:00:39.000Z</time>
      </trkpt>
      <trkpt lat="44.82145" lon="-0.35784">
        <ele>48.477</ele>
        <time>2016-04-20T14:00:46.000Z</time>
      </trkpt>
      <trkpt lat="44.82136" lon="-0.35785">
        <ele>50.301</ele>
        <time>2016-04-20T14:00:56.000Z</time>
      </trkpt>
      <trkpt lat="44.82136" lon="-0.35785">
        <ele>51.496</ele>
        <time>2016-04-20T14:00:58.000Z</time>
      </trkpt>
      <trkpt lat="44.82136" lon="-0.35785">
        <ele>51.812</ele>
        <time>2016-04-20T14:01:04.667Z</time>
      </trkpt>
      <trkpt lat="44.82128" lon="-0.35776">
        <ele>51.5</ele>
        <time>2016-04-20T14:01:13.000Z</time>
      </trkpt>
      <trkpt lat="44.82131" lon="-0.35763">
        <ele>52.094</ele>
        <time>2016-04-20T14:01:21.000Z</time>
      </trkpt>
      <trkpt lat="44.8213" lon="-0.3575">
        <ele>53.834</ele>
        <time>2016-04-20T14:01:35.000Z</time>
      </trkpt>
      <trkpt lat="44.82131" lon="-0.35736">
        <ele>55.128</ele>
        <time>2016-04-20T14:01:43.000Z</time>
      </trkpt>
      <trkpt lat="44.8213" lon="-0.35723">
        <ele>54.544</ele>
        <time>2016-04-20T14:01:52.000Z</time>
      </trkpt>
      <trkpt lat="44.82128" lon="-0.35709">
        <ele>52.907</ele>
        <time>2016-04-20T14:02:00.000Z</time>
      </trkpt>
      <trkpt lat="44.82129" lon="-0.35694">
        <ele>51.505</ele>
        <time>2016-04-20T14:02:10.000Z</time>
      </trkpt>
      <trkpt lat="44.82126" lon="-0.3568">
        <ele>50.597</ele>
        <time>2016-04-20T14:02:17.000Z</time>
      </trkpt>
      <trkpt lat="44.82124" lon="-0.35668">
        <ele>49.906</ele>
        <time>2016-04-20T14:02:26.000Z</time>
      </trkpt>
      <trkpt lat="44.82122" lon="-0.35656">
        <ele>49.349</ele>
        <time>2016-04-20T14:02:34.000Z</time>
      </trkpt>
      <trkpt lat="44.82121" lon="-0.35643">
        <ele>48.998</ele>
        <time>2016-04-20T14:02:41.000Z</time>
      </trkpt>
      <trkpt lat="44.82122" lon="-0.35629">
        <ele>48.136</ele>
        <time>2016-04-20T14:02:54.000Z</time>
      </trkpt>
      <trkpt lat="44.8212" lon="-0.35617">
        <ele>46.257</ele>
        <time>2016-04-20T14:03:03.000Z</time>
      </trkpt>
      <trkpt lat="44.82118" lon="-0.35603">
        <ele>44.151</ele>
        <time>2016-04-20T14:03:12.000Z</time>
      </trkpt>
      <trkpt lat="44.82116" lon="-0.3559">
        <ele>42.893</ele>
        <time>2016-04-20T14:03:18.000Z</time>
      </trkpt>
      <trkpt lat="44.8211" lon="-0.3558">
        <ele>42.638</ele>
        <time>2016-04-20T14:03:26.000Z</time>
      </trkpt>
      <trkpt lat="44.82108" lon="-0.35567">
        <ele>42.937</ele>
        <time>2016-04-20T14:03:34.000Z</time>
      </trkpt>
      <trkpt lat="44.82108" lon="-0.35554">
        <ele>43.269</ele>
        <time>2016-04-20T14:03:43.000Z</time>
      </trkpt>
      <trkpt lat="44.82106" lon="-0.35541">
        <ele>42.948</ele>
        <time>2016-04-20T14:03:56.000Z</time>
      </trkpt>
      <trkpt lat="44.82102" lon="-0.35527">
        <ele>41.677</ele>
        <time>2016-04-20T14:04:04.000Z</time>
      </trkpt>
      <trkpt lat="44.82099" lon="-0.35514">
        <ele>40.018</ele>
        <time>2016-04-20T14:04:15.000Z</time>
      </trkpt>
      <trkpt lat="44.82092" lon="-0.35504">
        <ele>38.409</ele>
        <time>2016-04-20T14:04:25.000Z</time>
      </trkpt>
      <trkpt lat="44.82086" lon="-0.35494">
        <ele>37.03</ele>
        <time>2016-04-20T14:04:32.000Z</time>
      </trkpt>
      <trkpt lat="44.82079" lon="-0.35484">
        <ele>36.316</ele>
        <time>2016-04-20T14:04:39.000Z</time>
      </trkpt>
      <trkpt lat="44.82072" lon="-0.35474">
        <ele>36.487</ele>
        <time>2016-04-20T14:04:50.000Z</time>
      </trkpt>
      <trkpt lat="44.82065" lon="-0.35465">
        <ele>37.345</ele>
        <time>2016-04-20T14:04:56.000Z</time>
      </trkpt>
      <trkpt lat="44.82059" lon="-0.35456">
        <ele>38.295</ele>
        <time>2016-04-20T14:05:05.000Z</time>
      </trkpt>
      <trkpt lat="44.82052" lon="-0.35445">
        <ele>38.568</ele>
        <time>2016-04-20T14:05:12.000Z</time>
      </trkpt>
      <trkpt lat="44.82045" lon="-0.35434">
        <ele>37.999</ele>
        <time>2016-04-20T14:05:19.000Z</time>
      </trkpt>
      <trkpt lat="44.82041" lon="-0.35422">
        <ele>37.221</ele>
        <time>2016-04-20T14:05:30.000Z</time>
      </trkpt>
      <trkpt lat="44.82038" lon="-0.3541">
        <ele>36.923</ele>
        <time>2016-04-20T14:05:38.000Z</time>
      </trkpt>
      <trkpt lat="44.82031" lon="-0.354">
        <ele>37.293</ele>
        <time>2016-04-20T14:05:48.000Z</time>
      </trkpt>
      <trkpt lat="44.82022" lon="-0.35394">
        <ele>38.315</ele>
        <time>2016-04-20T14:05:58.000Z</time>
      </trkpt>
      <trkpt lat="44.82015" lon="-0.35385">
        <ele>39.657</ele>
        <time>2016-04-20T14:06:05.000Z</time>
      </trkpt>
      <trkpt lat="44.82005" lon="-0.35379">
        <ele>40.805</ele>
        <time>2016-04-20T14:06:15.000Z</time>
      </trkpt>
      <trkpt lat="44.81995" lon="-0.35376">
        <ele>41.668</ele>
        <time>2016-04-20T14:06:21.000Z</time>
      </trkpt>
      <trkpt lat="44.81988" lon="-0.3537">
        <ele>42.672</ele>
        <time>2016-04-20T14:06:28.000Z</time>
      </trkpt>
      <trkpt lat="44.81982" lon="-0.35359">
        <ele>43.852</ele>
        <time>2016-04-20T14:06:39.000Z</time>
      </trkpt>
      <trkpt lat="44.81973" lon="-0.35354">
        <ele>44.724</ele>
        <time>2016-04-20T14:06:46.000Z</time>
      </trkpt>
      <trkpt lat="44.81965" lon="-0.35344">
        <ele>45.047</ele>
        <time>2016-04-20T14:06:54.000Z</time>
      </trkpt>
      <trkpt lat="44.81965" lon="-0.35344">
        <ele>45.064</ele>
        <time>2016-04-20T14:06:57.000Z</time>
      </trkpt>
      <trkpt lat="44.81965" lon="-0.35344">
        <ele>45.018</ele>
        <time>2016-04-20T14:07:01.209Z</time>
      </trkpt>
      <trkpt lat="44.81961" lon="-0.35333">
        <ele>45.001</ele>
        <time>2016-04-20T14:07:16.000Z</time>
      </trkpt>
      <trkpt lat="44.81951" lon="-0.35331">
        <ele>44.951</ele>
        <time>2016-04-20T14:07:25.006Z</time>
      </trkpt>
      <trkpt lat="44.81945" lon="-0.3532">
        <ele>44.489</ele>
        <time>2016-04-20T14:07:38.000Z</time>
      </trkpt>
      <trkpt lat="44.81937" lon="-0.35313">
        <ele>43.52</ele>
        <time>2016-04-20T14:07:49.000Z</time>
      </trkpt>
      <trkpt lat="44.81928" lon="-0.35309">
        <ele>42.327</ele>
        <time>2016-04-20T14:07:59.000Z</time>
      </trkpt>
      <trkpt lat="44.8192" lon="-0.35302">
        <ele>41.186</ele>
        <time>2016-04-20T14:08:08.000Z</time>
      </trkpt>
      <trkpt lat="44.8192" lon="-0.35302">
        <ele>40.073</ele>
        <time>2016-04-20T14:08:11.000Z</time>
      </trkpt>
      <trkpt lat="44.8192" lon="-0.35302">
        <ele>39.41</ele>
        <time>2016-04-20T14:08:17.924Z</time>
      </trkpt>
      <trkpt lat="44.81914" lon="-0.35293">
        <ele>39.759</ele>
        <time>2016-04-20T14:08:26.000Z</time>
      </trkpt>
      <trkpt lat="44.81906" lon="-0.35286">
        <ele>39.294</ele>
        <time>2016-04-20T14:08:34.000Z</time>
      </trkpt>
      <trkpt lat="44.81897" lon="-0.35292">
        <ele>37.486</ele>
        <time>2016-04-20T14:08:47.000Z</time>
      </trkpt>
      <trkpt lat="44.81891" lon="-0.35301">
        <ele>35.302</ele>
        <time>2016-04-20T14:08:55.000Z</time>
      </trkpt>
      <trkpt lat="44.81886" lon="-0.35314">
        <ele>33.981</ele>
        <time>2016-04-20T14:09:04.000Z</time>
      </trkpt>
      <trkpt lat="44.81881" lon="-0.35325">
        <ele>33.762</ele>
        <time>2016-04-20T14:09:15.000Z</time>
      </trkpt>
      <trkpt lat="44.81875" lon="-0.35334">
        <ele>33.894</ele>
        <time>2016-04-20T14:09:25.000Z</time>
      </trkpt>
      <trkpt lat="44.81866" lon="-0.3534">
        <ele>34.054</ele>
        <time>2016-04-20T14:09:30.000Z</time>
      </trkpt>
      <trkpt lat="44.81857" lon="-0.35341">
        <ele>34.596</ele>
        <time>2016-04-20T14:09:36.000Z</time>
      </trkpt>
      <trkpt lat="44.81849" lon="-0.3533">
        <ele>35.556</ele>
        <time>2016-04-20T14:09:43.000Z</time>
      </trkpt>
      <trkpt lat="44.81847" lon="-0.35317">
        <ele>35.439</ele>
        <time>2016-04-20T14:09:51.000Z</time>
      </trkpt>
      <trkpt lat="44.81844" lon="-0.35304">
        <ele>33.32</ele>
        <time>2016-04-20T14:10:02.000Z</time>
      </trkpt>
      <trkpt lat="44.81839" lon="-0.35293">
        <ele>30.657</ele>
        <time>2016-04-20T14:10:12.000Z</time>
      </trkpt>
      <trkpt lat="44.81836" lon="-0.35281">
        <ele>28.862</ele>
        <time>2016-04-20T14:10:21.000Z</time>
      </trkpt>
      <trkpt lat="44.81836" lon="-0.35281">
        <ele>28.026</ele>
        <time>2016-04-20T14:10:26.000Z</time>
      </trkpt>
      <trkpt lat="44.81836" lon="-0.35281">
        <ele>27.935</ele>
        <time>2016-04-20T14:10:36.578Z</time>
      </trkpt>
      <trkpt lat="44.81836" lon="-0.35281">
        <ele>28.057</ele>
        <time>2016-04-20T14:10:44.000Z</time>
      </trkpt>
      <trkpt lat="44.81836" lon="-0.35281">
        <ele>28.028</ele>
        <time>2016-04-20T14:10:44.100Z</time>
      </trkpt>
      <trkpt lat="44.81832" lon="-0.35268">
        <ele>28.015</ele>
        <time>2016-04-20T14:10:48.000Z</time>
      </trkpt>
      <trkpt lat="44.81832" lon="-0.35268">
        <ele>28.452</ele>
        <time>2016-04-20T14:10:48.001Z</time>
      </trkpt>
      <trkpt lat="44.81832" lon="-0.35268">
        <ele>29.578</ele>
        <time>2016-04-20T14:10:59.773Z</time>
      </trkpt>
      <trkpt lat="44.81832" lon="-0.35268">
        <ele>29.921</ele>
        <time>2016-04-20T14:11:07.000Z</time>
      </trkpt>
      <trkpt lat="44.81832" lon="-0.35268">
        <ele>29.2</ele>
        <time>2016-04-20T14:11:45.740Z</time>
      </trkpt>
      <trkpt lat="44.81819" lon="-0.3527">
        <ele>29.218</ele>
        <time>2016-04-20T14:11:55.000Z</time>
      </trkpt>
      <trkpt lat="44.81814" lon="-0.35258">
        <ele>30.457</ele>
        <time>2016-04-20T14:12:08.000Z</time>
      </trkpt>
      <trkpt lat="44.81816" lon="-0.35244">
        <ele>33.018</ele>
        <time>2016-04-20T14:12:19.000Z</time>
      </trkpt>
      <trkpt lat="44.81819" lon="-0.35231">
        <ele>36.198</ele>
        <time>2016-04-20T14:12:31.000Z</time>
      </trkpt>
      <trkpt lat="44.81824" lon="-0.3522">
        <ele>38.913</ele>
        <time>2016-04-20T14:12:39.000Z</time>
      </trkpt>
      <trkpt lat="44.81825" lon="-0.35207">
        <ele>40.511</ele>
        <time>2016-04-20T14:12:51.000Z</time>
      </trkpt>
      <trkpt lat="44.81825" lon="-0.35207">
        <ele>40.96</ele>
        <time>2016-04-20T14:12:59.000Z</time>
      </trkpt>
      <trkpt lat="44.81825" lon="-0.35207">
        <ele>40.831</ele>
        <time>2016-04-20T14:12:59.100Z</time>
      </trkpt>
      <trkpt lat="44.81829" lon="-0.35191">
        <ele>40.598</ele>
        <time>2016-04-20T14:13:05.000Z</time>
      </trkpt>
      <trkpt lat="44.81832" lon="-0.35178">
        <ele>39.758</ele>
        <time>2016-04-20T14:13:14.000Z</time>
      </trkpt>
      <trkpt lat="44.81832" lon="-0.35165">
        <ele>37.835</ele>
        <time>2016-04-20T14:13:22.000Z</time>
      </trkpt>
      <trkpt lat="44.81833" lon="-0.35151">
        <ele>35.878</ele>
        <time>2016-04-20T14:13:29.000Z</time>
      </trkpt>
      <trkpt lat="44.81832" lon="-0.35139">
        <ele>35.467</ele>
        <time>2016-04-20T14:13:39.000Z</time>
      </trkpt>
      <trkpt lat="44.81827" lon="-0.35127">
        <ele>36.653</ele>
        <time>2016-04-20T14:13:50.000Z</time>
      </trkpt>
      <trkpt lat="44.81821" lon="-0.35117">
        <ele>38.209</ele>
        <time>2016-04-20T14:14:04.000Z</time>
      </trkpt>
      <trkpt lat="44.81815" lon="-0.35107">
        <ele>39.301</ele>
        <time>2016-04-20T14:14:13.000Z</time>
      </trkpt>
      <trkpt lat="44.81808" lon="-0.35098">
        <ele>40.009</ele>
        <time>2016-04-20T14:14:21.000Z</time>
      </trkpt>
      <trkpt lat="44.81801" lon="-0.35089">
        <ele>40.234</ele>
        <time>2016-04-20T14:14:30.000Z</time>
      </trkpt>
      <trkpt lat="44.81798" lon="-0.35075">
        <ele>39.927</ele>
        <time>2016-04-20T14:14:37.999Z</time>
      </trkpt>
      <trkpt lat="44.81791" lon="-0.35067">
        <ele>39.953</ele>
        <time>2016-04-20T14:14:47.999Z</time>
      </trkpt>
      <trkpt lat="44.81782" lon="-0.35062">
        <ele>41.037</ele>
        <time>2016-04-20T14:14:59.999Z</time>
      </trkpt>
      <trkpt lat="44.81773" lon="-0.35059">
        <ele>42.408</ele>
        <time>2016-04-20T14:15:11.999Z</time>
      </trkpt>
      <trkpt lat="44.81773" lon="-0.35059">
        <ele>42.995</ele>
        <time>2016-04-20T14:15:15.999Z</time>
      </trkpt>
      <trkpt lat="44.81773" lon="-0.35059">
        <ele>42.863</ele>
        <time>2016-04-20T14:15:23.553Z</time>
      </trkpt>
      <trkpt lat="44.81762" lon="-0.35059">
        <ele>42.657</ele>
        <time>2016-04-20T14:15:30.999Z</time>
      </trkpt>
      <trkpt lat="44.81752" lon="-0.35062">
        <ele>42.379</ele>
        <time>2016-04-20T14:15:39.999Z</time>
      </trkpt>
      <trkpt lat="44.81743" lon="-0.35066">
        <ele>41.356</ele>
        <time>2016-04-20T14:15:50.999Z</time>
      </trkpt>
      <trkpt lat="44.81734" lon="-0.35069">
        <ele>40.229</ele>
        <time>2016-04-20T14:15:59.999Z</time>
      </trkpt>
      <trkpt lat="44.81725" lon="-0.35074">
        <ele>39.623</ele>
        <time>2016-04-20T14:16:07.999Z</time>
      </trkpt>
      <trkpt lat="44.81716" lon="-0.35075">
        <ele>39.398</ele>
        <time>2016-04-20T14:16:20.999Z</time>
      </trkpt>
      <trkpt lat="44.81707" lon="-0.35077">
        <ele>39.542</ele>
        <time>2016-04-20T14:16:32.999Z</time>
      </trkpt>
      <trkpt lat="44.81707" lon="-0.35077">
        <ele>40.068</ele>
        <time>2016-04-20T14:16:37.999Z</time>
      </trkpt>
      <trkpt lat="44.81707" lon="-0.35077">
        <ele>40.505</ele>
        <time>2016-04-20T14:18:19.495Z</time>
      </trkpt>
      <trkpt lat="44.81695" lon="-0.35082">
        <ele>40.481</ele>
        <time>2016-04-20T14:18:29.999Z</time>
      </trkpt>
      <trkpt lat="44.81687" lon="-0.35088">
        <ele>40.23</ele>
        <time>2016-04-20T14:18:41.999Z</time>
      </trkpt>
      <trkpt lat="44.81678" lon="-0.35092">
        <ele>40.025</ele>
        <time>2016-04-20T14:18:53.999Z</time>
      </trkpt>
      <trkpt lat="44.81678" lon="-0.35092">
        <ele>39.902</ele>
        <time>2016-04-20T14:18:55.999Z</time>
      </trkpt>
      <trkpt lat="44.81678" lon="-0.35092">
        <ele>39.845</ele>
        <time>2016-04-20T14:19:05.711Z</time>
      </trkpt>
      <trkpt lat="44.81668" lon="-0.35096">
        <ele>39.846</ele>
        <time>2016-04-20T14:19:21.999Z</time>
      </trkpt>
      <trkpt lat="44.81659" lon="-0.351">
        <ele>40.061</ele>
        <time>2016-04-20T14:19:30.999Z</time>
      </trkpt>
      <trkpt lat="44.81649" lon="-0.35103">
        <ele>40.626</ele>
        <time>2016-04-20T14:19:42.999Z</time>
      </trkpt>
      <trkpt lat="44.81639" lon="-0.35102">
        <ele>41.239</ele>
        <time>2016-04-20T14:19:52.999Z</time>
      </trkpt>
      <trkpt lat="44.81639" lon="-0.35102">
        <ele>41.531</ele>
        <time>2016-04-20T14:19:58.999Z</time>
      </trkpt>
      <trkpt lat="44.81639" lon="-0.35102">
        <ele>41.518</ele>
        <time>2016-04-20T14:20:14.999Z</time>
      </trkpt>
      <trkpt lat="44.81639" lon="-0.35102">
        <ele>41.42</ele>
        <time>2016-04-20T14:20:15.948Z</time>
      </trkpt>
      <trkpt lat="44.81629" lon="-0.351">
        <ele>41.394</ele>
        <time>2016-04-20T14:20:23.999Z</time>
      </trkpt>
      <trkpt lat="44.81629" lon="-0.351">
        <ele>41.411</ele>
        <time>2016-04-20T14:20:29.999Z</time>
      </trkpt>
      <trkpt lat="44.81629" lon="-0.351">
        <ele>41.398</ele>
        <time>2016-04-20T14:20:46.309Z</time>
      </trkpt>
      <trkpt lat="44.8162" lon="-0.35104">
        <ele>41.356</ele>
        <time>2016-04-20T14:20:54.999Z</time>
      </trkpt>
      <trkpt lat="44.81615" lon="-0.35092">
        <ele>39.755</ele>
        <time>2016-04-20T14:21:01.999Z</time>
      </trkpt>
      <trkpt lat="44.81615" lon="-0.35079">
        <ele>31.423</ele>
        <time>2016-04-20T14:21:15.999Z</time>
      </trkpt>
      <trkpt lat="44.81617" lon="-0.35066">
        <ele>29.95</ele>
        <time>2016-04-20T14:21:21.999Z</time>
      </trkpt>
      <trkpt lat="44.81617" lon="-0.35066">
        <ele>30.35</ele>
        <time>2016-04-20T14:21:31.999Z</time>
      </trkpt>
      <trkpt lat="44.81617" lon="-0.35066">
        <ele>30.324</ele>
        <time>2016-04-20T14:21:40.161Z</time>
      </trkpt>
      <trkpt lat="44.8162" lon="-0.35051">
        <ele>30.099</ele>
        <time>2016-04-20T14:21:47.999Z</time>
      </trkpt>
      <trkpt lat="44.81621" lon="-0.35038">
        <ele>28.706</ele>
        <time>2016-04-20T14:21:54.999Z</time>
      </trkpt>
      <trkpt lat="44.81618" lon="-0.35025">
        <ele>25.442</ele>
        <time>2016-04-20T14:22:05.999Z</time>
      </trkpt>
      <trkpt lat="44.8162" lon="-0.35013">
        <ele>22.724</ele>
        <time>2016-04-20T14:22:13.999Z</time>
      </trkpt>
      <trkpt lat="44.8162" lon="-0.35013">
        <ele>22.666</ele>
        <time>2016-04-20T14:22:18.999Z</time>
      </trkpt>
      <trkpt lat="44.8162" lon="-0.35013">
        <ele>23.629</ele>
        <time>2016-04-20T14:22:22.275Z</time>
      </trkpt>
      <trkpt lat="44.81614" lon="-0.34999">
        <ele>23.191</ele>
        <time>2016-04-20T14:22:30.999Z</time>
      </trkpt>
      <trkpt lat="44.81616" lon="-0.34987">
        <ele>23.593</ele>
        <time>2016-04-20T14:22:36.999Z</time>
      </trkpt>
      <trkpt lat="44.81618" lon="-0.34973">
        <ele>25.945</ele>
        <time>2016-04-20T14:22:43.999Z</time>
      </trkpt>
      <trkpt lat="44.81619" lon="-0.3496">
        <ele>29.24</ele>
        <time>2016-04-20T14:22:52.999Z</time>
      </trkpt>
      <trkpt lat="44.81623" lon="-0.34946">
        <ele>31.883</ele>
        <time>2016-04-20T14:22:59.999Z</time>
      </trkpt>
      <trkpt lat="44.81629" lon="-0.34935">
        <ele>33.671</ele>
        <time>2016-04-20T14:23:08.999Z</time>
      </trkpt>
      <trkpt lat="44.81636" lon="-0.34926">
        <ele>34.951</ele>
        <time>2016-04-20T14:23:17.999Z</time>
      </trkpt>
      <trkpt lat="44.81641" lon="-0.34914">
        <ele>35.896</ele>
        <time>2016-04-20T14:23:22.999Z</time>
      </trkpt>
      <trkpt lat="44.81646" lon="-0.34903">
        <ele>36.621</ele>
        <time>2016-04-20T14:23:27.999Z</time>
      </trkpt>
      <trkpt lat="44.81649" lon="-0.34891">
        <ele>37.266</ele>
        <time>2016-04-20T14:23:35.999Z</time>
      </trkpt>
      <trkpt lat="44.81653" lon="-0.34878">
        <ele>37.967</ele>
        <time>2016-04-20T14:23:45.999Z</time>
      </trkpt>
      <trkpt lat="44.81661" lon="-0.34871">
        <ele>39.149</ele>
        <time>2016-04-20T14:23:52.999Z</time>
      </trkpt>
      <trkpt lat="44.81659" lon="-0.34857">
        <ele>40.781</ele>
        <time>2016-04-20T14:23:58.999Z</time>
      </trkpt>
      <trkpt lat="44.81653" lon="-0.34847">
        <ele>41.667</ele>
        <time>2016-04-20T14:24:17.999Z</time>
      </trkpt>
      <trkpt lat="44.81645" lon="-0.34856">
        <ele>41.094</ele>
        <time>2016-04-20T14:24:28.999Z</time>
      </trkpt>
      <trkpt lat="44.81638" lon="-0.34863">
        <ele>39.948</ele>
        <time>2016-04-20T14:24:37.999Z</time>
      </trkpt>
      <trkpt lat="44.81629" lon="-0.34866">
        <ele>39.171</ele>
        <time>2016-04-20T14:24:45.999Z</time>
      </trkpt>
      <trkpt lat="44.8162" lon="-0.34866">
        <ele>38.87</ele>
        <time>2016-04-20T14:24:54.999Z</time>
      </trkpt>
      <trkpt lat="44.81611" lon="-0.34868">
        <ele>38.597</ele>
        <time>2016-04-20T14:25:04.999Z</time>
      </trkpt>
      <trkpt lat="44.816" lon="-0.34868">
        <ele>37.703</ele>
        <time>2016-04-20T14:25:15.999Z</time>
      </trkpt>
      <trkpt lat="44.81591" lon="-0.34871">
        <ele>36.273</ele>
        <time>2016-04-20T14:25:22.999Z</time>
      </trkpt>
      <trkpt lat="44.81582" lon="-0.3487">
        <ele>35.057</ele>
        <time>2016-04-20T14:25:32.999Z</time>
      </trkpt>
      <trkpt lat="44.81573" lon="-0.34872">
        <ele>34.272</ele>
        <time>2016-04-20T14:25:41.999Z</time>
      </trkpt>
      <trkpt lat="44.81573" lon="-0.34872">
        <ele>33.658</ele>
        <time>2016-04-20T14:25:55.999Z</time>
      </trkpt>
      <trkpt lat="44.81573" lon="-0.34872">
        <ele>33.293</ele>
        <time>2016-04-20T14:25:56.649Z</time>
      </trkpt>
      <trkpt lat="44.81559" lon="-0.34871">
        <ele>33.303</ele>
        <time>2016-04-20T14:26:05.999Z</time>
      </trkpt>
      <trkpt lat="44.81559" lon="-0.34871">
        <ele>33.426</ele>
        <time>2016-04-20T14:26:12.999Z</time>
      </trkpt>
      <trkpt lat="44.81559" lon="-0.34871">
        <ele>33.424</ele>
        <time>2016-04-20T14:26:15.328Z</time>
      </trkpt>
      <trkpt lat="44.81549" lon="-0.34863">
        <ele>33.339</ele>
        <time>2016-04-20T14:26:22.999Z</time>
      </trkpt>
      <trkpt lat="44.81541" lon="-0.34858">
        <ele>33.075</ele>
        <time>2016-04-20T14:26:28.999Z</time>
      </trkpt>
      <trkpt lat="44.81533" lon="-0.3485">
        <ele>32.465</ele>
        <time>2016-04-20T14:26:36.999Z</time>
      </trkpt>
      <trkpt lat="44.81527" lon="-0.3484">
        <ele>31.76</ele>
        <time>2016-04-20T14:26:44.999Z</time>
      </trkpt>
      <trkpt lat="44.81519" lon="-0.34834">
        <ele>31.641</ele>
        <time>2016-04-20T14:26:51.999Z</time>
      </trkpt>
      <trkpt lat="44.81511" lon="-0.34827">
        <ele>32.312</ele>
        <time>2016-04-20T14:26:59.999Z</time>
      </trkpt>
      <trkpt lat="44.81502" lon="-0.34822">
        <ele>33.093</ele>
        <time>2016-04-20T14:27:09.999Z</time>
      </trkpt>
      <trkpt lat="44.81493" lon="-0.34818">
        <ele>33.12</ele>
        <time>2016-04-20T14:27:17.999Z</time>
      </trkpt>
      <trkpt lat="44.81484" lon="-0.34816">
        <ele>32.38</ele>
        <time>2016-04-20T14:27:25.999Z</time>
      </trkpt>
      <trkpt lat="44.81475" lon="-0.34811">
        <ele>31.696</ele>
        <time>2016-04-20T14:27:32.999Z</time>
      </trkpt>
      <trkpt lat="44.81466" lon="-0.34807">
        <ele>31.66</ele>
        <time>2016-04-20T14:27:40.999Z</time>
      </trkpt>
      <trkpt lat="44.81458" lon="-0.348">
        <ele>32.21</ele>
        <time>2016-04-20T14:27:50.999Z</time>
      </trkpt>
      <trkpt lat="44.81449" lon="-0.34795">
        <ele>33.062</ele>
        <time>2016-04-20T14:27:59.999Z</time>
      </trkpt>
      <trkpt lat="44.81441" lon="-0.3479">
        <ele>34.057</ele>
        <time>2016-04-20T14:28:06.999Z</time>
      </trkpt>
      <trkpt lat="44.81433" lon="-0.34782">
        <ele>35.093</ele>
        <time>2016-04-20T14:28:12.999Z</time>
      </trkpt>
      <trkpt lat="44.81424" lon="-0.34775">
        <ele>35.868</ele>
        <time>2016-04-20T14:28:18.999Z</time>
      </trkpt>
      <trkpt lat="44.81415" lon="-0.34769">
        <ele>36.145</ele>
        <time>2016-04-20T14:28:28.999Z</time>
      </trkpt>
      <trkpt lat="44.81409" lon="-0.3476">
        <ele>36.288</ele>
        <time>2016-04-20T14:28:38.999Z</time>
      </trkpt>
      <trkpt lat="44.81399" lon="-0.34754">
        <ele>36.633</ele>
        <time>2016-04-20T14:28:48.999Z</time>
      </trkpt>
      <trkpt lat="44.8139" lon="-0.3475">
        <ele>37.051</ele>
        <time>2016-04-20T14:28:56.999Z</time>
      </trkpt>
      <trkpt lat="44.8138" lon="-0.3475">
        <ele>37.334</ele>
        <time>2016-04-20T14:29:01.999Z</time>
      </trkpt>
      <trkpt lat="44.81371" lon="-0.34746">
        <ele>37.564</ele>
        <time>2016-04-20T14:29:07.999Z</time>
      </trkpt>
      <trkpt lat="44.81363" lon="-0.3474">
        <ele>37.801</ele>
        <time>2016-04-20T14:29:13.999Z</time>
      </trkpt>
      <trkpt lat="44.81353" lon="-0.34738">
        <ele>37.969</ele>
        <time>2016-04-20T14:29:22.999Z</time>
      </trkpt>
      <trkpt lat="44.81344" lon="-0.34737">
        <ele>37.916</ele>
        <time>2016-04-20T14:29:28.999Z</time>
      </trkpt>
      <trkpt lat="44.81334" lon="-0.34739">
        <ele>37.467</ele>
        <time>2016-04-20T14:29:34.999Z</time>
      </trkpt>
      <trkpt lat="44.81324" lon="-0.34739">
        <ele>36.715</ele>
        <time>2016-04-20T14:29:43.999Z</time>
      </trkpt>
      <trkpt lat="44.81316" lon="-0.34735">
        <ele>36.061</ele>
        <time>2016-04-20T14:29:53.999Z</time>
      </trkpt>
      <trkpt lat="44.81306" lon="-0.34736">
        <ele>35.781</ele>
        <time>2016-04-20T14:30:01.999Z</time>
      </trkpt>
      <trkpt lat="44.81297" lon="-0.34736">
        <ele>35.991</ele>
        <time>2016-04-20T14:30:06.999Z</time>
      </trkpt>
      <trkpt lat="44.81287" lon="-0.34737">
        <ele>36.679</ele>
        <time>2016-04-20T14:30:13.999Z</time>
      </trkpt>
      <trkpt lat="44.81277" lon="-0.34736">
        <ele>37.483</ele>
        <time>2016-04-20T14:30:21.999Z</time>
      </trkpt>
      <trkpt lat="44.81268" lon="-0.3473">
        <ele>37.912</ele>
        <time>2016-04-20T14:30:29.999Z</time>
      </trkpt>
      <trkpt lat="44.81264" lon="-0.34718">
        <ele>37.561</ele>
        <time>2016-04-20T14:30:37.999Z</time>
      </trkpt>
      <trkpt lat="44.81256" lon="-0.3471">
        <ele>36.367</ele>
        <time>2016-04-20T14:30:46.999Z</time>
      </trkpt>
      <trkpt lat="44.81248" lon="-0.34702">
        <ele>34.966</ele>
        <time>2016-04-20T14:30:54.999Z</time>
      </trkpt>
      <trkpt lat="44.81241" lon="-0.34692">
        <ele>34.674</ele>
        <time>2016-04-20T14:31:02.999Z</time>
      </trkpt>
      <trkpt lat="44.81236" lon="-0.34681">
        <ele>35.926</ele>
        <time>2016-04-20T14:31:13.999Z</time>
      </trkpt>
      <trkpt lat="44.81231" lon="-0.34671">
        <ele>37.386</ele>
        <time>2016-04-20T14:31:22.999Z</time>
      </trkpt>
      <trkpt lat="44.81223" lon="-0.34661">
        <ele>37.724</ele>
        <time>2016-04-20T14:31:33.999Z</time>
      </trkpt>
      <trkpt lat="44.81215" lon="-0.34655">
        <ele>37.075</ele>
        <time>2016-04-20T14:31:41.999Z</time>
      </trkpt>
      <trkpt lat="44.81208" lon="-0.34647">
        <ele>36.178</ele>
        <time>2016-04-20T14:31:50.999Z</time>
      </trkpt>
      <trkpt lat="44.812" lon="-0.34639">
        <ele>35.501</ele>
        <time>2016-04-20T14:31:57.999Z</time>
      </trkpt>
      <trkpt lat="44.81191" lon="-0.34634">
        <ele>35.1</ele>
        <time>2016-04-20T14:32:04.999Z</time>
      </trkpt>
      <trkpt lat="44.81182" lon="-0.34626">
        <ele>35.018</ele>
        <time>2016-04-20T14:32:11.999Z</time>
      </trkpt>
      <trkpt lat="44.81173" lon="-0.34624">
        <ele>35.458</ele>
        <time>2016-04-20T14:32:18.999Z</time>
      </trkpt>
      <trkpt lat="44.81163" lon="-0.34621">
        <ele>36.436</ele>
        <time>2016-04-20T14:32:28.999Z</time>
      </trkpt>
      <trkpt lat="44.81154" lon="-0.34615">
        <ele>37.585</ele>
        <time>2016-04-20T14:32:38.999Z</time>
      </trkpt>
      <trkpt lat="44.81146" lon="-0.3461">
        <ele>38.614</ele>
        <time>2016-04-20T14:32:46.999Z</time>
      </trkpt>
      <trkpt lat="44.81137" lon="-0.34604">
        <ele>39.457</ele>
        <time>2016-04-20T14:32:54.999Z</time>
      </trkpt>
      <trkpt lat="44.81129" lon="-0.34599">
        <ele>39.983</ele>
        <time>2016-04-20T14:33:01.999Z</time>
      </trkpt>
      <trkpt lat="44.81121" lon="-0.34592">
        <ele>40.254</ele>
        <time>2016-04-20T14:33:10.999Z</time>
      </trkpt>
      <trkpt lat="44.81112" lon="-0.34592">
        <ele>40.728</ele>
        <time>2016-04-20T14:33:17.999Z</time>
      </trkpt>
      <trkpt lat="44.81104" lon="-0.34584">
        <ele>42.259</ele>
        <time>2016-04-20T14:33:25.999Z</time>
      </trkpt>
      <trkpt lat="44.81095" lon="-0.34581">
        <ele>42.533</ele>
        <time>2016-04-20T14:33:35.999Z</time>
      </trkpt>
      <trkpt lat="44.81086" lon="-0.34575">
        <ele>42.351</ele>
        <time>2016-04-20T14:33:43.999Z</time>
      </trkpt>
      <trkpt lat="44.81078" lon="-0.34572">
        <ele>42.544</ele>
        <time>2016-04-20T14:33:49.999Z</time>
      </trkpt>
      <trkpt lat="44.81068" lon="-0.34577">
        <ele>42.999</ele>
        <time>2016-04-20T14:33:57.999Z</time>
      </trkpt>
      <trkpt lat="44.81059" lon="-0.34577">
        <ele>43.452</ele>
        <time>2016-04-20T14:34:05.999Z</time>
      </trkpt>
      <trkpt lat="44.8105" lon="-0.34574">
        <ele>43.409</ele>
        <time>2016-04-20T14:34:14.999Z</time>
      </trkpt>
      <trkpt lat="44.81041" lon="-0.34574">
        <ele>42.742</ele>
        <time>2016-04-20T14:34:23.999Z</time>
      </trkpt>
      <trkpt lat="44.81031" lon="-0.34575">
        <ele>41.901</ele>
        <time>2016-04-20T14:34:35.999Z</time>
      </trkpt>
      <trkpt lat="44.81022" lon="-0.34575">
        <ele>40.954</ele>
        <time>2016-04-20T14:34:42.999Z</time>
      </trkpt>
      <trkpt lat="44.81013" lon="-0.34572">
        <ele>39.679</ele>
        <time>2016-04-20T14:34:54.999Z</time>
      </trkpt>
      <trkpt lat="44.81004" lon="-0.34567">
        <ele>38.462</ele>
        <time>2016-04-20T14:35:05.999Z</time>
      </trkpt>
      <trkpt lat="44.80996" lon="-0.34561">
        <ele>37.635</ele>
        <time>2016-04-20T14:35:16.999Z</time>
      </trkpt>
      <trkpt lat="44.8099" lon="-0.34551">
        <ele>36.916</ele>
        <time>2016-04-20T14:35:28.999Z</time>
      </trkpt>
      <trkpt lat="44.80981" lon="-0.34544">
        <ele>36.018</ele>
        <time>2016-04-20T14:35:39.999Z</time>
      </trkpt>
      <trkpt lat="44.80972" lon="-0.34543">
        <ele>35.112</ele>
        <time>2016-04-20T14:35:51.999Z</time>
      </trkpt>
      <trkpt lat="44.80972" lon="-0.34543">
        <ele>34.59</ele>
        <time>2016-04-20T14:35:56.999Z</time>
      </trkpt>
      <trkpt lat="44.80972" lon="-0.34543">
        <ele>34.484</ele>
        <time>2016-04-20T14:36:05.254Z</time>
      </trkpt>
      <trkpt lat="44.80962" lon="-0.34537">
        <ele>34.575</ele>
        <time>2016-04-20T14:36:14.999Z</time>
      </trkpt>
      <trkpt lat="44.80955" lon="-0.34528">
        <ele>34.641</ele>
        <time>2016-04-20T14:36:29.999Z</time>
      </trkpt>
      <trkpt lat="44.80955" lon="-0.34528">
        <ele>34.804</ele>
        <time>2016-04-20T14:36:35.999Z</time>
      </trkpt>
      <trkpt lat="44.80955" lon="-0.34528">
        <ele>34.938</ele>
        <time>2016-04-20T14:36:53.334Z</time>
      </trkpt>
      <trkpt lat="44.80946" lon="-0.34527">
        <ele>34.833</ele>
        <time>2016-04-20T14:37:04.000Z</time>
      </trkpt>
      <trkpt lat="44.80946" lon="-0.34527">
        <ele>34.775</ele>
        <time>2016-04-20T14:37:09.000Z</time>
      </trkpt>
      <trkpt lat="44.80946" lon="-0.34527">
        <ele>34.764</ele>
        <time>2016-04-20T14:37:12.007Z</time>
      </trkpt>
      <trkpt lat="44.80937" lon="-0.34521">
        <ele>34.76</ele>
        <time>2016-04-20T14:37:23.000Z</time>
      </trkpt>
      <trkpt lat="44.80928" lon="-0.34524">
        <ele>35.024</ele>
        <time>2016-04-20T14:37:36.000Z</time>
      </trkpt>
      <trkpt lat="44.80928" lon="-0.34524">
        <ele>35.744</ele>
        <time>2016-04-20T14:37:43.000Z</time>
      </trkpt>
      <trkpt lat="44.80928" lon="-0.34524">
        <ele>36.344</ele>
        <time>2016-04-20T14:37:53.804Z</time>
      </trkpt>
      <trkpt lat="44.80918" lon="-0.34519">
        <ele>35.984</ele>
        <time>2016-04-20T14:38:04.000Z</time>
      </trkpt>
      <trkpt lat="44.80909" lon="-0.34516">
        <ele>35.942</ele>
        <time>2016-04-20T14:38:17.000Z</time>
      </trkpt>
      <trkpt lat="44.809" lon="-0.34515">
        <ele>36.384</ele>
        <time>2016-04-20T14:38:27.000Z</time>
      </trkpt>
      <trkpt lat="44.80891" lon="-0.34513">
        <ele>36.931</ele>
        <time>2016-04-20T14:38:35.000Z</time>
      </trkpt>
      <trkpt lat="44.80883" lon="-0.34507">
        <ele>37.219</ele>
        <time>2016-04-20T14:38:43.000Z</time>
      </trkpt>
      <trkpt lat="44.80874" lon="-0.34506">
        <ele>37.305</ele>
        <time>2016-04-20T14:38:51.000Z</time>
      </trkpt>
      <trkpt lat="44.80864" lon="-0.34505">
        <ele>37.381</ele>
        <time>2016-04-20T14:39:01.000Z</time>
      </trkpt>
      <trkpt lat="44.80855" lon="-0.34508">
        <ele>37.581</ele>
        <time>2016-04-20T14:39:09.000Z</time>
      </trkpt>
      <trkpt lat="44.80845" lon="-0.3451">
        <ele>37.892</ele>
        <time>2016-04-20T14:39:16.000Z</time>
      </trkpt>
      <trkpt lat="44.80836" lon="-0.34509">
        <ele>38.346</ele>
        <time>2016-04-20T14:39:22.000Z</time>
      </trkpt>
      <trkpt lat="44.80826" lon="-0.34507">
        <ele>38.865</ele>
        <time>2016-04-20T14:39:36.000Z</time>
      </trkpt>
      <trkpt lat="44.80816" lon="-0.3451">
        <ele>39.238</ele>
        <time>2016-04-20T14:39:43.000Z</time>
      </trkpt>
      <trkpt lat="44.80806" lon="-0.34512">
        <ele>39.555</ele>
        <time>2016-04-20T14:39:51.000Z</time>
      </trkpt>
      <trkpt lat="44.80797" lon="-0.34506">
        <ele>39.967</ele>
        <time>2016-04-20T14:40:00.000Z</time>
      </trkpt>
      <trkpt lat="44.8079" lon="-0.34498">
        <ele>40.273</ele>
        <time>2016-04-20T14:40:08.000Z</time>
      </trkpt>
      <trkpt lat="44.80781" lon="-0.34496">
        <ele>40.326</ele>
        <time>2016-04-20T14:40:15.000Z</time>
      </trkpt>
      <trkpt lat="44.80772" lon="-0.3449">
        <ele>39.969</ele>
        <time>2016-04-20T14:40:24.000Z</time>
      </trkpt>
      <trkpt lat="44.80765" lon="-0.34482">
        <ele>39.198</ele>
        <time>2016-04-20T14:40:36.000Z</time>
      </trkpt>
      <trkpt lat="44.80758" lon="-0.34473">
        <ele>38.495</ele>
        <time>2016-04-20T14:40:44.000Z</time>
      </trkpt>
      <trkpt lat="44.80752" lon="-0.34461">
        <ele>38.239</ele>
        <time>2016-04-20T14:40:52.000Z</time>
      </trkpt>
      <trkpt lat="44.80745" lon="-0.34452">
        <ele>37.936</ele>
        <time>2016-04-20T14:41:01.000Z</time>
      </trkpt>
      <trkpt lat="44.80738" lon="-0.34443">
        <ele>37.13</ele>
        <time>2016-04-20T14:41:10.000Z</time>
      </trkpt>
      <trkpt lat="44.80728" lon="-0.34442">
        <ele>35.515</ele>
        <time>2016-04-20T14:41:17.000Z</time>
      </trkpt>
      <trkpt lat="44.80722" lon="-0.34432">
        <ele>33.18</ele>
        <time>2016-04-20T14:41:25.000Z</time>
      </trkpt>
      <trkpt lat="44.80714" lon="-0.34426">
        <ele>31.208</ele>
        <time>2016-04-20T14:41:34.000Z</time>
      </trkpt>
      <trkpt lat="44.80705" lon="-0.34419">
        <ele>30.662</ele>
        <time>2016-04-20T14:41:43.000Z</time>
      </trkpt>
      <trkpt lat="44.80697" lon="-0.34413">
        <ele>31.218</ele>
        <time>2016-04-20T14:41:50.000Z</time>
      </trkpt>
      <trkpt lat="44.80688" lon="-0.34408">
        <ele>32.147</ele>
        <time>2016-04-20T14:41:58.000Z</time>
      </trkpt>
      <trkpt lat="44.8068" lon="-0.34403">
        <ele>33.166</ele>
        <time>2016-04-20T14:42:07.000Z</time>
      </trkpt>
      <trkpt lat="44.80671" lon="-0.34397">
        <ele>34.238</ele>
        <time>2016-04-20T14:42:15.000Z</time>
      </trkpt>
      <trkpt lat="44.80663" lon="-0.34389">
        <ele>35.193</ele>
        <time>2016-04-20T14:42:25.000Z</time>
      </trkpt>
      <trkpt lat="44.80657" lon="-0.34379">
        <ele>35.906</ele>
        <time>2016-04-20T14:42:35.000Z</time>
      </trkpt>
      <trkpt lat="44.8065" lon="-0.34372">
        <ele>36.258</ele>
        <time>2016-04-20T14:42:43.000Z</time>
      </trkpt>
      <trkpt lat="44.80646" lon="-0.34361">
        <ele>36.255</ele>
        <time>2016-04-20T14:42:53.000Z</time>
      </trkpt>
      <trkpt lat="44.80638" lon="-0.34354">
        <ele>36.33</ele>
        <time>2016-04-20T14:43:04.000Z</time>
      </trkpt>
      <trkpt lat="44.8063" lon="-0.34347">
        <ele>36.778</ele>
        <time>2016-04-20T14:43:14.000Z</time>
      </trkpt>
      <trkpt lat="44.8063" lon="-0.34347">
        <ele>37.196</ele>
        <time>2016-04-20T14:43:23.000Z</time>
      </trkpt>
      <trkpt lat="44.8063" lon="-0.34347">
        <ele>37.18</ele>
        <time>2016-04-20T14:43:36.000Z</time>
      </trkpt>
      <trkpt lat="44.8063" lon="-0.34347">
        <ele>36.994</ele>
        <time>2016-04-20T14:43:36.100Z</time>
      </trkpt>
      <trkpt lat="44.80624" lon="-0.34332">
        <ele>36.964</ele>
        <time>2016-04-20T14:43:45.000Z</time>
      </trkpt>
      <trkpt lat="44.80624" lon="-0.34332">
        <ele>37.052</ele>
        <time>2016-04-20T14:43:46.000Z</time>
      </trkpt>
      <trkpt lat="44.80624" lon="-0.34332">
        <ele>37.107</ele>
        <time>2016-04-20T14:44:06.003Z</time>
      </trkpt>
      <trkpt lat="44.80616" lon="-0.34325">
        <ele>37.041</ele>
        <time>2016-04-20T14:44:14.999Z</time>
      </trkpt>
      <trkpt lat="44.80616" lon="-0.34325">
        <ele>37.011</ele>
        <time>2016-04-20T14:44:26.999Z</time>
      </trkpt>
      <trkpt lat="44.80616" lon="-0.34325">
        <ele>37</ele>
        <time>2016-04-20T14:45:34.811Z</time>
      </trkpt>
      <trkpt lat="44.80612" lon="-0.3431">
        <ele>36.997</ele>
        <time>2016-04-20T14:45:41.999Z</time>
      </trkpt>
      <trkpt lat="44.80612" lon="-0.3431">
        <ele>36.993</ele>
        <time>2016-04-20T14:45:50.999Z</time>
      </trkpt>
      <trkpt lat="44.80612" lon="-0.3431">
        <ele>36.981</ele>
        <time>2016-04-20T14:46:11.999Z</time>
      </trkpt>
      <trkpt lat="44.80612" lon="-0.3431">
        <ele>36.965</ele>
        <time>2016-04-20T14:46:18.372Z</time>
      </trkpt>
      <trkpt lat="44.80606" lon="-0.343">
        <ele>36.953</ele>
        <time>2016-04-20T14:46:26.999Z</time>
      </trkpt>
      <trkpt lat="44.80606" lon="-0.343">
        <ele>36.947</ele>
        <time>2016-04-20T14:46:32.999Z</time>
      </trkpt>
      <trkpt lat="44.80606" lon="-0.343">
        <ele>36.938</ele>
        <time>2016-04-20T14:46:47.999Z</time>
      </trkpt>
      <trkpt lat="44.80606" lon="-0.343">
        <ele>36.924</ele>
        <time>2016-04-20T14:48:46.999Z</time>
      </trkpt>
      <trkpt lat="44.80606" lon="-0.343">
        <ele>36.909</ele>
        <time>2016-04-20T14:49:15.844Z</time>
      </trkpt>
      <trkpt lat="44.80611" lon="-0.34312">
        <ele>36.887</ele>
        <time>2016-04-20T14:49:24.999Z</time>
      </trkpt>
      <trkpt lat="44.80616" lon="-0.34323">
        <ele>38.153</ele>
        <time>2016-04-20T14:49:40.000Z</time>
      </trkpt>
      <trkpt lat="44.80616" lon="-0.34323">
        <ele>40.367</ele>
        <time>2016-04-20T14:49:42.999Z</time>
      </trkpt>
      <trkpt lat="44.80616" lon="-0.34323">
        <ele>41.205</ele>
        <time>2016-04-20T14:49:57.999Z</time>
      </trkpt>
      <trkpt lat="44.80616" lon="-0.34323">
        <ele>40.666</ele>
        <time>2016-04-20T14:51:15.212Z</time>
      </trkpt>
      <trkpt lat="44.80607" lon="-0.34336">
        <ele>40.445</ele>
        <time>2016-04-20T14:51:26.999Z</time>
      </trkpt>
      <trkpt lat="44.80602" lon="-0.34348">
        <ele>40.646</ele>
        <time>2016-04-20T14:51:53.000Z</time>
      </trkpt>
      <trkpt lat="44.80596" lon="-0.34358">
        <ele>39.77</ele>
        <time>2016-04-20T14:52:05.000Z</time>
      </trkpt>
      <trkpt lat="44.80596" lon="-0.34358">
        <ele>36.821</ele>
        <time>2016-04-20T14:52:08.000Z</time>
      </trkpt>
      <trkpt lat="44.80596" lon="-0.34358">
        <ele>34.247</ele>
        <time>2016-04-20T14:52:16.741Z</time>
      </trkpt>
      <trkpt lat="44.80594" lon="-0.34374">
        <ele>34.263</ele>
        <time>2016-04-20T14:52:24.000Z</time>
      </trkpt>
      <trkpt lat="44.80588" lon="-0.34385">
        <ele>34.965</ele>
        <time>2016-04-20T14:52:36.000Z</time>
      </trkpt>
      <trkpt lat="44.80582" lon="-0.34397">
        <ele>33.952</ele>
        <time>2016-04-20T14:52:43.000Z</time>
      </trkpt>
      <trkpt lat="44.80576" lon="-0.34408">
        <ele>31.707</ele>
        <time>2016-04-20T14:52:50.000Z</time>
      </trkpt>
      <trkpt lat="44.80571" lon="-0.34419">
        <ele>30.261</ele>
        <time>2016-04-20T14:52:59.000Z</time>
      </trkpt>
      <trkpt lat="44.80563" lon="-0.34427">
        <ele>30.365</ele>
        <time>2016-04-20T14:53:07.000Z</time>
      </trkpt>
      <trkpt lat="44.80556" lon="-0.34437">
        <ele>30.993</ele>
        <time>2016-04-20T14:53:15.000Z</time>
      </trkpt>
      <trkpt lat="44.80551" lon="-0.34447">
        <ele>31.134</ele>
        <time>2016-04-20T14:53:22.000Z</time>
      </trkpt>
      <trkpt lat="44.80546" lon="-0.34459">
        <ele>31.343</ele>
        <time>2016-04-20T14:53:28.000Z</time>
      </trkpt>
      <trkpt lat="44.80539" lon="-0.3447">
        <ele>32.323</ele>
        <time>2016-04-20T14:53:34.000Z</time>
      </trkpt>
      <trkpt lat="44.80539" lon="-0.3447">
        <ele>33.479</ele>
        <time>2016-04-20T14:53:41.000Z</time>
      </trkpt>
      <trkpt lat="44.80539" lon="-0.3447">
        <ele>33.981</ele>
        <time>2016-04-20T14:54:18.459Z</time>
      </trkpt>
      <trkpt lat="44.80532" lon="-0.34479">
        <ele>33.889</ele>
        <time>2016-04-20T14:54:24.000Z</time>
      </trkpt>
      <trkpt lat="44.80525" lon="-0.3449">
        <ele>33.841</ele>
        <time>2016-04-20T14:54:30.000Z</time>
      </trkpt>
      <trkpt lat="44.80521" lon="-0.34502">
        <ele>34.231</ele>
        <time>2016-04-20T14:54:37.000Z</time>
      </trkpt>
      <trkpt lat="44.80516" lon="-0.34513">
        <ele>34.824</ele>
        <time>2016-04-20T14:54:43.000Z</time>
      </trkpt>
      <trkpt lat="44.80507" lon="-0.34519">
        <ele>35.275</ele>
        <time>2016-04-20T14:54:51.000Z</time>
      </trkpt>
      <trkpt lat="44.805" lon="-0.34528">
        <ele>35.223</ele>
        <time>2016-04-20T14:55:00.000Z</time>
      </trkpt>
      <trkpt lat="44.80492" lon="-0.34536">
        <ele>35.075</ele>
        <time>2016-04-20T14:55:05.000Z</time>
      </trkpt>
      <trkpt lat="44.80484" lon="-0.34545">
        <ele>35.132</ele>
        <time>2016-04-20T14:55:12.000Z</time>
      </trkpt>
      <trkpt lat="44.80475" lon="-0.3455">
        <ele>35.218</ele>
        <time>2016-04-20T14:55:20.000Z</time>
      </trkpt>
      <trkpt lat="44.80467" lon="-0.34558">
        <ele>35.312</ele>
        <time>2016-04-20T14:55:27.000Z</time>
      </trkpt>
      <trkpt lat="44.8046" lon="-0.34565">
        <ele>35.409</ele>
        <time>2016-04-20T14:55:33.000Z</time>
      </trkpt>
      <trkpt lat="44.80451" lon="-0.34572">
        <ele>35.433</ele>
        <time>2016-04-20T14:55:38.000Z</time>
      </trkpt>
      <trkpt lat="44.80443" lon="-0.34576">
        <ele>35.085</ele>
        <time>2016-04-20T14:55:47.000Z</time>
      </trkpt>
      <trkpt lat="44.8044" lon="-0.34589">
        <ele>34.307</ele>
        <time>2016-04-20T14:55:54.000Z</time>
      </trkpt>
      <trkpt lat="44.80441" lon="-0.34603">
        <ele>33.454</ele>
        <time>2016-04-20T14:56:00.000Z</time>
      </trkpt>
      <trkpt lat="44.80444" lon="-0.34614">
        <ele>32.82</ele>
        <time>2016-04-20T14:56:06.000Z</time>
      </trkpt>
      <trkpt lat="44.8045" lon="-0.34627">
        <ele>32.474</ele>
        <time>2016-04-20T14:56:13.000Z</time>
      </trkpt>
      <trkpt lat="44.80454" lon="-0.3464">
        <ele>32.415</ele>
        <time>2016-04-20T14:56:19.000Z</time>
      </trkpt>
      <trkpt lat="44.80458" lon="-0.34653">
        <ele>32.64</ele>
        <time>2016-04-20T14:56:26.000Z</time>
      </trkpt>
      <trkpt lat="44.80462" lon="-0.34664">
        <ele>33.327</ele>
        <time>2016-04-20T14:56:32.000Z</time>
      </trkpt>
      <trkpt lat="44.80465" lon="-0.34677">
        <ele>34.338</ele>
        <time>2016-04-20T14:56:39.000Z</time>
      </trkpt>
      <trkpt lat="44.80468" lon="-0.34689">
        <ele>35.137</ele>
        <time>2016-04-20T14:56:46.000Z</time>
      </trkpt>
      <trkpt lat="44.80473" lon="-0.347">
        <ele>35.462</ele>
        <time>2016-04-20T14:56:52.000Z</time>
      </trkpt>
      <trkpt lat="44.80479" lon="-0.34712">
        <ele>35.494</ele>
        <time>2016-04-20T14:56:59.000Z</time>
      </trkpt>
      <trkpt lat="44.80485" lon="-0.34723">
        <ele>35.577</ele>
        <time>2016-04-20T14:57:06.000Z</time>
      </trkpt>
      <trkpt lat="44.80489" lon="-0.34735">
        <ele>35.988</ele>
        <time>2016-04-20T14:57:15.000Z</time>
      </trkpt>
      <trkpt lat="44.80493" lon="-0.34747">
        <ele>36.584</ele>
        <time>2016-04-20T14:57:22.000Z</time>
      </trkpt>
      <trkpt lat="44.80491" lon="-0.34761">
        <ele>36.989</ele>
        <time>2016-04-20T14:57:31.000Z</time>
      </trkpt>
      <trkpt lat="44.80485" lon="-0.34771">
        <ele>37.106</ele>
        <time>2016-04-20T14:57:42.000Z</time>
      </trkpt>
      <trkpt lat="44.80481" lon="-0.34783">
        <ele>37.003</ele>
        <time>2016-04-20T14:57:51.000Z</time>
      </trkpt>
      <trkpt lat="44.80475" lon="-0.34794">
        <ele>36.841</ele>
        <time>2016-04-20T14:58:00.000Z</time>
      </trkpt>
      <trkpt lat="44.80466" lon="-0.348">
        <ele>36.948</ele>
        <time>2016-04-20T14:58:09.000Z</time>
      </trkpt>
      <trkpt lat="44.80457" lon="-0.34805">
        <ele>37.369</ele>
        <time>2016-04-20T14:58:15.000Z</time>
      </trkpt>
      <trkpt lat="44.80448" lon="-0.34809">
        <ele>37.765</ele>
        <time>2016-04-20T14:58:27.000Z</time>
      </trkpt>
      <trkpt lat="44.80442" lon="-0.34818">
        <ele>37.94</ele>
        <time>2016-04-20T14:58:39.999Z</time>
      </trkpt>
      <trkpt lat="44.80438" lon="-0.3483">
        <ele>37.958</ele>
        <time>2016-04-20T14:58:48.999Z</time>
      </trkpt>
      <trkpt lat="44.80435" lon="-0.34843">
        <ele>38.001</ele>
        <time>2016-04-20T14:58:56.999Z</time>
      </trkpt>
      <trkpt lat="44.80434" lon="-0.34856">
        <ele>38.306</ele>
        <time>2016-04-20T14:59:04.999Z</time>
      </trkpt>
      <trkpt lat="44.80434" lon="-0.3487">
        <ele>38.95</ele>
        <time>2016-04-20T14:59:17.999Z</time>
      </trkpt>
      <trkpt lat="44.80431" lon="-0.34882">
        <ele>39.706</ele>
        <time>2016-04-20T14:59:25.999Z</time>
      </trkpt>
      <trkpt lat="44.80428" lon="-0.34894">
        <ele>40.253</ele>
        <time>2016-04-20T14:59:36.999Z</time>
      </trkpt>
      <trkpt lat="44.80424" lon="-0.34906">
        <ele>40.479</ele>
        <time>2016-04-20T14:59:45.999Z</time>
      </trkpt>
      <trkpt lat="44.8042" lon="-0.34919">
        <ele>40.789</ele>
        <time>2016-04-20T14:59:52.999Z</time>
      </trkpt>
      <trkpt lat="44.80419" lon="-0.34932">
        <ele>41.537</ele>
        <time>2016-04-20T14:59:59.999Z</time>
      </trkpt>
      <trkpt lat="44.80419" lon="-0.34932">
        <ele>42.366</ele>
        <time>2016-04-20T15:00:00.999Z</time>
      </trkpt>
      <trkpt lat="44.80419" lon="-0.34932">
        <ele>42.748</ele>
        <time>2016-04-20T15:00:03.617Z</time>
      </trkpt>
      <trkpt lat="44.80417" lon="-0.34948">
        <ele>42.473</ele>
        <time>2016-04-20T15:00:13.999Z</time>
      </trkpt>
      <trkpt lat="44.80409" lon="-0.34956">
        <ele>43.027</ele>
        <time>2016-04-20T15:00:27.999Z</time>
      </trkpt>
      <trkpt lat="44.80402" lon="-0.34965">
        <ele>44.796</ele>
        <time>2016-04-20T15:00:43.999Z</time>
      </trkpt>
      <trkpt lat="44.80396" lon="-0.34975">
        <ele>46.667</ele>
        <time>2016-04-20T15:00:52.999Z</time>
      </trkpt>
      <trkpt lat="44.80393" lon="-0.34988">
        <ele>47.747</ele>
        <time>2016-04-20T15:01:04.999Z</time>
      </trkpt>
      <trkpt lat="44.80388" lon="-0.34999">
        <ele>48.52</ele>
        <time>2016-04-20T15:01:13.999Z</time>
      </trkpt>
      <trkpt lat="44.80383" lon="-0.3501">
        <ele>49.413</ele>
        <time>2016-04-20T15:01:26.999Z</time>
      </trkpt>
      <trkpt lat="44.80383" lon="-0.3501">
        <ele>50.279</ele>
        <time>2016-04-20T15:01:36.999Z</time>
      </trkpt>
      <trkpt lat="44.80383" lon="-0.3501">
        <ele>50.729</ele>
        <time>2016-04-20T15:01:48.933Z</time>
      </trkpt>
      <trkpt lat="44.80378" lon="-0.35024">
        <ele>50.669</ele>
        <time>2016-04-20T15:01:56.999Z</time>
      </trkpt>
      <trkpt lat="44.80371" lon="-0.35033">
        <ele>50.794</ele>
        <time>2016-04-20T15:02:21.000Z</time>
      </trkpt>
      <trkpt lat="44.80371" lon="-0.35033">
        <ele>51.612</ele>
        <time>2016-04-20T15:02:21.999Z</time>
      </trkpt>
      <trkpt lat="44.80371" lon="-0.35033">
        <ele>52.375</ele>
        <time>2016-04-20T15:02:31.396Z</time>
      </trkpt>
      <trkpt lat="44.80365" lon="-0.35044">
        <ele>51.919</ele>
        <time>2016-04-20T15:02:40.999Z</time>
      </trkpt>
      <trkpt lat="44.80361" lon="-0.35055">
        <ele>51.592</ele>
        <time>2016-04-20T15:02:50.999Z</time>
      </trkpt>
      <trkpt lat="44.80357" lon="-0.35067">
        <ele>51.437</ele>
        <time>2016-04-20T15:03:03.999Z</time>
      </trkpt>
      <trkpt lat="44.80354" lon="-0.3508">
        <ele>51.376</ele>
        <time>2016-04-20T15:03:16.999Z</time>
      </trkpt>
      <trkpt lat="44.80354" lon="-0.3508">
        <ele>51.35</ele>
        <time>2016-04-20T15:03:25.999Z</time>
      </trkpt>
      <trkpt lat="44.80354" lon="-0.3508">
        <ele>51.33</ele>
        <time>2016-04-20T15:03:30.966Z</time>
      </trkpt>
      <trkpt lat="44.80349" lon="-0.35092">
        <ele>51.307</ele>
        <time>2016-04-20T15:03:37.999Z</time>
      </trkpt>
      <trkpt lat="44.80344" lon="-0.35103">
        <ele>51.262</ele>
        <time>2016-04-20T15:03:48.999Z</time>
      </trkpt>
      <trkpt lat="44.80338" lon="-0.35112">
        <ele>51.054</ele>
        <time>2016-04-20T15:03:56.999Z</time>
      </trkpt>
      <trkpt lat="44.80333" lon="-0.35124">
        <ele>50.551</ele>
        <time>2016-04-20T15:04:06.000Z</time>
      </trkpt>
      <trkpt lat="44.80326" lon="-0.35133">
        <ele>49.671</ele>
        <time>2016-04-20T15:04:16.999Z</time>
      </trkpt>
      <trkpt lat="44.80322" lon="-0.35145">
        <ele>48.581</ele>
        <time>2016-04-20T15:04:24.999Z</time>
      </trkpt>
      <trkpt lat="44.80318" lon="-0.35158">
        <ele>48.028</ele>
        <time>2016-04-20T15:04:35.999Z</time>
      </trkpt>
      <trkpt lat="44.80311" lon="-0.35166">
        <ele>48.479</ele>
        <time>2016-04-20T15:04:45.999Z</time>
      </trkpt>
      <trkpt lat="44.80304" lon="-0.35175">
        <ele>49.379</ele>
        <time>2016-04-20T15:04:56.999Z</time>
      </trkpt>
      <trkpt lat="44.80304" lon="-0.35175">
        <ele>50.05</ele>
        <time>2016-04-20T15:05:10.999Z</time>
      </trkpt>
      <trkpt lat="44.80304" lon="-0.35175">
        <ele>50.305</ele>
        <time>2016-04-20T15:05:14.964Z</time>
      </trkpt>
      <trkpt lat="44.80306" lon="-0.35187">
        <ele>50.244</ele>
        <time>2016-04-20T15:05:20.999Z</time>
      </trkpt>
      <trkpt lat="44.80302" lon="-0.35199">
        <ele>51.285</ele>
        <time>2016-04-20T15:05:34.999Z</time>
      </trkpt>
      <trkpt lat="44.803" lon="-0.35212">
        <ele>54.41</ele>
        <time>2016-04-20T15:05:47.999Z</time>
      </trkpt>
      <trkpt lat="44.80299" lon="-0.35224">
        <ele>57.964</ele>
        <time>2016-04-20T15:06:01.000Z</time>
      </trkpt>
      <trkpt lat="44.803" lon="-0.35238">
        <ele>60.054</ele>
        <time>2016-04-20T15:06:13.000Z</time>
      </trkpt>
      <trkpt lat="44.80299" lon="-0.35251">
        <ele>60.916</ele>
        <time>2016-04-20T15:06:21.000Z</time>
      </trkpt>
      <trkpt lat="44.80297" lon="-0.35264">
        <ele>61.32</ele>
        <time>2016-04-20T15:06:33.000Z</time>
      </trkpt>
      <trkpt lat="44.80297" lon="-0.35264">
        <ele>61.563</ele>
        <time>2016-04-20T15:06:41.000Z</time>
      </trkpt>
      <trkpt lat="44.80297" lon="-0.35264">
        <ele>61.617</ele>
        <time>2016-04-20T15:06:47.258Z</time>
      </trkpt>
      <trkpt lat="44.80299" lon="-0.35278">
        <ele>61.571</ele>
        <time>2016-04-20T15:06:56.000Z</time>
      </trkpt>
      <trkpt lat="44.80299" lon="-0.35291">
        <ele>62.21</ele>
        <time>2016-04-20T15:07:08.000Z</time>
      </trkpt>
      <trkpt lat="44.80299" lon="-0.35291">
        <ele>63.989</ele>
        <time>2016-04-20T15:07:09.000Z</time>
      </trkpt>
      <trkpt lat="44.80299" lon="-0.35291">
        <ele>65.48</ele>
        <time>2016-04-20T15:07:19.400Z</time>
      </trkpt>
      <trkpt lat="44.80299" lon="-0.35291">
        <ele>64.608</ele>
        <time>2016-04-20T15:07:31.000Z</time>
      </trkpt>
      <trkpt lat="44.80299" lon="-0.35291">
        <ele>64.09</ele>
        <time>2016-04-20T15:07:31.409Z</time>
      </trkpt>
      <trkpt lat="44.80296" lon="-0.35311">
        <ele>64.207</ele>
        <time>2016-04-20T15:07:42.000Z</time>
      </trkpt>
      <trkpt lat="44.8029" lon="-0.35321">
        <ele>65.755</ele>
        <time>2016-04-20T15:07:55.000Z</time>
      </trkpt>
      <trkpt lat="44.80287" lon="-0.35333">
        <ele>68.935</ele>
        <time>2016-04-20T15:08:04.000Z</time>
      </trkpt>
      <trkpt lat="44.80283" lon="-0.35344">
        <ele>72.391</ele>
        <time>2016-04-20T15:08:15.000Z</time>
      </trkpt>
      <trkpt lat="44.8028" lon="-0.35357">
        <ele>75.198</ele>
        <time>2016-04-20T15:08:26.000Z</time>
      </trkpt>
      <trkpt lat="44.8028" lon="-0.35357">
        <ele>77.333</ele>
        <time>2016-04-20T15:08:34.000Z</time>
      </trkpt>
      <trkpt lat="44.8028" lon="-0.35357">
        <ele>78.321</ele>
        <time>2016-04-20T15:08:45.505Z</time>
      </trkpt>
      <trkpt lat="44.8028" lon="-0.3537">
        <ele>78.178</ele>
        <time>2016-04-20T15:08:54.000Z</time>
      </trkpt>
      <trkpt lat="44.80282" lon="-0.35384">
        <ele>78.006</ele>
        <time>2016-04-20T15:09:05.000Z</time>
      </trkpt>
      <trkpt lat="44.80274" lon="-0.35392">
        <ele>78.688</ele>
        <time>2016-04-20T15:09:14.000Z</time>
      </trkpt>
      <trkpt lat="44.80266" lon="-0.35398">
        <ele>79.788</ele>
        <time>2016-04-20T15:09:23.000Z</time>
      </trkpt>
      <trkpt lat="44.80258" lon="-0.35404">
        <ele>80.433</ele>
        <time>2016-04-20T15:09:34.000Z</time>
      </trkpt>
      <trkpt lat="44.8025" lon="-0.35411">
        <ele>80.407</ele>
        <time>2016-04-20T15:09:43.000Z</time>
      </trkpt>
      <trkpt lat="44.80243" lon="-0.3542">
        <ele>80.033</ele>
        <time>2016-04-20T15:09:51.000Z</time>
      </trkpt>
      <trkpt lat="44.80238" lon="-0.3543">
        <ele>79.756</ele>
        <time>2016-04-20T15:09:58.000Z</time>
      </trkpt>
      <trkpt lat="44.80231" lon="-0.35438">
        <ele>79.745</ele>
        <time>2016-04-20T15:10:07.000Z</time>
      </trkpt>
      <trkpt lat="44.80226" lon="-0.35449">
        <ele>79.691</ele>
        <time>2016-04-20T15:10:15.000Z</time>
      </trkpt>
      <trkpt lat="44.8022" lon="-0.35459">
        <ele>79.332</ele>
        <time>2016-04-20T15:10:23.000Z</time>
      </trkpt>
      <trkpt lat="44.80214" lon="-0.35469">
        <ele>79.108</ele>
        <time>2016-04-20T15:10:32.000Z</time>
      </trkpt>
      <trkpt lat="44.80208" lon="-0.35479">
        <ele>79.598</ele>
        <time>2016-04-20T15:10:41.000Z</time>
      </trkpt>
      <trkpt lat="44.80202" lon="-0.3549">
        <ele>80.667</ele>
        <time>2016-04-20T15:10:51.000Z</time>
      </trkpt>
      <trkpt lat="44.80195" lon="-0.35499">
        <ele>81.633</ele>
        <time>2016-04-20T15:11:02.000Z</time>
      </trkpt>
      <trkpt lat="44.80195" lon="-0.35499">
        <ele>82.033</ele>
        <time>2016-04-20T15:11:02.000Z</time>
      </trkpt>
      <trkpt lat="44.80195" lon="-0.35499">
        <ele>81.99</ele>
        <time>2016-04-20T15:11:04.182Z</time>
      </trkpt>
      <trkpt lat="44.80188" lon="-0.35508">
        <ele>81.846</ele>
        <time>2016-04-20T15:11:13.000Z</time>
      </trkpt>
      <trkpt lat="44.80181" lon="-0.35516">
        <ele>81.819</ele>
        <time>2016-04-20T15:11:24.000Z</time>
      </trkpt>
      <trkpt lat="44.80175" lon="-0.35528">
        <ele>81.678</ele>
        <time>2016-04-20T15:11:35.000Z</time>
      </trkpt>
      <trkpt lat="44.80169" lon="-0.35539">
        <ele>81.56</ele>
        <time>2016-04-20T15:11:46.000Z</time>
      </trkpt>
      <trkpt lat="44.80163" lon="-0.35549">
        <ele>81.601</ele>
        <time>2016-04-20T15:11:55.000Z</time>
      </trkpt>
      <trkpt lat="44.80155" lon="-0.35557">
        <ele>81.214</ele>
        <time>2016-04-20T15:12:04.000Z</time>
      </trkpt>
      <trkpt lat="44.80147" lon="-0.35564">
        <ele>79.93</ele>
        <time>2016-04-20T15:12:15.000Z</time>
      </trkpt>
      <trkpt lat="44.80147" lon="-0.35564">
        <ele>78.477</ele>
        <time>2016-04-20T15:12:19.000Z</time>
      </trkpt>
      <trkpt lat="44.80147" lon="-0.35564">
        <ele>77.78</ele>
        <time>2016-04-20T15:12:45.501Z</time>
      </trkpt>
      <trkpt lat="44.80139" lon="-0.35573">
        <ele>78.135</ele>
        <time>2016-04-20T15:12:54.000Z</time>
      </trkpt>
      <trkpt lat="44.8013" lon="-0.35576">
        <ele>78.358</ele>
        <time>2016-04-20T15:13:02.000Z</time>
      </trkpt>
      <trkpt lat="44.80122" lon="-0.35582">
        <ele>78.128</ele>
        <time>2016-04-20T15:13:08.000Z</time>
      </trkpt>
      <trkpt lat="44.80114" lon="-0.35589">
        <ele>77.249</ele>
        <time>2016-04-20T15:13:14.000Z</time>
      </trkpt>
      <trkpt lat="44.80107" lon="-0.35599">
        <ele>76.088</ele>
        <time>2016-04-20T15:13:24.000Z</time>
      </trkpt>
      <trkpt lat="44.801" lon="-0.35608">
        <ele>75.127</ele>
        <time>2016-04-20T15:13:33.000Z</time>
      </trkpt>
      <trkpt lat="44.80092" lon="-0.35615">
        <ele>74.318</ele>
        <time>2016-04-20T15:13:42.000Z</time>
      </trkpt>
      <trkpt lat="44.80084" lon="-0.35623">
        <ele>73.466</ele>
        <time>2016-04-20T15:13:50.000Z</time>
      </trkpt>
      <trkpt lat="44.80077" lon="-0.35633">
        <ele>72.715</ele>
        <time>2016-04-20T15:13:58.000Z</time>
      </trkpt>
      <trkpt lat="44.80071" lon="-0.35644">
        <ele>72.401</ele>
        <time>2016-04-20T15:14:08.000Z</time>
      </trkpt>
      <trkpt lat="44.80063" lon="-0.35652">
        <ele>72.506</ele>
        <time>2016-04-20T15:14:17.000Z</time>
      </trkpt>
      <trkpt lat="44.80055" lon="-0.35658">
        <ele>72.732</ele>
        <time>2016-04-20T15:14:24.000Z</time>
      </trkpt>
      <trkpt lat="44.80048" lon="-0.35665">
        <ele>72.855</ele>
        <time>2016-04-20T15:14:33.000Z</time>
      </trkpt>
      <trkpt lat="44.8005" lon="-0.35678">
        <ele>73.038</ele>
        <time>2016-04-20T15:14:51.000Z</time>
      </trkpt>
      <trkpt lat="44.80055" lon="-0.3569">
        <ele>73.927</ele>
        <time>2016-04-20T15:14:59.000Z</time>
      </trkpt>
      <trkpt lat="44.8006" lon="-0.35701">
        <ele>77.078</ele>
        <time>2016-04-20T15:15:11.000Z</time>
      </trkpt>
      <trkpt lat="44.8006" lon="-0.35701">
        <ele>77.651</ele>
        <time>2016-04-20T15:15:12.000Z</time>
      </trkpt>
      <trkpt lat="44.8006" lon="-0.35701">
        <ele>77.612</ele>
        <time>2016-04-20T15:15:21.000Z</time>
      </trkpt>
      <trkpt lat="44.8006" lon="-0.35701">
        <ele>77.489</ele>
        <time>2016-04-20T15:15:25.047Z</time>
      </trkpt>
      <trkpt lat="44.80068" lon="-0.35709">
        <ele>77.498</ele>
        <time>2016-04-20T15:15:32.000Z</time>
      </trkpt>
      <trkpt lat="44.80076" lon="-0.35716">
        <ele>78.271</ele>
        <time>2016-04-20T15:15:43.000Z</time>
      </trkpt>
      <trkpt lat="44.80083" lon="-0.35724">
        <ele>82.26</ele>
        <time>2016-04-20T15:15:51.000Z</time>
      </trkpt>
      <trkpt lat="44.80091" lon="-0.3573">
        <ele>83.16</ele>
        <time>2016-04-20T15:15:59.000Z</time>
      </trkpt>
      <trkpt lat="44.80098" lon="-0.35738">
        <ele>83.233</ele>
        <time>2016-04-20T15:16:07.000Z</time>
      </trkpt>
      <trkpt lat="44.80106" lon="-0.35747">
        <ele>83.709</ele>
        <time>2016-04-20T15:16:18.000Z</time>
      </trkpt>
      <trkpt lat="44.80114" lon="-0.35755">
        <ele>84.476</ele>
        <time>2016-04-20T15:16:26.000Z</time>
      </trkpt>
      <trkpt lat="44.80123" lon="-0.35759">
        <ele>85.042</ele>
        <time>2016-04-20T15:16:32.000Z</time>
      </trkpt>
      <trkpt lat="44.80132" lon="-0.35764">
        <ele>84.726</ele>
        <time>2016-04-20T15:16:38.000Z</time>
      </trkpt>
      <trkpt lat="44.8014" lon="-0.35772">
        <ele>84.111</ele>
        <time>2016-04-20T15:16:46.000Z</time>
      </trkpt>
      <trkpt lat="44.80148" lon="-0.35781">
        <ele>83.25</ele>
        <time>2016-04-20T15:16:55.000Z</time>
      </trkpt>
      <trkpt lat="44.80154" lon="-0.3579">
        <ele>82.377</ele>
        <time>2016-04-20T15:17:03.000Z</time>
      </trkpt>
      <trkpt lat="44.80162" lon="-0.358">
        <ele>80.599</ele>
        <time>2016-04-20T15:17:12.000Z</time>
      </trkpt>
      <trkpt lat="44.8017" lon="-0.35802">
        <ele>80.243</ele>
        <time>2016-04-20T15:17:18.000Z</time>
      </trkpt>
      <trkpt lat="44.80178" lon="-0.3581">
        <ele>79.788</ele>
        <time>2016-04-20T15:17:31.000Z</time>
      </trkpt>
      <trkpt lat="44.80187" lon="-0.35814">
        <ele>79.466</ele>
        <time>2016-04-20T15:17:41.000Z</time>
      </trkpt>
      <trkpt lat="44.80196" lon="-0.35819">
        <ele>79.283</ele>
        <time>2016-04-20T15:17:51.000Z</time>
      </trkpt>
      <trkpt lat="44.80204" lon="-0.35825">
        <ele>78.988</ele>
        <time>2016-04-20T15:17:58.000Z</time>
      </trkpt>
      <trkpt lat="44.80213" lon="-0.35829">
        <ele>79.098</ele>
        <time>2016-04-20T15:18:10.000Z</time>
      </trkpt>
      <trkpt lat="44.80213" lon="-0.35843">
        <ele>79.572</ele>
        <time>2016-04-20T15:18:23.000Z</time>
      </trkpt>
      <trkpt lat="44.80209" lon="-0.35855">
        <ele>80.6</ele>
        <time>2016-04-20T15:18:34.000Z</time>
      </trkpt>
      <trkpt lat="44.80209" lon="-0.35869">
        <ele>82.093</ele>
        <time>2016-04-20T15:18:44.000Z</time>
      </trkpt>
      <trkpt lat="44.80214" lon="-0.3588">
        <ele>83.327</ele>
        <time>2016-04-20T15:18:56.000Z</time>
      </trkpt>
      <trkpt lat="44.80224" lon="-0.35878">
        <ele>83.382</ele>
        <time>2016-04-20T15:19:02.000Z</time>
      </trkpt>
      <trkpt lat="44.8023" lon="-0.35889">
        <ele>82.33</ele>
        <time>2016-04-20T15:19:15.000Z</time>
      </trkpt>
      <trkpt lat="44.80232" lon="-0.35902">
        <ele>81.016</ele>
        <time>2016-04-20T15:19:24.000Z</time>
      </trkpt>
      <trkpt lat="44.80233" lon="-0.35915">
        <ele>79.968</ele>
        <time>2016-04-20T15:19:38.000Z</time>
      </trkpt>
      <trkpt lat="44.80239" lon="-0.35924">
        <ele>79.703</ele>
        <time>2016-04-20T15:19:46.000Z</time>
      </trkpt>
      <trkpt lat="44.80241" lon="-0.35937">
        <ele>80.4</ele>
        <time>2016-04-20T15:19:56.000Z</time>
      </trkpt>
      <trkpt lat="44.80239" lon="-0.3595">
        <ele>80.952</ele>
        <time>2016-04-20T15:20:04.004Z</time>
      </trkpt>
      <trkpt lat="44.80239" lon="-0.3595">
        <ele>80.48</ele>
        <time>2016-04-20T15:20:15.999Z</time>
      </trkpt>
      <trkpt lat="44.80239" lon="-0.3595">
        <ele>79.778</ele>
        <time>2016-04-20T15:20:24.169Z</time>
      </trkpt>
      <trkpt lat="44.80244" lon="-0.35961">
        <ele>80.06</ele>
        <time>2016-04-20T15:20:38.999Z</time>
      </trkpt>
    </trkseg>
  </trk>
</gpx>